<?xml version="1.0" encoding="UTF-8" standalone="no" ?>
<gpx xmlns="http://www.topografix.com/GPX/1/1" xmlns:xsi="http://www.w3.org/2001/XMLSchema-instance" xsi:schemaLocation="http://www.topografix.com/GPX/1/1 http://www.topografix.com/GPX/1/1/gpx.xsd" version="1.1" creator="VisuGPX - https://www.visugpx.com">
  <metadata>
    <name>Randonnée GR5</name>
    <desc><![CDATA[Etape de Camp d\'Argent au refuge des Merveilles]]></desc>
  </metadata>
  <wpt lat="43.98868" lon="7.40153">
    <ele>1756</ele>
  </wpt>
  <trk>
    <name><![CDATA[Randonnée GR5_1]]></name>
    <trkseg>
      <trkpt lat="43.98868" lon="7.40153">
        <ele>1756</ele>
        <time>2013-08-26T06:38:36Z</time>
      </trkpt>
      <trkpt lat="43.9886" lon="7.40147">
        <ele>1756</ele>
        <time>2013-08-26T06:41:33Z</time>
      </trkpt>
      <trkpt lat="43.98868" lon="7.40152">
        <ele>1756</ele>
        <time>2013-08-26T06:43:31Z</time>
      </trkpt>
      <trkpt lat="43.98878" lon="7.4015">
        <ele>1756</ele>
        <time>2013-08-26T06:43:41Z</time>
      </trkpt>
      <trkpt lat="43.98883" lon="7.40139">
        <ele>1756</ele>
        <time>2013-08-26T06:44:01Z</time>
      </trkpt>
      <trkpt lat="43.98885" lon="7.40152">
        <ele>1756</ele>
        <time>2013-08-26T06:44:27Z</time>
      </trkpt>
      <trkpt lat="43.98887" lon="7.40165">
        <ele>1756</ele>
        <time>2013-08-26T06:44:37Z</time>
      </trkpt>
      <trkpt lat="43.98888" lon="7.40178">
        <ele>1762</ele>
        <time>2013-08-26T06:44:48Z</time>
      </trkpt>
      <trkpt lat="43.9889" lon="7.4019">
        <ele>1762</ele>
        <time>2013-08-26T06:45:02Z</time>
      </trkpt>
      <trkpt lat="43.98896" lon="7.40181">
        <ele>1762</ele>
        <time>2013-08-26T06:45:44Z</time>
      </trkpt>
      <trkpt lat="43.98897" lon="7.40195">
        <ele>1762</ele>
        <time>2013-08-26T06:47:15Z</time>
      </trkpt>
      <trkpt lat="43.98903" lon="7.40205">
        <ele>1762</ele>
        <time>2013-08-26T06:47:24Z</time>
      </trkpt>
      <trkpt lat="43.98906" lon="7.40216">
        <ele>1762</ele>
        <time>2013-08-26T06:47:34Z</time>
      </trkpt>
      <trkpt lat="43.98911" lon="7.40227">
        <ele>1762</ele>
        <time>2013-08-26T06:47:45Z</time>
      </trkpt>
      <trkpt lat="43.98916" lon="7.40238">
        <ele>1762</ele>
        <time>2013-08-26T06:47:54Z</time>
      </trkpt>
      <trkpt lat="43.98922" lon="7.40247">
        <ele>1762</ele>
        <time>2013-08-26T06:48:05Z</time>
      </trkpt>
      <trkpt lat="43.98926" lon="7.40259">
        <ele>1762</ele>
        <time>2013-08-26T06:48:18Z</time>
      </trkpt>
      <trkpt lat="43.98927" lon="7.40271">
        <ele>1768</ele>
        <time>2013-08-26T06:48:31Z</time>
      </trkpt>
      <trkpt lat="43.9893" lon="7.40284">
        <ele>1768</ele>
        <time>2013-08-26T06:48:44Z</time>
      </trkpt>
      <trkpt lat="43.98933" lon="7.40296">
        <ele>1768</ele>
        <time>2013-08-26T06:49:00Z</time>
      </trkpt>
      <trkpt lat="43.98935" lon="7.40308">
        <ele>1775</ele>
        <time>2013-08-26T06:49:12Z</time>
      </trkpt>
      <trkpt lat="43.98937" lon="7.40321">
        <ele>1775</ele>
        <time>2013-08-26T06:49:28Z</time>
      </trkpt>
      <trkpt lat="43.98941" lon="7.40331">
        <ele>1775</ele>
        <time>2013-08-26T06:49:44Z</time>
      </trkpt>
      <trkpt lat="43.98944" lon="7.40344">
        <ele>1781</ele>
        <time>2013-08-26T06:49:59Z</time>
      </trkpt>
      <trkpt lat="43.98944" lon="7.40356">
        <ele>1786</ele>
        <time>2013-08-26T06:50:19Z</time>
      </trkpt>
      <trkpt lat="43.98945" lon="7.40369">
        <ele>1786</ele>
        <time>2013-08-26T06:50:38Z</time>
      </trkpt>
      <trkpt lat="43.98948" lon="7.40381">
        <ele>1786</ele>
        <time>2013-08-26T06:50:54Z</time>
      </trkpt>
      <trkpt lat="43.9895" lon="7.40393">
        <ele>1786</ele>
        <time>2013-08-26T06:51:16Z</time>
      </trkpt>
      <trkpt lat="43.98952" lon="7.40406">
        <ele>1795</ele>
        <time>2013-08-26T06:51:35Z</time>
      </trkpt>
      <trkpt lat="43.98953" lon="7.40418">
        <ele>1795</ele>
        <time>2013-08-26T06:51:47Z</time>
      </trkpt>
      <trkpt lat="43.98954" lon="7.40432">
        <ele>1795</ele>
        <time>2013-08-26T06:52:03Z</time>
      </trkpt>
      <trkpt lat="43.98955" lon="7.40445">
        <ele>1795</ele>
        <time>2013-08-26T06:52:21Z</time>
      </trkpt>
      <trkpt lat="43.98956" lon="7.40457">
        <ele>1800</ele>
        <time>2013-08-26T06:52:38Z</time>
      </trkpt>
      <trkpt lat="43.98958" lon="7.4047">
        <ele>1800</ele>
        <time>2013-08-26T06:52:51Z</time>
      </trkpt>
      <trkpt lat="43.98964" lon="7.4048">
        <ele>1800</ele>
        <time>2013-08-26T06:53:09Z</time>
      </trkpt>
      <trkpt lat="43.98964" lon="7.40492">
        <ele>1811</ele>
        <time>2013-08-26T06:53:33Z</time>
      </trkpt>
      <trkpt lat="43.98967" lon="7.40504">
        <ele>1811</ele>
        <time>2013-08-26T06:53:46Z</time>
      </trkpt>
      <trkpt lat="43.98967" lon="7.40516">
        <ele>1811</ele>
        <time>2013-08-26T06:54:02Z</time>
      </trkpt>
      <trkpt lat="43.9897" lon="7.40528">
        <ele>1811</ele>
        <time>2013-08-26T06:54:15Z</time>
      </trkpt>
      <trkpt lat="43.98971" lon="7.40541">
        <ele>1820</ele>
        <time>2013-08-26T06:54:39Z</time>
      </trkpt>
      <trkpt lat="43.98974" lon="7.40552">
        <ele>1820</ele>
        <time>2013-08-26T06:54:57Z</time>
      </trkpt>
      <trkpt lat="43.98978" lon="7.40564">
        <ele>1825</ele>
        <time>2013-08-26T06:55:16Z</time>
      </trkpt>
      <trkpt lat="43.98985" lon="7.40571">
        <ele>1825</ele>
        <time>2013-08-26T06:55:28Z</time>
      </trkpt>
      <trkpt lat="43.98988" lon="7.40583">
        <ele>1825</ele>
        <time>2013-08-26T06:57:11Z</time>
      </trkpt>
      <trkpt lat="43.9899" lon="7.40596">
        <ele>1825</ele>
        <time>2013-08-26T06:57:29Z</time>
      </trkpt>
      <trkpt lat="43.98995" lon="7.40606">
        <ele>1833</ele>
        <time>2013-08-26T06:57:43Z</time>
      </trkpt>
      <trkpt lat="43.99" lon="7.40616">
        <ele>1833</ele>
        <time>2013-08-26T06:57:56Z</time>
      </trkpt>
      <trkpt lat="43.99007" lon="7.40625">
        <ele>1833</ele>
        <time>2013-08-26T06:58:09Z</time>
      </trkpt>
      <trkpt lat="43.99011" lon="7.40636">
        <ele>1833</ele>
        <time>2013-08-26T06:58:25Z</time>
      </trkpt>
      <trkpt lat="43.99016" lon="7.40646">
        <ele>1833</ele>
        <time>2013-08-26T06:58:37Z</time>
      </trkpt>
      <trkpt lat="43.99021" lon="7.40657">
        <ele>1840</ele>
        <time>2013-08-26T06:58:51Z</time>
      </trkpt>
      <trkpt lat="43.99025" lon="7.40668">
        <ele>1840</ele>
        <time>2013-08-26T06:59:06Z</time>
      </trkpt>
      <trkpt lat="43.99031" lon="7.40678">
        <ele>1840</ele>
        <time>2013-08-26T06:59:17Z</time>
      </trkpt>
      <trkpt lat="43.99035" lon="7.40689">
        <ele>1840</ele>
        <time>2013-08-26T06:59:34Z</time>
      </trkpt>
      <trkpt lat="43.9904" lon="7.40701">
        <ele>1846</ele>
        <time>2013-08-26T06:59:50Z</time>
      </trkpt>
      <trkpt lat="43.99045" lon="7.40711">
        <ele>1846</ele>
        <time>2013-08-26T07:00:07Z</time>
      </trkpt>
      <trkpt lat="43.99052" lon="7.40718">
        <ele>1846</ele>
        <time>2013-08-26T07:00:24Z</time>
      </trkpt>
      <trkpt lat="43.99057" lon="7.40728">
        <ele>1852</ele>
        <time>2013-08-26T07:00:39Z</time>
      </trkpt>
      <trkpt lat="43.99048" lon="7.40726">
        <ele>1852</ele>
        <time>2013-08-26T07:01:32Z</time>
      </trkpt>
      <trkpt lat="43.9904" lon="7.40729">
        <ele>1852</ele>
        <time>2013-08-26T07:01:43Z</time>
      </trkpt>
      <trkpt lat="43.99035" lon="7.40739">
        <ele>1852</ele>
        <time>2013-08-26T07:01:57Z</time>
      </trkpt>
      <trkpt lat="43.99036" lon="7.40752">
        <ele>1852</ele>
        <time>2013-08-26T07:02:22Z</time>
      </trkpt>
      <trkpt lat="43.9904" lon="7.40764">
        <ele>1852</ele>
        <time>2013-08-26T07:02:36Z</time>
      </trkpt>
      <trkpt lat="43.99043" lon="7.40778">
        <ele>1852</ele>
        <time>2013-08-26T07:02:48Z</time>
      </trkpt>
      <trkpt lat="43.99049" lon="7.40788">
        <ele>1852</ele>
        <time>2013-08-26T07:03:00Z</time>
      </trkpt>
      <trkpt lat="43.99056" lon="7.40795">
        <ele>1852</ele>
        <time>2013-08-26T07:03:09Z</time>
      </trkpt>
      <trkpt lat="43.99064" lon="7.40801">
        <ele>1846</ele>
        <time>2013-08-26T07:03:17Z</time>
      </trkpt>
      <trkpt lat="43.99071" lon="7.40809">
        <ele>1846</ele>
        <time>2013-08-26T07:03:28Z</time>
      </trkpt>
      <trkpt lat="43.99075" lon="7.4082">
        <ele>1846</ele>
        <time>2013-08-26T07:03:41Z</time>
      </trkpt>
      <trkpt lat="43.99081" lon="7.4083">
        <ele>1846</ele>
        <time>2013-08-26T07:03:52Z</time>
      </trkpt>
      <trkpt lat="43.99088" lon="7.4084">
        <ele>1846</ele>
        <time>2013-08-26T07:04:03Z</time>
      </trkpt>
      <trkpt lat="43.9909" lon="7.40852">
        <ele>1858</ele>
        <time>2013-08-26T07:04:09Z</time>
      </trkpt>
      <trkpt lat="43.99092" lon="7.40865">
        <ele>1870</ele>
        <time>2013-08-26T07:04:16Z</time>
      </trkpt>
      <trkpt lat="43.991" lon="7.40871">
        <ele>1870</ele>
        <time>2013-08-26T07:04:26Z</time>
      </trkpt>
      <trkpt lat="43.99108" lon="7.40866">
        <ele>1861</ele>
        <time>2013-08-26T07:04:34Z</time>
      </trkpt>
      <trkpt lat="43.99114" lon="7.40876">
        <ele>1861</ele>
        <time>2013-08-26T07:04:41Z</time>
      </trkpt>
      <trkpt lat="43.99123" lon="7.40878">
        <ele>1861</ele>
        <time>2013-08-26T07:04:51Z</time>
      </trkpt>
      <trkpt lat="43.99134" lon="7.40884">
        <ele>1853</ele>
        <time>2013-08-26T07:05:03Z</time>
      </trkpt>
      <trkpt lat="43.99144" lon="7.40885">
        <ele>1853</ele>
        <time>2013-08-26T07:05:14Z</time>
      </trkpt>
      <trkpt lat="43.99149" lon="7.40895">
        <ele>1853</ele>
        <time>2013-08-26T07:05:20Z</time>
      </trkpt>
      <trkpt lat="43.99158" lon="7.40898">
        <ele>1853</ele>
        <time>2013-08-26T07:05:30Z</time>
      </trkpt>
      <trkpt lat="43.99165" lon="7.4091">
        <ele>1853</ele>
        <time>2013-08-26T07:05:39Z</time>
      </trkpt>
      <trkpt lat="43.99172" lon="7.40919">
        <ele>1853</ele>
        <time>2013-08-26T07:05:47Z</time>
      </trkpt>
      <trkpt lat="43.9918" lon="7.40923">
        <ele>1853</ele>
        <time>2013-08-26T07:05:57Z</time>
      </trkpt>
      <trkpt lat="43.99187" lon="7.40934">
        <ele>1859</ele>
        <time>2013-08-26T07:06:06Z</time>
      </trkpt>
      <trkpt lat="43.99195" lon="7.4094">
        <ele>1859</ele>
        <time>2013-08-26T07:06:17Z</time>
      </trkpt>
      <trkpt lat="43.99201" lon="7.4095">
        <ele>1859</ele>
        <time>2013-08-26T07:06:27Z</time>
      </trkpt>
      <trkpt lat="43.99209" lon="7.40958">
        <ele>1859</ele>
        <time>2013-08-26T07:06:35Z</time>
      </trkpt>
      <trkpt lat="43.99214" lon="7.40968">
        <ele>1859</ele>
        <time>2013-08-26T07:06:43Z</time>
      </trkpt>
      <trkpt lat="43.9922" lon="7.40978">
        <ele>1859</ele>
        <time>2013-08-26T07:06:54Z</time>
      </trkpt>
      <trkpt lat="43.99227" lon="7.40987">
        <ele>1859</ele>
        <time>2013-08-26T07:07:05Z</time>
      </trkpt>
      <trkpt lat="43.99234" lon="7.40997">
        <ele>1859</ele>
        <time>2013-08-26T07:07:12Z</time>
      </trkpt>
      <trkpt lat="43.9924" lon="7.41006">
        <ele>1859</ele>
        <time>2013-08-26T07:07:24Z</time>
      </trkpt>
      <trkpt lat="43.99247" lon="7.41015">
        <ele>1865</ele>
        <time>2013-08-26T07:07:31Z</time>
      </trkpt>
      <trkpt lat="43.99252" lon="7.41025">
        <ele>1865</ele>
        <time>2013-08-26T07:07:40Z</time>
      </trkpt>
      <trkpt lat="43.99258" lon="7.41036">
        <ele>1865</ele>
        <time>2013-08-26T07:07:50Z</time>
      </trkpt>
      <trkpt lat="43.99264" lon="7.41045">
        <ele>1865</ele>
        <time>2013-08-26T07:08:01Z</time>
      </trkpt>
      <trkpt lat="43.99272" lon="7.41052">
        <ele>1865</ele>
        <time>2013-08-26T07:08:08Z</time>
      </trkpt>
      <trkpt lat="43.9928" lon="7.41058">
        <ele>1865</ele>
        <time>2013-08-26T07:08:17Z</time>
      </trkpt>
      <trkpt lat="43.99287" lon="7.41066">
        <ele>1865</ele>
        <time>2013-08-26T07:08:26Z</time>
      </trkpt>
      <trkpt lat="43.99295" lon="7.4107">
        <ele>1870</ele>
        <time>2013-08-26T07:08:35Z</time>
      </trkpt>
      <trkpt lat="43.993" lon="7.4108">
        <ele>1879</ele>
        <time>2013-08-26T07:08:43Z</time>
      </trkpt>
      <trkpt lat="43.99306" lon="7.41091">
        <ele>1890</ele>
        <time>2013-08-26T07:08:51Z</time>
      </trkpt>
      <trkpt lat="43.99315" lon="7.41094">
        <ele>1897</ele>
        <time>2013-08-26T07:09:02Z</time>
      </trkpt>
      <trkpt lat="43.99324" lon="7.41091">
        <ele>1897</ele>
        <time>2013-08-26T07:09:12Z</time>
      </trkpt>
      <trkpt lat="43.99333" lon="7.41086">
        <ele>1888</ele>
        <time>2013-08-26T07:09:18Z</time>
      </trkpt>
      <trkpt lat="43.9934" lon="7.41079">
        <ele>1881</ele>
        <time>2013-08-26T07:09:23Z</time>
      </trkpt>
      <trkpt lat="43.9935" lon="7.41081">
        <ele>1881</ele>
        <time>2013-08-26T07:09:32Z</time>
      </trkpt>
      <trkpt lat="43.99359" lon="7.41079">
        <ele>1881</ele>
        <time>2013-08-26T07:09:40Z</time>
      </trkpt>
      <trkpt lat="43.99367" lon="7.41082">
        <ele>1881</ele>
        <time>2013-08-26T07:09:51Z</time>
      </trkpt>
      <trkpt lat="43.99376" lon="7.41082">
        <ele>1881</ele>
        <time>2013-08-26T07:10:00Z</time>
      </trkpt>
      <trkpt lat="43.99385" lon="7.41087">
        <ele>1881</ele>
        <time>2013-08-26T07:10:10Z</time>
      </trkpt>
      <trkpt lat="43.99394" lon="7.41089">
        <ele>1881</ele>
        <time>2013-08-26T07:10:18Z</time>
      </trkpt>
      <trkpt lat="43.99403" lon="7.41091">
        <ele>1881</ele>
        <time>2013-08-26T07:10:27Z</time>
      </trkpt>
      <trkpt lat="43.99412" lon="7.41089">
        <ele>1875</ele>
        <time>2013-08-26T07:10:35Z</time>
      </trkpt>
      <trkpt lat="43.99419" lon="7.41096">
        <ele>1875</ele>
        <time>2013-08-26T07:10:50Z</time>
      </trkpt>
      <trkpt lat="43.99428" lon="7.41098">
        <ele>1875</ele>
        <time>2013-08-26T07:10:59Z</time>
      </trkpt>
      <trkpt lat="43.99438" lon="7.41099">
        <ele>1875</ele>
        <time>2013-08-26T07:11:10Z</time>
      </trkpt>
      <trkpt lat="43.99442" lon="7.41111">
        <ele>1875</ele>
        <time>2013-08-26T07:11:18Z</time>
      </trkpt>
      <trkpt lat="43.9945" lon="7.41118">
        <ele>1880</ele>
        <time>2013-08-26T07:11:27Z</time>
      </trkpt>
      <trkpt lat="43.99455" lon="7.41129">
        <ele>1880</ele>
        <time>2013-08-26T07:11:36Z</time>
      </trkpt>
      <trkpt lat="43.99464" lon="7.41128">
        <ele>1880</ele>
        <time>2013-08-26T07:11:45Z</time>
      </trkpt>
      <trkpt lat="43.9947" lon="7.41138">
        <ele>1880</ele>
        <time>2013-08-26T07:11:54Z</time>
      </trkpt>
      <trkpt lat="43.99476" lon="7.41148">
        <ele>1880</ele>
        <time>2013-08-26T07:12:05Z</time>
      </trkpt>
      <trkpt lat="43.99483" lon="7.41157">
        <ele>1885</ele>
        <time>2013-08-26T07:12:16Z</time>
      </trkpt>
      <trkpt lat="43.99489" lon="7.41168">
        <ele>1885</ele>
        <time>2013-08-26T07:12:25Z</time>
      </trkpt>
      <trkpt lat="43.99494" lon="7.41178">
        <ele>1885</ele>
        <time>2013-08-26T07:12:36Z</time>
      </trkpt>
      <trkpt lat="43.995" lon="7.41189">
        <ele>1885</ele>
        <time>2013-08-26T07:12:45Z</time>
      </trkpt>
      <trkpt lat="43.99505" lon="7.412">
        <ele>1885</ele>
        <time>2013-08-26T07:12:55Z</time>
      </trkpt>
      <trkpt lat="43.99509" lon="7.41212">
        <ele>1885</ele>
        <time>2013-08-26T07:13:05Z</time>
      </trkpt>
      <trkpt lat="43.99512" lon="7.41223">
        <ele>1885</ele>
        <time>2013-08-26T07:13:16Z</time>
      </trkpt>
      <trkpt lat="43.99518" lon="7.41234">
        <ele>1885</ele>
        <time>2013-08-26T07:13:24Z</time>
      </trkpt>
      <trkpt lat="43.99523" lon="7.41246">
        <ele>1891</ele>
        <time>2013-08-26T07:13:32Z</time>
      </trkpt>
      <trkpt lat="43.99527" lon="7.41257">
        <ele>1891</ele>
        <time>2013-08-26T07:13:41Z</time>
      </trkpt>
      <trkpt lat="43.9953" lon="7.41269">
        <ele>1891</ele>
        <time>2013-08-26T07:13:51Z</time>
      </trkpt>
      <trkpt lat="43.99534" lon="7.41281">
        <ele>1891</ele>
        <time>2013-08-26T07:14:03Z</time>
      </trkpt>
      <trkpt lat="43.99538" lon="7.41293">
        <ele>1897</ele>
        <time>2013-08-26T07:14:13Z</time>
      </trkpt>
      <trkpt lat="43.99543" lon="7.41304">
        <ele>1897</ele>
        <time>2013-08-26T07:14:23Z</time>
      </trkpt>
      <trkpt lat="43.99549" lon="7.41314">
        <ele>1897</ele>
        <time>2013-08-26T07:14:33Z</time>
      </trkpt>
      <trkpt lat="43.99557" lon="7.41318">
        <ele>1897</ele>
        <time>2013-08-26T07:14:43Z</time>
      </trkpt>
      <trkpt lat="43.99564" lon="7.41327">
        <ele>1897</ele>
        <time>2013-08-26T07:19:39Z</time>
      </trkpt>
      <trkpt lat="43.99571" lon="7.41335">
        <ele>1897</ele>
        <time>2013-08-26T07:19:56Z</time>
      </trkpt>
      <trkpt lat="43.99578" lon="7.41343">
        <ele>1897</ele>
        <time>2013-08-26T07:20:12Z</time>
      </trkpt>
      <trkpt lat="43.99584" lon="7.41353">
        <ele>1906</ele>
        <time>2013-08-26T07:20:33Z</time>
      </trkpt>
      <trkpt lat="43.99582" lon="7.41365">
        <ele>1906</ele>
        <time>2013-08-26T07:20:50Z</time>
      </trkpt>
      <trkpt lat="43.99586" lon="7.41377">
        <ele>1906</ele>
        <time>2013-08-26T07:21:03Z</time>
      </trkpt>
      <trkpt lat="43.99588" lon="7.41389">
        <ele>1906</ele>
        <time>2013-08-26T07:21:22Z</time>
      </trkpt>
      <trkpt lat="43.99592" lon="7.414">
        <ele>1906</ele>
        <time>2013-08-26T07:21:36Z</time>
      </trkpt>
      <trkpt lat="43.99595" lon="7.41412">
        <ele>1906</ele>
        <time>2013-08-26T07:21:53Z</time>
      </trkpt>
      <trkpt lat="43.99601" lon="7.41422">
        <ele>1906</ele>
        <time>2013-08-26T07:22:13Z</time>
      </trkpt>
      <trkpt lat="43.99604" lon="7.41434">
        <ele>1906</ele>
        <time>2013-08-26T07:22:31Z</time>
      </trkpt>
      <trkpt lat="43.99608" lon="7.41445">
        <ele>1913</ele>
        <time>2013-08-26T07:22:46Z</time>
      </trkpt>
      <trkpt lat="43.99608" lon="7.41458">
        <ele>1913</ele>
        <time>2013-08-26T07:23:07Z</time>
      </trkpt>
      <trkpt lat="43.9961" lon="7.4147">
        <ele>1921</ele>
        <time>2013-08-26T07:23:27Z</time>
      </trkpt>
      <trkpt lat="43.99611" lon="7.41483">
        <ele>1921</ele>
        <time>2013-08-26T07:23:46Z</time>
      </trkpt>
      <trkpt lat="43.99612" lon="7.41496">
        <ele>1921</ele>
        <time>2013-08-26T07:24:06Z</time>
      </trkpt>
      <trkpt lat="43.99614" lon="7.41508">
        <ele>1921</ele>
        <time>2013-08-26T07:24:23Z</time>
      </trkpt>
      <trkpt lat="43.99614" lon="7.41521">
        <ele>1929</ele>
        <time>2013-08-26T07:24:44Z</time>
      </trkpt>
      <trkpt lat="43.99614" lon="7.41533">
        <ele>1929</ele>
        <time>2013-08-26T07:25:16Z</time>
      </trkpt>
      <trkpt lat="43.99614" lon="7.41546">
        <ele>1929</ele>
        <time>2013-08-26T07:26:12Z</time>
      </trkpt>
      <trkpt lat="43.99619" lon="7.41557">
        <ele>1939</ele>
        <time>2013-08-26T07:26:31Z</time>
      </trkpt>
      <trkpt lat="43.99621" lon="7.41568">
        <ele>1939</ele>
        <time>2013-08-26T07:26:46Z</time>
      </trkpt>
      <trkpt lat="43.99624" lon="7.4158">
        <ele>1939</ele>
        <time>2013-08-26T07:27:04Z</time>
      </trkpt>
      <trkpt lat="43.99628" lon="7.41592">
        <ele>1939</ele>
        <time>2013-08-26T07:27:20Z</time>
      </trkpt>
      <trkpt lat="43.99632" lon="7.41603">
        <ele>1939</ele>
        <time>2013-08-26T07:27:34Z</time>
      </trkpt>
      <trkpt lat="43.99636" lon="7.41615">
        <ele>1939</ele>
        <time>2013-08-26T07:27:47Z</time>
      </trkpt>
      <trkpt lat="43.99639" lon="7.41627">
        <ele>1939</ele>
        <time>2013-08-26T07:28:04Z</time>
      </trkpt>
      <trkpt lat="43.99643" lon="7.41638">
        <ele>1939</ele>
        <time>2013-08-26T07:28:18Z</time>
      </trkpt>
      <trkpt lat="43.99647" lon="7.41649">
        <ele>1951</ele>
        <time>2013-08-26T07:28:35Z</time>
      </trkpt>
      <trkpt lat="43.9965" lon="7.41662">
        <ele>1951</ele>
        <time>2013-08-26T07:28:45Z</time>
      </trkpt>
      <trkpt lat="43.99652" lon="7.41675">
        <ele>1945</ele>
        <time>2013-08-26T07:29:01Z</time>
      </trkpt>
      <trkpt lat="43.99658" lon="7.41685">
        <ele>1952</ele>
        <time>2013-08-26T07:29:21Z</time>
      </trkpt>
      <trkpt lat="43.99662" lon="7.41697">
        <ele>1952</ele>
        <time>2013-08-26T07:29:38Z</time>
      </trkpt>
      <trkpt lat="43.99667" lon="7.41708">
        <ele>1952</ele>
        <time>2013-08-26T07:30:13Z</time>
      </trkpt>
      <trkpt lat="43.99666" lon="7.41696">
        <ele>1952</ele>
        <time>2013-08-26T07:31:47Z</time>
      </trkpt>
      <trkpt lat="43.99675" lon="7.41693">
        <ele>1962</ele>
        <time>2013-08-26T07:32:13Z</time>
      </trkpt>
      <trkpt lat="43.99667" lon="7.41699">
        <ele>1962</ele>
        <time>2013-08-26T07:33:22Z</time>
      </trkpt>
      <trkpt lat="43.99666" lon="7.41712">
        <ele>1962</ele>
        <time>2013-08-26T07:33:43Z</time>
      </trkpt>
      <trkpt lat="43.99666" lon="7.41725">
        <ele>1962</ele>
        <time>2013-08-26T07:33:58Z</time>
      </trkpt>
      <trkpt lat="43.99664" lon="7.41709">
        <ele>1962</ele>
        <time>2013-08-26T07:34:30Z</time>
      </trkpt>
      <trkpt lat="43.99667" lon="7.41698">
        <ele>1962</ele>
        <time>2013-08-26T07:34:48Z</time>
      </trkpt>
      <trkpt lat="43.99677" lon="7.41696">
        <ele>1962</ele>
        <time>2013-08-26T07:35:06Z</time>
      </trkpt>
      <trkpt lat="43.9968" lon="7.41708">
        <ele>1962</ele>
        <time>2013-08-26T07:35:48Z</time>
      </trkpt>
      <trkpt lat="43.99678" lon="7.41719">
        <ele>1962</ele>
        <time>2013-08-26T07:36:04Z</time>
      </trkpt>
      <trkpt lat="43.99678" lon="7.41732">
        <ele>1962</ele>
        <time>2013-08-26T07:36:24Z</time>
      </trkpt>
      <trkpt lat="43.99679" lon="7.41744">
        <ele>1969</ele>
        <time>2013-08-26T07:36:46Z</time>
      </trkpt>
      <trkpt lat="43.99678" lon="7.41757">
        <ele>1969</ele>
        <time>2013-08-26T07:37:08Z</time>
      </trkpt>
      <trkpt lat="43.9968" lon="7.41769">
        <ele>1975</ele>
        <time>2013-08-26T07:37:22Z</time>
      </trkpt>
      <trkpt lat="43.9968" lon="7.41781">
        <ele>1975</ele>
        <time>2013-08-26T07:37:37Z</time>
      </trkpt>
      <trkpt lat="43.99679" lon="7.41795">
        <ele>1975</ele>
        <time>2013-08-26T07:37:54Z</time>
      </trkpt>
      <trkpt lat="43.99681" lon="7.41807">
        <ele>1975</ele>
        <time>2013-08-26T07:38:06Z</time>
      </trkpt>
      <trkpt lat="43.99679" lon="7.4182">
        <ele>1980</ele>
        <time>2013-08-26T07:38:21Z</time>
      </trkpt>
      <trkpt lat="43.99678" lon="7.41832">
        <ele>1980</ele>
        <time>2013-08-26T07:38:36Z</time>
      </trkpt>
      <trkpt lat="43.99677" lon="7.41845">
        <ele>1980</ele>
        <time>2013-08-26T07:38:50Z</time>
      </trkpt>
      <trkpt lat="43.99675" lon="7.41857">
        <ele>1987</ele>
        <time>2013-08-26T07:39:06Z</time>
      </trkpt>
      <trkpt lat="43.9967" lon="7.41867">
        <ele>1987</ele>
        <time>2013-08-26T07:39:21Z</time>
      </trkpt>
      <trkpt lat="43.99669" lon="7.4188">
        <ele>1987</ele>
        <time>2013-08-26T07:39:34Z</time>
      </trkpt>
      <trkpt lat="43.99669" lon="7.41893">
        <ele>1987</ele>
        <time>2013-08-26T07:39:48Z</time>
      </trkpt>
      <trkpt lat="43.99669" lon="7.41906">
        <ele>1987</ele>
        <time>2013-08-26T07:40:01Z</time>
      </trkpt>
      <trkpt lat="43.99667" lon="7.41919">
        <ele>1987</ele>
        <time>2013-08-26T07:40:14Z</time>
      </trkpt>
      <trkpt lat="43.99663" lon="7.4193">
        <ele>1987</ele>
        <time>2013-08-26T07:40:28Z</time>
      </trkpt>
      <trkpt lat="43.99662" lon="7.41943">
        <ele>1994</ele>
        <time>2013-08-26T07:40:40Z</time>
      </trkpt>
      <trkpt lat="43.99658" lon="7.41955">
        <ele>1994</ele>
        <time>2013-08-26T07:40:52Z</time>
      </trkpt>
      <trkpt lat="43.99655" lon="7.41966">
        <ele>1994</ele>
        <time>2013-08-26T07:41:06Z</time>
      </trkpt>
      <trkpt lat="43.99652" lon="7.41978">
        <ele>1994</ele>
        <time>2013-08-26T07:41:23Z</time>
      </trkpt>
      <trkpt lat="43.9965" lon="7.41991">
        <ele>2000</ele>
        <time>2013-08-26T07:41:39Z</time>
      </trkpt>
      <trkpt lat="43.99649" lon="7.42003">
        <ele>2000</ele>
        <time>2013-08-26T07:41:54Z</time>
      </trkpt>
      <trkpt lat="43.99649" lon="7.42016">
        <ele>2000</ele>
        <time>2013-08-26T07:42:09Z</time>
      </trkpt>
      <trkpt lat="43.99648" lon="7.42028">
        <ele>2000</ele>
        <time>2013-08-26T07:42:32Z</time>
      </trkpt>
      <trkpt lat="43.99643" lon="7.42038">
        <ele>2000</ele>
        <time>2013-08-26T07:44:15Z</time>
      </trkpt>
      <trkpt lat="43.99635" lon="7.42047">
        <ele>2009</ele>
        <time>2013-08-26T07:44:33Z</time>
      </trkpt>
      <trkpt lat="43.99634" lon="7.4206">
        <ele>2009</ele>
        <time>2013-08-26T07:44:44Z</time>
      </trkpt>
      <trkpt lat="43.99633" lon="7.42072">
        <ele>2009</ele>
        <time>2013-08-26T07:44:58Z</time>
      </trkpt>
      <trkpt lat="43.99632" lon="7.42085">
        <ele>2009</ele>
        <time>2013-08-26T07:45:17Z</time>
      </trkpt>
      <trkpt lat="43.99629" lon="7.42097">
        <ele>2017</ele>
        <time>2013-08-26T07:45:33Z</time>
      </trkpt>
      <trkpt lat="43.99624" lon="7.42107">
        <ele>2017</ele>
        <time>2013-08-26T07:45:47Z</time>
      </trkpt>
      <trkpt lat="43.9962" lon="7.42119">
        <ele>2017</ele>
        <time>2013-08-26T07:46:00Z</time>
      </trkpt>
      <trkpt lat="43.99619" lon="7.42132">
        <ele>2017</ele>
        <time>2013-08-26T07:46:16Z</time>
      </trkpt>
      <trkpt lat="43.99617" lon="7.42144">
        <ele>2023</ele>
        <time>2013-08-26T07:46:32Z</time>
      </trkpt>
      <trkpt lat="43.99616" lon="7.42157">
        <ele>2023</ele>
        <time>2013-08-26T07:46:47Z</time>
      </trkpt>
      <trkpt lat="43.99614" lon="7.42169">
        <ele>2023</ele>
        <time>2013-08-26T07:47:03Z</time>
      </trkpt>
      <trkpt lat="43.99612" lon="7.42182">
        <ele>2023</ele>
        <time>2013-08-26T07:47:19Z</time>
      </trkpt>
      <trkpt lat="43.99612" lon="7.42194">
        <ele>2023</ele>
        <time>2013-08-26T07:47:36Z</time>
      </trkpt>
      <trkpt lat="43.99614" lon="7.42207">
        <ele>2028</ele>
        <time>2013-08-26T07:47:53Z</time>
      </trkpt>
      <trkpt lat="43.99615" lon="7.4222">
        <ele>2028</ele>
        <time>2013-08-26T07:48:10Z</time>
      </trkpt>
      <trkpt lat="43.99614" lon="7.42232">
        <ele>2028</ele>
        <time>2013-08-26T07:48:25Z</time>
      </trkpt>
      <trkpt lat="43.99614" lon="7.42245">
        <ele>2034</ele>
        <time>2013-08-26T07:48:41Z</time>
      </trkpt>
      <trkpt lat="43.99617" lon="7.42256">
        <ele>2034</ele>
        <time>2013-08-26T07:48:54Z</time>
      </trkpt>
      <trkpt lat="43.99619" lon="7.42268">
        <ele>2034</ele>
        <time>2013-08-26T07:49:08Z</time>
      </trkpt>
      <trkpt lat="43.99627" lon="7.42275">
        <ele>2034</ele>
        <time>2013-08-26T07:49:24Z</time>
      </trkpt>
      <trkpt lat="43.99631" lon="7.42286">
        <ele>2034</ele>
        <time>2013-08-26T07:49:41Z</time>
      </trkpt>
      <trkpt lat="43.99636" lon="7.42297">
        <ele>2041</ele>
        <time>2013-08-26T07:49:55Z</time>
      </trkpt>
      <trkpt lat="43.99641" lon="7.42307">
        <ele>2041</ele>
        <time>2013-08-26T07:50:12Z</time>
      </trkpt>
      <trkpt lat="43.99643" lon="7.42319">
        <ele>2041</ele>
        <time>2013-08-26T07:54:34Z</time>
      </trkpt>
      <trkpt lat="43.9965" lon="7.42329">
        <ele>2047</ele>
        <time>2013-08-26T07:54:46Z</time>
      </trkpt>
      <trkpt lat="43.99654" lon="7.4234">
        <ele>2047</ele>
        <time>2013-08-26T07:54:59Z</time>
      </trkpt>
      <trkpt lat="43.99659" lon="7.42352">
        <ele>2047</ele>
        <time>2013-08-26T07:55:16Z</time>
      </trkpt>
      <trkpt lat="43.99667" lon="7.42359">
        <ele>2047</ele>
        <time>2013-08-26T07:55:30Z</time>
      </trkpt>
      <trkpt lat="43.99671" lon="7.4237">
        <ele>2052</ele>
        <time>2013-08-26T07:55:43Z</time>
      </trkpt>
      <trkpt lat="43.99676" lon="7.42381">
        <ele>2052</ele>
        <time>2013-08-26T07:55:58Z</time>
      </trkpt>
      <trkpt lat="43.99681" lon="7.42391">
        <ele>2052</ele>
        <time>2013-08-26T07:56:15Z</time>
      </trkpt>
      <trkpt lat="43.99686" lon="7.42402">
        <ele>2060</ele>
        <time>2013-08-26T07:56:35Z</time>
      </trkpt>
      <trkpt lat="43.9969" lon="7.42414">
        <ele>2060</ele>
        <time>2013-08-26T07:56:58Z</time>
      </trkpt>
      <trkpt lat="43.99695" lon="7.42423">
        <ele>2060</ele>
        <time>2013-08-26T07:57:19Z</time>
      </trkpt>
      <trkpt lat="43.99702" lon="7.42432">
        <ele>2060</ele>
        <time>2013-08-26T07:57:39Z</time>
      </trkpt>
      <trkpt lat="43.9971" lon="7.4244">
        <ele>2060</ele>
        <time>2013-08-26T07:58:40Z</time>
      </trkpt>
      <trkpt lat="43.99716" lon="7.4245">
        <ele>2066</ele>
        <time>2013-08-26T07:58:52Z</time>
      </trkpt>
      <trkpt lat="43.99721" lon="7.4246">
        <ele>2066</ele>
        <time>2013-08-26T07:59:02Z</time>
      </trkpt>
      <trkpt lat="43.99724" lon="7.42472">
        <ele>2066</ele>
        <time>2013-08-26T07:59:10Z</time>
      </trkpt>
      <trkpt lat="43.99728" lon="7.42483">
        <ele>2066</ele>
        <time>2013-08-26T07:59:18Z</time>
      </trkpt>
      <trkpt lat="43.99734" lon="7.42494">
        <ele>2066</ele>
        <time>2013-08-26T07:59:27Z</time>
      </trkpt>
      <trkpt lat="43.99741" lon="7.42503">
        <ele>2066</ele>
        <time>2013-08-26T07:59:36Z</time>
      </trkpt>
      <trkpt lat="43.99747" lon="7.42512">
        <ele>2066</ele>
        <time>2013-08-26T07:59:44Z</time>
      </trkpt>
      <trkpt lat="43.99753" lon="7.42521">
        <ele>2066</ele>
        <time>2013-08-26T07:59:52Z</time>
      </trkpt>
      <trkpt lat="43.9976" lon="7.42529">
        <ele>2066</ele>
        <time>2013-08-26T08:00:01Z</time>
      </trkpt>
      <trkpt lat="43.99767" lon="7.42538">
        <ele>2066</ele>
        <time>2013-08-26T08:00:10Z</time>
      </trkpt>
      <trkpt lat="43.99774" lon="7.42546">
        <ele>2066</ele>
        <time>2013-08-26T08:00:58Z</time>
      </trkpt>
      <trkpt lat="43.99784" lon="7.42547">
        <ele>2066</ele>
        <time>2013-08-26T08:01:07Z</time>
      </trkpt>
      <trkpt lat="43.99791" lon="7.42555">
        <ele>2066</ele>
        <time>2013-08-26T08:01:58Z</time>
      </trkpt>
      <trkpt lat="43.998" lon="7.4256">
        <ele>2066</ele>
        <time>2013-08-26T08:02:09Z</time>
      </trkpt>
      <trkpt lat="43.99808" lon="7.42565">
        <ele>2060</ele>
        <time>2013-08-26T08:02:21Z</time>
      </trkpt>
      <trkpt lat="43.99815" lon="7.42574">
        <ele>2060</ele>
        <time>2013-08-26T08:05:39Z</time>
      </trkpt>
      <trkpt lat="43.99822" lon="7.42583">
        <ele>2060</ele>
        <time>2013-08-26T08:05:50Z</time>
      </trkpt>
      <trkpt lat="43.99827" lon="7.42594">
        <ele>2060</ele>
        <time>2013-08-26T08:05:59Z</time>
      </trkpt>
      <trkpt lat="43.99832" lon="7.42605">
        <ele>2060</ele>
        <time>2013-08-26T08:06:08Z</time>
      </trkpt>
      <trkpt lat="43.99836" lon="7.42617">
        <ele>2060</ele>
        <time>2013-08-26T08:06:17Z</time>
      </trkpt>
      <trkpt lat="43.99841" lon="7.42628">
        <ele>2060</ele>
        <time>2013-08-26T08:06:26Z</time>
      </trkpt>
      <trkpt lat="43.99845" lon="7.42641">
        <ele>2060</ele>
        <time>2013-08-26T08:06:36Z</time>
      </trkpt>
      <trkpt lat="43.9985" lon="7.42653">
        <ele>2060</ele>
        <time>2013-08-26T08:06:45Z</time>
      </trkpt>
      <trkpt lat="43.99856" lon="7.42662">
        <ele>2060</ele>
        <time>2013-08-26T08:06:54Z</time>
      </trkpt>
      <trkpt lat="43.99863" lon="7.42671">
        <ele>2060</ele>
        <time>2013-08-26T08:07:03Z</time>
      </trkpt>
      <trkpt lat="43.99871" lon="7.42679">
        <ele>2060</ele>
        <time>2013-08-26T08:07:12Z</time>
      </trkpt>
      <trkpt lat="43.9988" lon="7.42682">
        <ele>2060</ele>
        <time>2013-08-26T08:07:20Z</time>
      </trkpt>
      <trkpt lat="43.99888" lon="7.42688">
        <ele>2060</ele>
        <time>2013-08-26T08:07:32Z</time>
      </trkpt>
      <trkpt lat="43.99896" lon="7.42694">
        <ele>2060</ele>
        <time>2013-08-26T08:07:40Z</time>
      </trkpt>
      <trkpt lat="43.99904" lon="7.42702">
        <ele>2060</ele>
        <time>2013-08-26T08:07:49Z</time>
      </trkpt>
      <trkpt lat="43.99911" lon="7.42709">
        <ele>2060</ele>
        <time>2013-08-26T08:07:57Z</time>
      </trkpt>
      <trkpt lat="43.99918" lon="7.42717">
        <ele>2060</ele>
        <time>2013-08-26T08:08:06Z</time>
      </trkpt>
      <trkpt lat="43.99926" lon="7.42724">
        <ele>2055</ele>
        <time>2013-08-26T08:08:15Z</time>
      </trkpt>
      <trkpt lat="43.99931" lon="7.42734">
        <ele>2055</ele>
        <time>2013-08-26T08:08:24Z</time>
      </trkpt>
      <trkpt lat="43.99931" lon="7.42747">
        <ele>2055</ele>
        <time>2013-08-26T08:08:33Z</time>
      </trkpt>
      <trkpt lat="43.9994" lon="7.42741">
        <ele>2055</ele>
        <time>2013-08-26T08:08:56Z</time>
      </trkpt>
      <trkpt lat="43.99948" lon="7.42734">
        <ele>2055</ele>
        <time>2013-08-26T08:09:07Z</time>
      </trkpt>
      <trkpt lat="43.99955" lon="7.42726">
        <ele>2060</ele>
        <time>2013-08-26T08:09:22Z</time>
      </trkpt>
      <trkpt lat="43.99964" lon="7.4273">
        <ele>2060</ele>
        <time>2013-08-26T08:09:53Z</time>
      </trkpt>
      <trkpt lat="43.99964" lon="7.42742">
        <ele>2060</ele>
        <time>2013-08-26T08:10:05Z</time>
      </trkpt>
      <trkpt lat="43.99968" lon="7.42755">
        <ele>2060</ele>
        <time>2013-08-26T08:10:16Z</time>
      </trkpt>
      <trkpt lat="43.99967" lon="7.42768">
        <ele>2060</ele>
        <time>2013-08-26T08:10:26Z</time>
      </trkpt>
      <trkpt lat="43.99967" lon="7.4278">
        <ele>2065</ele>
        <time>2013-08-26T08:10:36Z</time>
      </trkpt>
      <trkpt lat="43.99967" lon="7.42794">
        <ele>2065</ele>
        <time>2013-08-26T08:10:48Z</time>
      </trkpt>
      <trkpt lat="43.99966" lon="7.42806">
        <ele>2065</ele>
        <time>2013-08-26T08:10:58Z</time>
      </trkpt>
      <trkpt lat="43.99966" lon="7.42819">
        <ele>2065</ele>
        <time>2013-08-26T08:11:10Z</time>
      </trkpt>
      <trkpt lat="43.99967" lon="7.42831">
        <ele>2065</ele>
        <time>2013-08-26T08:11:23Z</time>
      </trkpt>
      <trkpt lat="43.99968" lon="7.42844">
        <ele>2071</ele>
        <time>2013-08-26T08:11:36Z</time>
      </trkpt>
      <trkpt lat="43.99968" lon="7.42856">
        <ele>2071</ele>
        <time>2013-08-26T08:11:50Z</time>
      </trkpt>
      <trkpt lat="43.99969" lon="7.42869">
        <ele>2071</ele>
        <time>2013-08-26T08:12:03Z</time>
      </trkpt>
      <trkpt lat="43.99972" lon="7.42881">
        <ele>2071</ele>
        <time>2013-08-26T08:12:15Z</time>
      </trkpt>
      <trkpt lat="43.99972" lon="7.42894">
        <ele>2077</ele>
        <time>2013-08-26T08:12:26Z</time>
      </trkpt>
      <trkpt lat="43.99974" lon="7.42908">
        <ele>2077</ele>
        <time>2013-08-26T08:12:38Z</time>
      </trkpt>
      <trkpt lat="43.99976" lon="7.4292">
        <ele>2077</ele>
        <time>2013-08-26T08:12:49Z</time>
      </trkpt>
      <trkpt lat="43.9998" lon="7.42932">
        <ele>2077</ele>
        <time>2013-08-26T08:13:00Z</time>
      </trkpt>
      <trkpt lat="43.99984" lon="7.42944">
        <ele>2077</ele>
        <time>2013-08-26T08:13:10Z</time>
      </trkpt>
      <trkpt lat="43.99987" lon="7.42955">
        <ele>2077</ele>
        <time>2013-08-26T08:13:18Z</time>
      </trkpt>
      <trkpt lat="43.9999" lon="7.42967">
        <ele>2077</ele>
        <time>2013-08-26T08:14:33Z</time>
      </trkpt>
      <trkpt lat="43.99994" lon="7.42979">
        <ele>2077</ele>
        <time>2013-08-26T08:14:43Z</time>
      </trkpt>
      <trkpt lat="43.99998" lon="7.42989">
        <ele>2077</ele>
        <time>2013-08-26T08:14:51Z</time>
      </trkpt>
      <trkpt lat="44.00003" lon="7.43">
        <ele>2077</ele>
        <time>2013-08-26T08:15:00Z</time>
      </trkpt>
      <trkpt lat="44.00008" lon="7.43011">
        <ele>2071</ele>
        <time>2013-08-26T08:15:08Z</time>
      </trkpt>
      <trkpt lat="44.00012" lon="7.43023">
        <ele>2071</ele>
        <time>2013-08-26T08:15:15Z</time>
      </trkpt>
      <trkpt lat="44.00015" lon="7.43034">
        <ele>2071</ele>
        <time>2013-08-26T08:15:23Z</time>
      </trkpt>
      <trkpt lat="44.00018" lon="7.43046">
        <ele>2071</ele>
        <time>2013-08-26T08:15:31Z</time>
      </trkpt>
      <trkpt lat="44.00022" lon="7.43059">
        <ele>2071</ele>
        <time>2013-08-26T08:15:40Z</time>
      </trkpt>
      <trkpt lat="44.00027" lon="7.43069">
        <ele>2071</ele>
        <time>2013-08-26T08:15:49Z</time>
      </trkpt>
      <trkpt lat="44.00029" lon="7.43082">
        <ele>2071</ele>
        <time>2013-08-26T08:15:57Z</time>
      </trkpt>
      <trkpt lat="44.00031" lon="7.43095">
        <ele>2071</ele>
        <time>2013-08-26T08:16:07Z</time>
      </trkpt>
      <trkpt lat="44.00032" lon="7.43108">
        <ele>2064</ele>
        <time>2013-08-26T08:16:21Z</time>
      </trkpt>
      <trkpt lat="44.00031" lon="7.43121">
        <ele>2064</ele>
        <time>2013-08-26T08:16:31Z</time>
      </trkpt>
      <trkpt lat="44.00032" lon="7.43133">
        <ele>2064</ele>
        <time>2013-08-26T08:16:40Z</time>
      </trkpt>
      <trkpt lat="44.00034" lon="7.43146">
        <ele>2064</ele>
        <time>2013-08-26T08:16:51Z</time>
      </trkpt>
      <trkpt lat="44.00036" lon="7.43158">
        <ele>2064</ele>
        <time>2013-08-26T08:17:02Z</time>
      </trkpt>
      <trkpt lat="44.00034" lon="7.43171">
        <ele>2064</ele>
        <time>2013-08-26T08:17:36Z</time>
      </trkpt>
      <trkpt lat="44.00036" lon="7.43183">
        <ele>2064</ele>
        <time>2013-08-26T08:17:47Z</time>
      </trkpt>
      <trkpt lat="44.00036" lon="7.43197">
        <ele>2064</ele>
        <time>2013-08-26T08:17:56Z</time>
      </trkpt>
      <trkpt lat="44.00038" lon="7.4321">
        <ele>2064</ele>
        <time>2013-08-26T08:18:05Z</time>
      </trkpt>
      <trkpt lat="44.00038" lon="7.43223">
        <ele>2064</ele>
        <time>2013-08-26T08:18:14Z</time>
      </trkpt>
      <trkpt lat="44.0004" lon="7.43236">
        <ele>2064</ele>
        <time>2013-08-26T08:18:23Z</time>
      </trkpt>
      <trkpt lat="44.0004" lon="7.43249">
        <ele>2059</ele>
        <time>2013-08-26T08:18:32Z</time>
      </trkpt>
      <trkpt lat="44.00042" lon="7.43262">
        <ele>2059</ele>
        <time>2013-08-26T08:18:40Z</time>
      </trkpt>
      <trkpt lat="44.00047" lon="7.43272">
        <ele>2059</ele>
        <time>2013-08-26T08:18:50Z</time>
      </trkpt>
      <trkpt lat="44.00053" lon="7.43282">
        <ele>2059</ele>
        <time>2013-08-26T08:19:00Z</time>
      </trkpt>
      <trkpt lat="44.00057" lon="7.43295">
        <ele>2065</ele>
        <time>2013-08-26T08:19:12Z</time>
      </trkpt>
      <trkpt lat="44.00062" lon="7.43306">
        <ele>2065</ele>
        <time>2013-08-26T08:19:23Z</time>
      </trkpt>
      <trkpt lat="44.00068" lon="7.43316">
        <ele>2065</ele>
        <time>2013-08-26T08:19:33Z</time>
      </trkpt>
      <trkpt lat="44.00073" lon="7.43326">
        <ele>2065</ele>
        <time>2013-08-26T08:19:44Z</time>
      </trkpt>
      <trkpt lat="44.0008" lon="7.43335">
        <ele>2065</ele>
        <time>2013-08-26T08:19:54Z</time>
      </trkpt>
      <trkpt lat="44.00086" lon="7.43345">
        <ele>2065</ele>
        <time>2013-08-26T08:20:06Z</time>
      </trkpt>
      <trkpt lat="44.00089" lon="7.43358">
        <ele>2070</ele>
        <time>2013-08-26T08:20:16Z</time>
      </trkpt>
      <trkpt lat="44.00092" lon="7.43345">
        <ele>2078</ele>
        <time>2013-08-26T08:20:42Z</time>
      </trkpt>
      <trkpt lat="44.0009" lon="7.43332">
        <ele>2078</ele>
        <time>2013-08-26T08:20:52Z</time>
      </trkpt>
      <trkpt lat="44.00088" lon="7.4332">
        <ele>2078</ele>
        <time>2013-08-26T08:21:02Z</time>
      </trkpt>
      <trkpt lat="44.00082" lon="7.43309">
        <ele>2078</ele>
        <time>2013-08-26T08:21:12Z</time>
      </trkpt>
      <trkpt lat="44.00084" lon="7.43297">
        <ele>2078</ele>
        <time>2013-08-26T08:21:24Z</time>
      </trkpt>
      <trkpt lat="44.00093" lon="7.43298">
        <ele>2086</ele>
        <time>2013-08-26T08:22:11Z</time>
      </trkpt>
      <trkpt lat="44.00086" lon="7.4329">
        <ele>2086</ele>
        <time>2013-08-26T08:34:59Z</time>
      </trkpt>
      <trkpt lat="44.00078" lon="7.43284">
        <ele>2078</ele>
        <time>2013-08-26T08:35:11Z</time>
      </trkpt>
      <trkpt lat="44.0007" lon="7.43277">
        <ele>2072</ele>
        <time>2013-08-26T08:35:25Z</time>
      </trkpt>
      <trkpt lat="44.00063" lon="7.4327">
        <ele>2072</ele>
        <time>2013-08-26T08:35:37Z</time>
      </trkpt>
      <trkpt lat="44.00056" lon="7.43263">
        <ele>2072</ele>
        <time>2013-08-26T08:35:49Z</time>
      </trkpt>
      <trkpt lat="44.00047" lon="7.43258">
        <ele>2064</ele>
        <time>2013-08-26T08:36:03Z</time>
      </trkpt>
      <trkpt lat="44.00042" lon="7.43248">
        <ele>2064</ele>
        <time>2013-08-26T08:36:19Z</time>
      </trkpt>
      <trkpt lat="44.0004" lon="7.43236">
        <ele>2064</ele>
        <time>2013-08-26T08:36:28Z</time>
      </trkpt>
      <trkpt lat="44.00038" lon="7.43223">
        <ele>2064</ele>
        <time>2013-08-26T08:36:36Z</time>
      </trkpt>
      <trkpt lat="44.00038" lon="7.4321">
        <ele>2064</ele>
        <time>2013-08-26T08:36:44Z</time>
      </trkpt>
      <trkpt lat="44.00035" lon="7.43199">
        <ele>2064</ele>
        <time>2013-08-26T08:36:53Z</time>
      </trkpt>
      <trkpt lat="44.00036" lon="7.43186">
        <ele>2064</ele>
        <time>2013-08-26T08:37:01Z</time>
      </trkpt>
      <trkpt lat="44.00038" lon="7.43174">
        <ele>2064</ele>
        <time>2013-08-26T08:37:11Z</time>
      </trkpt>
      <trkpt lat="44.00041" lon="7.43186">
        <ele>2058</ele>
        <time>2013-08-26T08:37:44Z</time>
      </trkpt>
      <trkpt lat="44.00045" lon="7.43199">
        <ele>2058</ele>
        <time>2013-08-26T08:37:53Z</time>
      </trkpt>
      <trkpt lat="44.00048" lon="7.4321">
        <ele>2058</ele>
        <time>2013-08-26T08:38:01Z</time>
      </trkpt>
      <trkpt lat="44.00049" lon="7.43223">
        <ele>2058</ele>
        <time>2013-08-26T08:38:09Z</time>
      </trkpt>
      <trkpt lat="44.00057" lon="7.43229">
        <ele>2058</ele>
        <time>2013-08-26T08:38:23Z</time>
      </trkpt>
      <trkpt lat="44.00066" lon="7.43234">
        <ele>2050</ele>
        <time>2013-08-26T08:38:35Z</time>
      </trkpt>
      <trkpt lat="44.00075" lon="7.43233">
        <ele>2043</ele>
        <time>2013-08-26T08:38:42Z</time>
      </trkpt>
      <trkpt lat="44.00084" lon="7.43227">
        <ele>2037</ele>
        <time>2013-08-26T08:38:50Z</time>
      </trkpt>
      <trkpt lat="44.0009" lon="7.43218">
        <ele>2047</ele>
        <time>2013-08-26T08:39:00Z</time>
      </trkpt>
      <trkpt lat="44.00099" lon="7.43216">
        <ele>2036</ele>
        <time>2013-08-26T08:39:10Z</time>
      </trkpt>
      <trkpt lat="44.00108" lon="7.4321">
        <ele>2041</ele>
        <time>2013-08-26T08:39:19Z</time>
      </trkpt>
      <trkpt lat="44.00116" lon="7.43202">
        <ele>2041</ele>
        <time>2013-08-26T08:39:31Z</time>
      </trkpt>
      <trkpt lat="44.00126" lon="7.43202">
        <ele>2034</ele>
        <time>2013-08-26T08:39:42Z</time>
      </trkpt>
      <trkpt lat="44.00134" lon="7.43207">
        <ele>2021</ele>
        <time>2013-08-26T08:39:47Z</time>
      </trkpt>
      <trkpt lat="44.00143" lon="7.43212">
        <ele>2014</ele>
        <time>2013-08-26T08:39:55Z</time>
      </trkpt>
      <trkpt lat="44.00151" lon="7.43206">
        <ele>2022</ele>
        <time>2013-08-26T08:40:08Z</time>
      </trkpt>
      <trkpt lat="44.00159" lon="7.43201">
        <ele>2029</ele>
        <time>2013-08-26T08:40:19Z</time>
      </trkpt>
      <trkpt lat="44.00167" lon="7.43192">
        <ele>2029</ele>
        <time>2013-08-26T08:40:30Z</time>
      </trkpt>
      <trkpt lat="44.00177" lon="7.43192">
        <ele>2024</ele>
        <time>2013-08-26T08:40:40Z</time>
      </trkpt>
      <trkpt lat="44.00186" lon="7.43194">
        <ele>2018</ele>
        <time>2013-08-26T08:40:50Z</time>
      </trkpt>
      <trkpt lat="44.00192" lon="7.43183">
        <ele>2025</ele>
        <time>2013-08-26T08:41:03Z</time>
      </trkpt>
      <trkpt lat="44.00201" lon="7.43181">
        <ele>2025</ele>
        <time>2013-08-26T08:41:15Z</time>
      </trkpt>
      <trkpt lat="44.00212" lon="7.43181">
        <ele>2019</ele>
        <time>2013-08-26T08:41:26Z</time>
      </trkpt>
      <trkpt lat="44.00222" lon="7.43183">
        <ele>2011</ele>
        <time>2013-08-26T08:41:35Z</time>
      </trkpt>
      <trkpt lat="44.00231" lon="7.43183">
        <ele>2003</ele>
        <time>2013-08-26T08:41:45Z</time>
      </trkpt>
      <trkpt lat="44.00241" lon="7.43182">
        <ele>2003</ele>
        <time>2013-08-26T08:41:53Z</time>
      </trkpt>
      <trkpt lat="44.0025" lon="7.43177">
        <ele>1997</ele>
        <time>2013-08-26T08:42:02Z</time>
      </trkpt>
      <trkpt lat="44.00257" lon="7.43169">
        <ele>2006</ele>
        <time>2013-08-26T08:42:14Z</time>
      </trkpt>
      <trkpt lat="44.00266" lon="7.43164">
        <ele>2006</ele>
        <time>2013-08-26T08:42:21Z</time>
      </trkpt>
      <trkpt lat="44.00275" lon="7.43166">
        <ele>1998</ele>
        <time>2013-08-26T08:42:31Z</time>
      </trkpt>
      <trkpt lat="44.00283" lon="7.43158">
        <ele>2005</ele>
        <time>2013-08-26T08:42:45Z</time>
      </trkpt>
      <trkpt lat="44.00293" lon="7.43159">
        <ele>2005</ele>
        <time>2013-08-26T08:42:54Z</time>
      </trkpt>
      <trkpt lat="44.00302" lon="7.43159">
        <ele>1999</ele>
        <time>2013-08-26T08:43:01Z</time>
      </trkpt>
      <trkpt lat="44.00311" lon="7.43155">
        <ele>1994</ele>
        <time>2013-08-26T08:43:09Z</time>
      </trkpt>
      <trkpt lat="44.00319" lon="7.43151">
        <ele>1994</ele>
        <time>2013-08-26T08:43:19Z</time>
      </trkpt>
      <trkpt lat="44.00328" lon="7.43153">
        <ele>1987</ele>
        <time>2013-08-26T08:43:28Z</time>
      </trkpt>
      <trkpt lat="44.00337" lon="7.43148">
        <ele>1987</ele>
        <time>2013-08-26T08:43:40Z</time>
      </trkpt>
      <trkpt lat="44.00347" lon="7.43145">
        <ele>1987</ele>
        <time>2013-08-26T08:43:49Z</time>
      </trkpt>
      <trkpt lat="44.00356" lon="7.43142">
        <ele>1987</ele>
        <time>2013-08-26T08:43:59Z</time>
      </trkpt>
      <trkpt lat="44.00365" lon="7.43138">
        <ele>1987</ele>
        <time>2013-08-26T08:44:11Z</time>
      </trkpt>
      <trkpt lat="44.00372" lon="7.43129">
        <ele>1987</ele>
        <time>2013-08-26T08:44:22Z</time>
      </trkpt>
      <trkpt lat="44.00381" lon="7.43128">
        <ele>1987</ele>
        <time>2013-08-26T08:44:32Z</time>
      </trkpt>
      <trkpt lat="44.0039" lon="7.43126">
        <ele>1987</ele>
        <time>2013-08-26T08:44:41Z</time>
      </trkpt>
      <trkpt lat="44.004" lon="7.43121">
        <ele>2000</ele>
        <time>2013-08-26T08:44:50Z</time>
      </trkpt>
      <trkpt lat="44.0041" lon="7.43123">
        <ele>1984</ele>
        <time>2013-08-26T08:44:57Z</time>
      </trkpt>
      <trkpt lat="44.00418" lon="7.4312">
        <ele>1996</ele>
        <time>2013-08-26T08:45:08Z</time>
      </trkpt>
      <trkpt lat="44.00428" lon="7.43121">
        <ele>1989</ele>
        <time>2013-08-26T08:45:15Z</time>
      </trkpt>
      <trkpt lat="44.00438" lon="7.43117">
        <ele>1983</ele>
        <time>2013-08-26T08:45:21Z</time>
      </trkpt>
      <trkpt lat="44.00446" lon="7.43113">
        <ele>1983</ele>
        <time>2013-08-26T08:45:28Z</time>
      </trkpt>
      <trkpt lat="44.00455" lon="7.43115">
        <ele>1972</ele>
        <time>2013-08-26T08:45:35Z</time>
      </trkpt>
      <trkpt lat="44.00464" lon="7.43112">
        <ele>1963</ele>
        <time>2013-08-26T08:45:44Z</time>
      </trkpt>
      <trkpt lat="44.00473" lon="7.43106">
        <ele>1963</ele>
        <time>2013-08-26T08:45:52Z</time>
      </trkpt>
      <trkpt lat="44.00481" lon="7.43097">
        <ele>1978</ele>
        <time>2013-08-26T08:46:03Z</time>
      </trkpt>
      <trkpt lat="44.0049" lon="7.43095">
        <ele>1978</ele>
        <time>2013-08-26T08:46:13Z</time>
      </trkpt>
      <trkpt lat="44.00498" lon="7.43087">
        <ele>1978</ele>
        <time>2013-08-26T08:46:20Z</time>
      </trkpt>
      <trkpt lat="44.00508" lon="7.43088">
        <ele>1978</ele>
        <time>2013-08-26T08:46:25Z</time>
      </trkpt>
      <trkpt lat="44.00517" lon="7.43086">
        <ele>1967</ele>
        <time>2013-08-26T08:46:33Z</time>
      </trkpt>
      <trkpt lat="44.00527" lon="7.43083">
        <ele>1967</ele>
        <time>2013-08-26T08:46:40Z</time>
      </trkpt>
      <trkpt lat="44.00534" lon="7.43076">
        <ele>1973</ele>
        <time>2013-08-26T08:46:49Z</time>
      </trkpt>
      <trkpt lat="44.00541" lon="7.43068">
        <ele>1979</ele>
        <time>2013-08-26T08:46:58Z</time>
      </trkpt>
      <trkpt lat="44.00551" lon="7.43066">
        <ele>1974</ele>
        <time>2013-08-26T08:47:06Z</time>
      </trkpt>
      <trkpt lat="44.00561" lon="7.43065">
        <ele>1974</ele>
        <time>2013-08-26T08:47:12Z</time>
      </trkpt>
      <trkpt lat="44.00571" lon="7.43061">
        <ele>1974</ele>
        <time>2013-08-26T08:47:24Z</time>
      </trkpt>
      <trkpt lat="44.00579" lon="7.43057">
        <ele>1963</ele>
        <time>2013-08-26T08:47:31Z</time>
      </trkpt>
      <trkpt lat="44.00584" lon="7.43046">
        <ele>1968</ele>
        <time>2013-08-26T08:47:39Z</time>
      </trkpt>
      <trkpt lat="44.0059" lon="7.43035">
        <ele>1976</ele>
        <time>2013-08-26T08:47:46Z</time>
      </trkpt>
      <trkpt lat="44.00597" lon="7.43026">
        <ele>1976</ele>
        <time>2013-08-26T08:47:55Z</time>
      </trkpt>
      <trkpt lat="44.00604" lon="7.43017">
        <ele>1976</ele>
        <time>2013-08-26T08:48:04Z</time>
      </trkpt>
      <trkpt lat="44.00612" lon="7.43009">
        <ele>1976</ele>
        <time>2013-08-26T08:48:13Z</time>
      </trkpt>
      <trkpt lat="44.00614" lon="7.42998">
        <ele>1976</ele>
        <time>2013-08-26T08:48:21Z</time>
      </trkpt>
      <trkpt lat="44.00619" lon="7.42988">
        <ele>1976</ele>
        <time>2013-08-26T08:48:32Z</time>
      </trkpt>
      <trkpt lat="44.00624" lon="7.42977">
        <ele>1976</ele>
        <time>2013-08-26T08:48:44Z</time>
      </trkpt>
      <trkpt lat="44.00629" lon="7.42966">
        <ele>1976</ele>
        <time>2013-08-26T08:48:55Z</time>
      </trkpt>
      <trkpt lat="44.00638" lon="7.42961">
        <ele>1976</ele>
        <time>2013-08-26T08:49:04Z</time>
      </trkpt>
      <trkpt lat="44.00645" lon="7.42954">
        <ele>1976</ele>
        <time>2013-08-26T08:49:12Z</time>
      </trkpt>
      <trkpt lat="44.00653" lon="7.42949">
        <ele>1976</ele>
        <time>2013-08-26T08:49:21Z</time>
      </trkpt>
      <trkpt lat="44.00662" lon="7.42946">
        <ele>1976</ele>
        <time>2013-08-26T08:49:30Z</time>
      </trkpt>
      <trkpt lat="44.00671" lon="7.42942">
        <ele>1976</ele>
        <time>2013-08-26T08:49:39Z</time>
      </trkpt>
      <trkpt lat="44.00679" lon="7.42938">
        <ele>1976</ele>
        <time>2013-08-26T08:49:48Z</time>
      </trkpt>
      <trkpt lat="44.00688" lon="7.42935">
        <ele>1976</ele>
        <time>2013-08-26T08:49:57Z</time>
      </trkpt>
      <trkpt lat="44.00697" lon="7.42928">
        <ele>1976</ele>
        <time>2013-08-26T08:50:07Z</time>
      </trkpt>
      <trkpt lat="44.00708" lon="7.42925">
        <ele>1976</ele>
        <time>2013-08-26T08:50:27Z</time>
      </trkpt>
      <trkpt lat="44.00717" lon="7.42918">
        <ele>1969</ele>
        <time>2013-08-26T08:50:38Z</time>
      </trkpt>
      <trkpt lat="44.00726" lon="7.42915">
        <ele>1969</ele>
        <time>2013-08-26T08:50:46Z</time>
      </trkpt>
      <trkpt lat="44.00734" lon="7.42909">
        <ele>1969</ele>
        <time>2013-08-26T08:50:54Z</time>
      </trkpt>
      <trkpt lat="44.00743" lon="7.42903">
        <ele>1969</ele>
        <time>2013-08-26T08:51:03Z</time>
      </trkpt>
      <trkpt lat="44.00752" lon="7.42899">
        <ele>1969</ele>
        <time>2013-08-26T08:51:11Z</time>
      </trkpt>
      <trkpt lat="44.00759" lon="7.42892">
        <ele>1969</ele>
        <time>2013-08-26T08:51:19Z</time>
      </trkpt>
      <trkpt lat="44.00767" lon="7.42886">
        <ele>1969</ele>
        <time>2013-08-26T08:51:26Z</time>
      </trkpt>
      <trkpt lat="44.00773" lon="7.42876">
        <ele>1969</ele>
        <time>2013-08-26T08:51:34Z</time>
      </trkpt>
      <trkpt lat="44.00779" lon="7.42865">
        <ele>1969</ele>
        <time>2013-08-26T08:51:42Z</time>
      </trkpt>
      <trkpt lat="44.00783" lon="7.42854">
        <ele>1969</ele>
        <time>2013-08-26T08:52:06Z</time>
      </trkpt>
      <trkpt lat="44.00791" lon="7.42846">
        <ele>1969</ele>
        <time>2013-08-26T08:52:14Z</time>
      </trkpt>
      <trkpt lat="44.00797" lon="7.42837">
        <ele>1963</ele>
        <time>2013-08-26T08:52:22Z</time>
      </trkpt>
      <trkpt lat="44.00803" lon="7.42828">
        <ele>1963</ele>
        <time>2013-08-26T08:52:30Z</time>
      </trkpt>
      <trkpt lat="44.0081" lon="7.42818">
        <ele>1963</ele>
        <time>2013-08-26T08:52:38Z</time>
      </trkpt>
      <trkpt lat="44.00815" lon="7.42806">
        <ele>1963</ele>
        <time>2013-08-26T08:52:47Z</time>
      </trkpt>
      <trkpt lat="44.00822" lon="7.42797">
        <ele>1963</ele>
        <time>2013-08-26T08:52:55Z</time>
      </trkpt>
      <trkpt lat="44.00826" lon="7.42785">
        <ele>1963</ele>
        <time>2013-08-26T08:53:04Z</time>
      </trkpt>
      <trkpt lat="44.00833" lon="7.42776">
        <ele>1963</ele>
        <time>2013-08-26T08:53:12Z</time>
      </trkpt>
      <trkpt lat="44.00837" lon="7.42764">
        <ele>1963</ele>
        <time>2013-08-26T08:53:22Z</time>
      </trkpt>
      <trkpt lat="44.00844" lon="7.42756">
        <ele>1963</ele>
        <time>2013-08-26T08:53:31Z</time>
      </trkpt>
      <trkpt lat="44.0085" lon="7.42746">
        <ele>1963</ele>
        <time>2013-08-26T08:53:39Z</time>
      </trkpt>
      <trkpt lat="44.00856" lon="7.42736">
        <ele>1963</ele>
        <time>2013-08-26T08:53:48Z</time>
      </trkpt>
      <trkpt lat="44.00863" lon="7.42726">
        <ele>1963</ele>
        <time>2013-08-26T08:54:00Z</time>
      </trkpt>
      <trkpt lat="44.00866" lon="7.42715">
        <ele>1963</ele>
        <time>2013-08-26T08:54:11Z</time>
      </trkpt>
      <trkpt lat="44.00868" lon="7.42702">
        <ele>1963</ele>
        <time>2013-08-26T08:54:26Z</time>
      </trkpt>
      <trkpt lat="44.00874" lon="7.42692">
        <ele>1963</ele>
        <time>2013-08-26T08:54:37Z</time>
      </trkpt>
      <trkpt lat="44.00875" lon="7.4268">
        <ele>1963</ele>
        <time>2013-08-26T08:54:46Z</time>
      </trkpt>
      <trkpt lat="44.00879" lon="7.42668">
        <ele>1963</ele>
        <time>2013-08-26T08:54:55Z</time>
      </trkpt>
      <trkpt lat="44.00886" lon="7.42658">
        <ele>1963</ele>
        <time>2013-08-26T08:55:06Z</time>
      </trkpt>
      <trkpt lat="44.00895" lon="7.42656">
        <ele>1963</ele>
        <time>2013-08-26T08:55:15Z</time>
      </trkpt>
      <trkpt lat="44.00904" lon="7.42651">
        <ele>1958</ele>
        <time>2013-08-26T08:57:08Z</time>
      </trkpt>
      <trkpt lat="44.00911" lon="7.42642">
        <ele>1958</ele>
        <time>2013-08-26T08:57:19Z</time>
      </trkpt>
      <trkpt lat="44.00921" lon="7.42636">
        <ele>1958</ele>
        <time>2013-08-26T08:57:28Z</time>
      </trkpt>
      <trkpt lat="44.00927" lon="7.42627">
        <ele>1958</ele>
        <time>2013-08-26T08:57:37Z</time>
      </trkpt>
      <trkpt lat="44.00936" lon="7.42622">
        <ele>1958</ele>
        <time>2013-08-26T08:57:45Z</time>
      </trkpt>
      <trkpt lat="44.00944" lon="7.42618">
        <ele>1950</ele>
        <time>2013-08-26T08:57:54Z</time>
      </trkpt>
      <trkpt lat="44.00951" lon="7.42609">
        <ele>1950</ele>
        <time>2013-08-26T08:58:04Z</time>
      </trkpt>
      <trkpt lat="44.00957" lon="7.42598">
        <ele>1950</ele>
        <time>2013-08-26T08:58:12Z</time>
      </trkpt>
      <trkpt lat="44.00964" lon="7.42588">
        <ele>1950</ele>
        <time>2013-08-26T08:58:20Z</time>
      </trkpt>
      <trkpt lat="44.00971" lon="7.42581">
        <ele>1950</ele>
        <time>2013-08-26T08:58:29Z</time>
      </trkpt>
      <trkpt lat="44.00973" lon="7.42568">
        <ele>1950</ele>
        <time>2013-08-26T08:58:37Z</time>
      </trkpt>
      <trkpt lat="44.00979" lon="7.42558">
        <ele>1950</ele>
        <time>2013-08-26T08:58:48Z</time>
      </trkpt>
      <trkpt lat="44.00984" lon="7.42547">
        <ele>1956</ele>
        <time>2013-08-26T08:58:59Z</time>
      </trkpt>
      <trkpt lat="44.00993" lon="7.42543">
        <ele>1956</ele>
        <time>2013-08-26T08:59:09Z</time>
      </trkpt>
      <trkpt lat="44.01002" lon="7.42541">
        <ele>1956</ele>
        <time>2013-08-26T08:59:20Z</time>
      </trkpt>
      <trkpt lat="44.0101" lon="7.42533">
        <ele>1947</ele>
        <time>2013-08-26T08:59:32Z</time>
      </trkpt>
      <trkpt lat="44.01016" lon="7.42523">
        <ele>1947</ele>
        <time>2013-08-26T08:59:41Z</time>
      </trkpt>
      <trkpt lat="44.01025" lon="7.42518">
        <ele>1947</ele>
        <time>2013-08-26T08:59:48Z</time>
      </trkpt>
      <trkpt lat="44.01029" lon="7.42507">
        <ele>1947</ele>
        <time>2013-08-26T08:59:56Z</time>
      </trkpt>
      <trkpt lat="44.01034" lon="7.42496">
        <ele>1947</ele>
        <time>2013-08-26T09:00:06Z</time>
      </trkpt>
      <trkpt lat="44.01041" lon="7.42487">
        <ele>1947</ele>
        <time>2013-08-26T09:00:14Z</time>
      </trkpt>
      <trkpt lat="44.0104" lon="7.42474">
        <ele>1947</ele>
        <time>2013-08-26T09:01:53Z</time>
      </trkpt>
      <trkpt lat="44.01044" lon="7.42462">
        <ele>1947</ele>
        <time>2013-08-26T09:02:02Z</time>
      </trkpt>
      <trkpt lat="44.01049" lon="7.42451">
        <ele>1947</ele>
        <time>2013-08-26T09:02:11Z</time>
      </trkpt>
      <trkpt lat="44.01056" lon="7.42445">
        <ele>1940</ele>
        <time>2013-08-26T09:02:21Z</time>
      </trkpt>
      <trkpt lat="44.01066" lon="7.42444">
        <ele>1940</ele>
        <time>2013-08-26T09:02:30Z</time>
      </trkpt>
      <trkpt lat="44.01075" lon="7.42444">
        <ele>1940</ele>
        <time>2013-08-26T09:02:39Z</time>
      </trkpt>
      <trkpt lat="44.01084" lon="7.42439">
        <ele>1940</ele>
        <time>2013-08-26T09:02:49Z</time>
      </trkpt>
      <trkpt lat="44.01092" lon="7.42435">
        <ele>1940</ele>
        <time>2013-08-26T09:02:57Z</time>
      </trkpt>
      <trkpt lat="44.01099" lon="7.42428">
        <ele>1940</ele>
        <time>2013-08-26T09:03:07Z</time>
      </trkpt>
      <trkpt lat="44.01108" lon="7.42423">
        <ele>1940</ele>
        <time>2013-08-26T09:03:17Z</time>
      </trkpt>
      <trkpt lat="44.01115" lon="7.42417">
        <ele>1940</ele>
        <time>2013-08-26T09:03:26Z</time>
      </trkpt>
      <trkpt lat="44.01124" lon="7.42414">
        <ele>1940</ele>
        <time>2013-08-26T09:03:35Z</time>
      </trkpt>
      <trkpt lat="44.01133" lon="7.42409">
        <ele>1940</ele>
        <time>2013-08-26T09:03:43Z</time>
      </trkpt>
      <trkpt lat="44.01141" lon="7.42405">
        <ele>1940</ele>
        <time>2013-08-26T09:03:52Z</time>
      </trkpt>
      <trkpt lat="44.0115" lon="7.42406">
        <ele>1934</ele>
        <time>2013-08-26T09:04:01Z</time>
      </trkpt>
      <trkpt lat="44.01159" lon="7.42401">
        <ele>1934</ele>
        <time>2013-08-26T09:04:11Z</time>
      </trkpt>
      <trkpt lat="44.01168" lon="7.42397">
        <ele>1934</ele>
        <time>2013-08-26T09:04:21Z</time>
      </trkpt>
      <trkpt lat="44.01176" lon="7.4239">
        <ele>1939</ele>
        <time>2013-08-26T09:04:32Z</time>
      </trkpt>
      <trkpt lat="44.01184" lon="7.42383">
        <ele>1939</ele>
        <time>2013-08-26T09:04:47Z</time>
      </trkpt>
      <trkpt lat="44.01192" lon="7.42379">
        <ele>1939</ele>
        <time>2013-08-26T09:04:54Z</time>
      </trkpt>
      <trkpt lat="44.01202" lon="7.42375">
        <ele>1939</ele>
        <time>2013-08-26T09:05:03Z</time>
      </trkpt>
      <trkpt lat="44.01209" lon="7.42368">
        <ele>1933</ele>
        <time>2013-08-26T09:05:12Z</time>
      </trkpt>
      <trkpt lat="44.01215" lon="7.42359">
        <ele>1933</ele>
        <time>2013-08-26T09:05:21Z</time>
      </trkpt>
      <trkpt lat="44.01222" lon="7.42348">
        <ele>1933</ele>
        <time>2013-08-26T09:05:31Z</time>
      </trkpt>
      <trkpt lat="44.01231" lon="7.42343">
        <ele>1933</ele>
        <time>2013-08-26T09:05:40Z</time>
      </trkpt>
      <trkpt lat="44.01237" lon="7.42334">
        <ele>1933</ele>
        <time>2013-08-26T09:05:51Z</time>
      </trkpt>
      <trkpt lat="44.01242" lon="7.42324">
        <ele>1933</ele>
        <time>2013-08-26T09:06:00Z</time>
      </trkpt>
      <trkpt lat="44.01246" lon="7.42311">
        <ele>1933</ele>
        <time>2013-08-26T09:06:10Z</time>
      </trkpt>
      <trkpt lat="44.01251" lon="7.423">
        <ele>1933</ele>
        <time>2013-08-26T09:06:19Z</time>
      </trkpt>
      <trkpt lat="44.01256" lon="7.42291">
        <ele>1938</ele>
        <time>2013-08-26T09:06:28Z</time>
      </trkpt>
      <trkpt lat="44.01264" lon="7.42298">
        <ele>1938</ele>
        <time>2013-08-26T09:07:12Z</time>
      </trkpt>
      <trkpt lat="44.01272" lon="7.42304">
        <ele>1938</ele>
        <time>2013-08-26T09:07:22Z</time>
      </trkpt>
      <trkpt lat="44.0128" lon="7.42309">
        <ele>1938</ele>
        <time>2013-08-26T09:07:30Z</time>
      </trkpt>
      <trkpt lat="44.01288" lon="7.42314">
        <ele>1938</ele>
        <time>2013-08-26T09:07:39Z</time>
      </trkpt>
      <trkpt lat="44.01296" lon="7.42321">
        <ele>1930</ele>
        <time>2013-08-26T09:08:21Z</time>
      </trkpt>
      <trkpt lat="44.01305" lon="7.42318">
        <ele>1936</ele>
        <time>2013-08-26T09:08:35Z</time>
      </trkpt>
      <trkpt lat="44.01315" lon="7.42317">
        <ele>1936</ele>
        <time>2013-08-26T09:08:47Z</time>
      </trkpt>
      <trkpt lat="44.01324" lon="7.4232">
        <ele>1924</ele>
        <time>2013-08-26T09:08:59Z</time>
      </trkpt>
      <trkpt lat="44.01333" lon="7.42319">
        <ele>1918</ele>
        <time>2013-08-26T09:09:09Z</time>
      </trkpt>
      <trkpt lat="44.01342" lon="7.42317">
        <ele>1918</ele>
        <time>2013-08-26T09:09:20Z</time>
      </trkpt>
      <trkpt lat="44.01352" lon="7.42318">
        <ele>1918</ele>
        <time>2013-08-26T09:09:30Z</time>
      </trkpt>
      <trkpt lat="44.01361" lon="7.42317">
        <ele>1918</ele>
        <time>2013-08-26T09:09:40Z</time>
      </trkpt>
      <trkpt lat="44.0137" lon="7.42322">
        <ele>1918</ele>
        <time>2013-08-26T09:09:47Z</time>
      </trkpt>
      <trkpt lat="44.0138" lon="7.42325">
        <ele>1918</ele>
        <time>2013-08-26T09:09:58Z</time>
      </trkpt>
      <trkpt lat="44.01389" lon="7.42325">
        <ele>1913</ele>
        <time>2013-08-26T09:10:07Z</time>
      </trkpt>
      <trkpt lat="44.01398" lon="7.42325">
        <ele>1913</ele>
        <time>2013-08-26T09:10:15Z</time>
      </trkpt>
      <trkpt lat="44.01407" lon="7.42325">
        <ele>1913</ele>
        <time>2013-08-26T09:10:23Z</time>
      </trkpt>
      <trkpt lat="44.01417" lon="7.42324">
        <ele>1913</ele>
        <time>2013-08-26T09:10:33Z</time>
      </trkpt>
      <trkpt lat="44.01426" lon="7.4232">
        <ele>1913</ele>
        <time>2013-08-26T09:10:43Z</time>
      </trkpt>
      <trkpt lat="44.01434" lon="7.42317">
        <ele>1913</ele>
        <time>2013-08-26T09:10:51Z</time>
      </trkpt>
      <trkpt lat="44.01443" lon="7.42317">
        <ele>1907</ele>
        <time>2013-08-26T09:11:01Z</time>
      </trkpt>
      <trkpt lat="44.01452" lon="7.42314">
        <ele>1907</ele>
        <time>2013-08-26T09:11:13Z</time>
      </trkpt>
      <trkpt lat="44.01462" lon="7.42314">
        <ele>1907</ele>
        <time>2013-08-26T09:11:22Z</time>
      </trkpt>
      <trkpt lat="44.01471" lon="7.42313">
        <ele>1907</ele>
        <time>2013-08-26T09:11:32Z</time>
      </trkpt>
      <trkpt lat="44.0148" lon="7.42317">
        <ele>1901</ele>
        <time>2013-08-26T09:11:40Z</time>
      </trkpt>
      <trkpt lat="44.01489" lon="7.42314">
        <ele>1901</ele>
        <time>2013-08-26T09:11:58Z</time>
      </trkpt>
      <trkpt lat="44.01497" lon="7.4232">
        <ele>1901</ele>
        <time>2013-08-26T09:12:08Z</time>
      </trkpt>
      <trkpt lat="44.01506" lon="7.42323">
        <ele>1901</ele>
        <time>2013-08-26T09:12:17Z</time>
      </trkpt>
      <trkpt lat="44.01515" lon="7.42318">
        <ele>1901</ele>
        <time>2013-08-26T09:12:29Z</time>
      </trkpt>
      <trkpt lat="44.01524" lon="7.42313">
        <ele>1895</ele>
        <time>2013-08-26T09:12:40Z</time>
      </trkpt>
      <trkpt lat="44.01533" lon="7.42314">
        <ele>1895</ele>
        <time>2013-08-26T09:12:51Z</time>
      </trkpt>
      <trkpt lat="44.01543" lon="7.42314">
        <ele>1887</ele>
        <time>2013-08-26T09:13:02Z</time>
      </trkpt>
      <trkpt lat="44.01552" lon="7.42315">
        <ele>1887</ele>
        <time>2013-08-26T09:13:13Z</time>
      </trkpt>
      <trkpt lat="44.01561" lon="7.42319">
        <ele>1887</ele>
        <time>2013-08-26T09:13:24Z</time>
      </trkpt>
      <trkpt lat="44.01569" lon="7.42326">
        <ele>1880</ele>
        <time>2013-08-26T09:13:38Z</time>
      </trkpt>
      <trkpt lat="44.01578" lon="7.42331">
        <ele>1880</ele>
        <time>2013-08-26T09:13:52Z</time>
      </trkpt>
      <trkpt lat="44.01584" lon="7.42322">
        <ele>1880</ele>
        <time>2013-08-26T09:14:03Z</time>
      </trkpt>
      <trkpt lat="44.01593" lon="7.42325">
        <ele>1880</ele>
        <time>2013-08-26T09:14:13Z</time>
      </trkpt>
      <trkpt lat="44.01601" lon="7.42318">
        <ele>1872</ele>
        <time>2013-08-26T09:14:24Z</time>
      </trkpt>
      <trkpt lat="44.01605" lon="7.42308">
        <ele>1872</ele>
        <time>2013-08-26T09:14:32Z</time>
      </trkpt>
      <trkpt lat="44.01613" lon="7.42299">
        <ele>1872</ele>
        <time>2013-08-26T09:14:40Z</time>
      </trkpt>
      <trkpt lat="44.01617" lon="7.42287">
        <ele>1865</ele>
        <time>2013-08-26T09:14:51Z</time>
      </trkpt>
      <trkpt lat="44.01623" lon="7.42277">
        <ele>1865</ele>
        <time>2013-08-26T09:15:03Z</time>
      </trkpt>
      <trkpt lat="44.01629" lon="7.42268">
        <ele>1865</ele>
        <time>2013-08-26T09:15:16Z</time>
      </trkpt>
      <trkpt lat="44.01638" lon="7.42264">
        <ele>1858</ele>
        <time>2013-08-26T09:15:27Z</time>
      </trkpt>
      <trkpt lat="44.01647" lon="7.4226">
        <ele>1858</ele>
        <time>2013-08-26T09:15:37Z</time>
      </trkpt>
      <trkpt lat="44.01655" lon="7.42254">
        <ele>1858</ele>
        <time>2013-08-26T09:15:50Z</time>
      </trkpt>
      <trkpt lat="44.01657" lon="7.42241">
        <ele>1849</ele>
        <time>2013-08-26T09:16:05Z</time>
      </trkpt>
      <trkpt lat="44.01664" lon="7.42235">
        <ele>1849</ele>
        <time>2013-08-26T09:16:20Z</time>
      </trkpt>
      <trkpt lat="44.0167" lon="7.42224">
        <ele>1849</ele>
        <time>2013-08-26T09:16:42Z</time>
      </trkpt>
      <trkpt lat="44.01672" lon="7.42212">
        <ele>1840</ele>
        <time>2013-08-26T09:16:55Z</time>
      </trkpt>
      <trkpt lat="44.01677" lon="7.42202">
        <ele>1840</ele>
        <time>2013-08-26T09:17:40Z</time>
      </trkpt>
      <trkpt lat="44.01681" lon="7.42191">
        <ele>1840</ele>
        <time>2013-08-26T09:17:48Z</time>
      </trkpt>
      <trkpt lat="44.01686" lon="7.4218">
        <ele>1840</ele>
        <time>2013-08-26T09:17:56Z</time>
      </trkpt>
      <trkpt lat="44.01692" lon="7.4217">
        <ele>1840</ele>
        <time>2013-08-26T09:18:03Z</time>
      </trkpt>
      <trkpt lat="44.01698" lon="7.4216">
        <ele>1840</ele>
        <time>2013-08-26T09:18:12Z</time>
      </trkpt>
      <trkpt lat="44.01703" lon="7.4215">
        <ele>1840</ele>
        <time>2013-08-26T09:18:21Z</time>
      </trkpt>
      <trkpt lat="44.01703" lon="7.42138">
        <ele>1832</ele>
        <time>2013-08-26T09:18:46Z</time>
      </trkpt>
      <trkpt lat="44.0171" lon="7.42131">
        <ele>1840</ele>
        <time>2013-08-26T09:21:04Z</time>
      </trkpt>
      <trkpt lat="44.01714" lon="7.42119">
        <ele>1840</ele>
        <time>2013-08-26T09:21:15Z</time>
      </trkpt>
      <trkpt lat="44.01718" lon="7.42107">
        <ele>1840</ele>
        <time>2013-08-26T09:21:25Z</time>
      </trkpt>
      <trkpt lat="44.01725" lon="7.42098">
        <ele>1840</ele>
        <time>2013-08-26T09:21:40Z</time>
      </trkpt>
      <trkpt lat="44.01731" lon="7.42089">
        <ele>1846</ele>
        <time>2013-08-26T09:21:55Z</time>
      </trkpt>
      <trkpt lat="44.01738" lon="7.42082">
        <ele>1846</ele>
        <time>2013-08-26T09:22:07Z</time>
      </trkpt>
      <trkpt lat="44.01745" lon="7.42074">
        <ele>1846</ele>
        <time>2013-08-26T09:22:20Z</time>
      </trkpt>
      <trkpt lat="44.01753" lon="7.42068">
        <ele>1846</ele>
        <time>2013-08-26T09:22:33Z</time>
      </trkpt>
      <trkpt lat="44.0176" lon="7.42061">
        <ele>1846</ele>
        <time>2013-08-26T09:22:48Z</time>
      </trkpt>
      <trkpt lat="44.01769" lon="7.42056">
        <ele>1846</ele>
        <time>2013-08-26T09:23:02Z</time>
      </trkpt>
      <trkpt lat="44.01775" lon="7.42047">
        <ele>1853</ele>
        <time>2013-08-26T09:23:20Z</time>
      </trkpt>
      <trkpt lat="44.01782" lon="7.42038">
        <ele>1853</ele>
        <time>2013-08-26T09:23:35Z</time>
      </trkpt>
      <trkpt lat="44.01789" lon="7.4203">
        <ele>1853</ele>
        <time>2013-08-26T09:23:51Z</time>
      </trkpt>
      <trkpt lat="44.01795" lon="7.42021">
        <ele>1853</ele>
        <time>2013-08-26T09:24:07Z</time>
      </trkpt>
      <trkpt lat="44.01803" lon="7.42014">
        <ele>1859</ele>
        <time>2013-08-26T09:24:19Z</time>
      </trkpt>
      <trkpt lat="44.0181" lon="7.42005">
        <ele>1859</ele>
        <time>2013-08-26T09:24:37Z</time>
      </trkpt>
      <trkpt lat="44.01815" lon="7.41995">
        <ele>1859</ele>
        <time>2013-08-26T09:25:00Z</time>
      </trkpt>
      <trkpt lat="44.01821" lon="7.41985">
        <ele>1866</ele>
        <time>2013-08-26T09:25:26Z</time>
      </trkpt>
      <trkpt lat="44.01825" lon="7.41973">
        <ele>1866</ele>
        <time>2013-08-26T09:25:54Z</time>
      </trkpt>
      <trkpt lat="44.01832" lon="7.41966">
        <ele>1873</ele>
        <time>2013-08-26T09:26:13Z</time>
      </trkpt>
      <trkpt lat="44.01839" lon="7.41959">
        <ele>1873</ele>
        <time>2013-08-26T09:26:32Z</time>
      </trkpt>
      <trkpt lat="44.01846" lon="7.41952">
        <ele>1873</ele>
        <time>2013-08-26T09:26:51Z</time>
      </trkpt>
      <trkpt lat="44.01853" lon="7.41945">
        <ele>1879</ele>
        <time>2013-08-26T09:27:09Z</time>
      </trkpt>
      <trkpt lat="44.01861" lon="7.41938">
        <ele>1879</ele>
        <time>2013-08-26T09:27:29Z</time>
      </trkpt>
      <trkpt lat="44.01868" lon="7.41929">
        <ele>1879</ele>
        <time>2013-08-26T09:27:51Z</time>
      </trkpt>
      <trkpt lat="44.01876" lon="7.41923">
        <ele>1886</ele>
        <time>2013-08-26T09:28:10Z</time>
      </trkpt>
      <trkpt lat="44.01884" lon="7.41919">
        <ele>1886</ele>
        <time>2013-08-26T09:28:39Z</time>
      </trkpt>
      <trkpt lat="44.01889" lon="7.41909">
        <ele>1886</ele>
        <time>2013-08-26T09:28:58Z</time>
      </trkpt>
      <trkpt lat="44.01894" lon="7.41898">
        <ele>1893</ele>
        <time>2013-08-26T09:29:19Z</time>
      </trkpt>
      <trkpt lat="44.01899" lon="7.41888">
        <ele>1893</ele>
        <time>2013-08-26T09:29:37Z</time>
      </trkpt>
      <trkpt lat="44.01903" lon="7.41876">
        <ele>1893</ele>
        <time>2013-08-26T09:29:58Z</time>
      </trkpt>
      <trkpt lat="44.01908" lon="7.41867">
        <ele>1901</ele>
        <time>2013-08-26T09:30:15Z</time>
      </trkpt>
      <trkpt lat="44.01914" lon="7.41857">
        <ele>1901</ele>
        <time>2013-08-26T09:30:31Z</time>
      </trkpt>
      <trkpt lat="44.01919" lon="7.41845">
        <ele>1901</ele>
        <time>2013-08-26T09:30:50Z</time>
      </trkpt>
      <trkpt lat="44.01922" lon="7.41833">
        <ele>1901</ele>
        <time>2013-08-26T09:31:09Z</time>
      </trkpt>
      <trkpt lat="44.01927" lon="7.41823">
        <ele>1908</ele>
        <time>2013-08-26T09:31:30Z</time>
      </trkpt>
      <trkpt lat="44.01933" lon="7.41814">
        <ele>1908</ele>
        <time>2013-08-26T09:33:31Z</time>
      </trkpt>
      <trkpt lat="44.01941" lon="7.41805">
        <ele>1908</ele>
        <time>2013-08-26T09:33:45Z</time>
      </trkpt>
      <trkpt lat="44.01948" lon="7.41797">
        <ele>1908</ele>
        <time>2013-08-26T09:34:03Z</time>
      </trkpt>
      <trkpt lat="44.01955" lon="7.41789">
        <ele>1914</ele>
        <time>2013-08-26T09:34:18Z</time>
      </trkpt>
      <trkpt lat="44.01962" lon="7.41781">
        <ele>1914</ele>
        <time>2013-08-26T09:34:33Z</time>
      </trkpt>
      <trkpt lat="44.01969" lon="7.41773">
        <ele>1914</ele>
        <time>2013-08-26T09:34:47Z</time>
      </trkpt>
      <trkpt lat="44.01977" lon="7.41767">
        <ele>1919</ele>
        <time>2013-08-26T09:35:02Z</time>
      </trkpt>
      <trkpt lat="44.01984" lon="7.4176">
        <ele>1919</ele>
        <time>2013-08-26T09:35:14Z</time>
      </trkpt>
      <trkpt lat="44.01992" lon="7.41753">
        <ele>1919</ele>
        <time>2013-08-26T09:35:27Z</time>
      </trkpt>
      <trkpt lat="44.02" lon="7.41747">
        <ele>1919</ele>
        <time>2013-08-26T09:35:39Z</time>
      </trkpt>
      <trkpt lat="44.02007" lon="7.4174">
        <ele>1919</ele>
        <time>2013-08-26T09:35:52Z</time>
      </trkpt>
      <trkpt lat="44.02015" lon="7.41733">
        <ele>1919</ele>
        <time>2013-08-26T09:36:05Z</time>
      </trkpt>
      <trkpt lat="44.02023" lon="7.41726">
        <ele>1919</ele>
        <time>2013-08-26T09:36:17Z</time>
      </trkpt>
      <trkpt lat="44.0203" lon="7.41719">
        <ele>1919</ele>
        <time>2013-08-26T09:36:29Z</time>
      </trkpt>
      <trkpt lat="44.02038" lon="7.41714">
        <ele>1919</ele>
        <time>2013-08-26T09:36:42Z</time>
      </trkpt>
      <trkpt lat="44.02046" lon="7.41707">
        <ele>1919</ele>
        <time>2013-08-26T09:36:54Z</time>
      </trkpt>
      <trkpt lat="44.02053" lon="7.41699">
        <ele>1924</ele>
        <time>2013-08-26T09:37:07Z</time>
      </trkpt>
      <trkpt lat="44.02061" lon="7.41693">
        <ele>1924</ele>
        <time>2013-08-26T09:37:20Z</time>
      </trkpt>
      <trkpt lat="44.02068" lon="7.41686">
        <ele>1924</ele>
        <time>2013-08-26T09:37:34Z</time>
      </trkpt>
      <trkpt lat="44.02075" lon="7.41679">
        <ele>1930</ele>
        <time>2013-08-26T09:37:46Z</time>
      </trkpt>
      <trkpt lat="44.02082" lon="7.4167">
        <ele>1930</ele>
        <time>2013-08-26T09:37:58Z</time>
      </trkpt>
      <trkpt lat="44.02089" lon="7.41662">
        <ele>1930</ele>
        <time>2013-08-26T09:38:10Z</time>
      </trkpt>
      <trkpt lat="44.02098" lon="7.41657">
        <ele>1930</ele>
        <time>2013-08-26T09:38:25Z</time>
      </trkpt>
      <trkpt lat="44.02107" lon="7.41653">
        <ele>1930</ele>
        <time>2013-08-26T09:38:37Z</time>
      </trkpt>
      <trkpt lat="44.02115" lon="7.41649">
        <ele>1930</ele>
        <time>2013-08-26T09:38:50Z</time>
      </trkpt>
      <trkpt lat="44.02123" lon="7.41643">
        <ele>1935</ele>
        <time>2013-08-26T09:39:03Z</time>
      </trkpt>
      <trkpt lat="44.02132" lon="7.41638">
        <ele>1935</ele>
        <time>2013-08-26T09:39:16Z</time>
      </trkpt>
      <trkpt lat="44.02139" lon="7.4163">
        <ele>1935</ele>
        <time>2013-08-26T09:39:31Z</time>
      </trkpt>
      <trkpt lat="44.02146" lon="7.41621">
        <ele>1942</ele>
        <time>2013-08-26T09:39:45Z</time>
      </trkpt>
      <trkpt lat="44.02155" lon="7.41616">
        <ele>1942</ele>
        <time>2013-08-26T09:39:59Z</time>
      </trkpt>
      <trkpt lat="44.02162" lon="7.41608">
        <ele>1942</ele>
        <time>2013-08-26T09:40:13Z</time>
      </trkpt>
      <trkpt lat="44.02169" lon="7.41602">
        <ele>1942</ele>
        <time>2013-08-26T09:40:27Z</time>
      </trkpt>
      <trkpt lat="44.02178" lon="7.41596">
        <ele>1942</ele>
        <time>2013-08-26T09:40:40Z</time>
      </trkpt>
      <trkpt lat="44.02186" lon="7.41593">
        <ele>1942</ele>
        <time>2013-08-26T09:40:52Z</time>
      </trkpt>
      <trkpt lat="44.02195" lon="7.41588">
        <ele>1947</ele>
        <time>2013-08-26T09:41:04Z</time>
      </trkpt>
      <trkpt lat="44.02203" lon="7.41584">
        <ele>1947</ele>
        <time>2013-08-26T09:41:16Z</time>
      </trkpt>
      <trkpt lat="44.02212" lon="7.41579">
        <ele>1947</ele>
        <time>2013-08-26T09:41:30Z</time>
      </trkpt>
      <trkpt lat="44.02221" lon="7.41575">
        <ele>1947</ele>
        <time>2013-08-26T09:41:43Z</time>
      </trkpt>
      <trkpt lat="44.02228" lon="7.41568">
        <ele>1954</ele>
        <time>2013-08-26T09:41:57Z</time>
      </trkpt>
      <trkpt lat="44.02236" lon="7.41561">
        <ele>1954</ele>
        <time>2013-08-26T09:42:09Z</time>
      </trkpt>
      <trkpt lat="44.02244" lon="7.41557">
        <ele>1954</ele>
        <time>2013-08-26T09:42:21Z</time>
      </trkpt>
      <trkpt lat="44.02254" lon="7.41554">
        <ele>1954</ele>
        <time>2013-08-26T09:42:35Z</time>
      </trkpt>
      <trkpt lat="44.02262" lon="7.4155">
        <ele>1954</ele>
        <time>2013-08-26T09:42:49Z</time>
      </trkpt>
      <trkpt lat="44.02271" lon="7.41546">
        <ele>1954</ele>
        <time>2013-08-26T09:43:02Z</time>
      </trkpt>
      <trkpt lat="44.02279" lon="7.4154">
        <ele>1954</ele>
        <time>2013-08-26T09:43:14Z</time>
      </trkpt>
      <trkpt lat="44.02288" lon="7.41536">
        <ele>1954</ele>
        <time>2013-08-26T09:43:26Z</time>
      </trkpt>
      <trkpt lat="44.02296" lon="7.4153">
        <ele>1960</ele>
        <time>2013-08-26T09:43:38Z</time>
      </trkpt>
      <trkpt lat="44.02304" lon="7.41524">
        <ele>1960</ele>
        <time>2013-08-26T09:43:49Z</time>
      </trkpt>
      <trkpt lat="44.02313" lon="7.4152">
        <ele>1960</ele>
        <time>2013-08-26T09:44:01Z</time>
      </trkpt>
      <trkpt lat="44.0232" lon="7.41513">
        <ele>1960</ele>
        <time>2013-08-26T09:44:12Z</time>
      </trkpt>
      <trkpt lat="44.02328" lon="7.41506">
        <ele>1960</ele>
        <time>2013-08-26T09:44:26Z</time>
      </trkpt>
      <trkpt lat="44.02337" lon="7.41502">
        <ele>1966</ele>
        <time>2013-08-26T09:44:39Z</time>
      </trkpt>
      <trkpt lat="44.02345" lon="7.41496">
        <ele>1966</ele>
        <time>2013-08-26T09:44:51Z</time>
      </trkpt>
      <trkpt lat="44.02354" lon="7.41492">
        <ele>1966</ele>
        <time>2013-08-26T09:45:02Z</time>
      </trkpt>
      <trkpt lat="44.02363" lon="7.41486">
        <ele>1966</ele>
        <time>2013-08-26T09:45:16Z</time>
      </trkpt>
      <trkpt lat="44.02372" lon="7.41481">
        <ele>1966</ele>
        <time>2013-08-26T09:45:29Z</time>
      </trkpt>
      <trkpt lat="44.02381" lon="7.41479">
        <ele>1966</ele>
        <time>2013-08-26T09:45:41Z</time>
      </trkpt>
      <trkpt lat="44.0239" lon="7.41476">
        <ele>1966</ele>
        <time>2013-08-26T09:45:54Z</time>
      </trkpt>
      <trkpt lat="44.02398" lon="7.41469">
        <ele>1966</ele>
        <time>2013-08-26T09:46:06Z</time>
      </trkpt>
      <trkpt lat="44.02407" lon="7.41464">
        <ele>1974</ele>
        <time>2013-08-26T09:46:22Z</time>
      </trkpt>
      <trkpt lat="44.02416" lon="7.41461">
        <ele>1974</ele>
        <time>2013-08-26T09:46:35Z</time>
      </trkpt>
      <trkpt lat="44.02425" lon="7.41459">
        <ele>1974</ele>
        <time>2013-08-26T09:46:47Z</time>
      </trkpt>
      <trkpt lat="44.02433" lon="7.41453">
        <ele>1974</ele>
        <time>2013-08-26T09:46:59Z</time>
      </trkpt>
      <trkpt lat="44.02442" lon="7.41448">
        <ele>1974</ele>
        <time>2013-08-26T09:47:11Z</time>
      </trkpt>
      <trkpt lat="44.02451" lon="7.41445">
        <ele>1985</ele>
        <time>2013-08-26T09:47:26Z</time>
      </trkpt>
      <trkpt lat="44.0246" lon="7.41443">
        <ele>1985</ele>
        <time>2013-08-26T09:47:38Z</time>
      </trkpt>
      <trkpt lat="44.02469" lon="7.41442">
        <ele>1985</ele>
        <time>2013-08-26T09:47:54Z</time>
      </trkpt>
      <trkpt lat="44.02478" lon="7.41441">
        <ele>1985</ele>
        <time>2013-08-26T09:48:08Z</time>
      </trkpt>
      <trkpt lat="44.02486" lon="7.41444">
        <ele>1985</ele>
        <time>2013-08-26T09:48:20Z</time>
      </trkpt>
      <trkpt lat="44.02495" lon="7.41449">
        <ele>1985</ele>
        <time>2013-08-26T09:48:31Z</time>
      </trkpt>
      <trkpt lat="44.02502" lon="7.41456">
        <ele>1985</ele>
        <time>2013-08-26T09:48:43Z</time>
      </trkpt>
      <trkpt lat="44.02505" lon="7.41468">
        <ele>1991</ele>
        <time>2013-08-26T09:48:56Z</time>
      </trkpt>
      <trkpt lat="44.02508" lon="7.41479">
        <ele>1998</ele>
        <time>2013-08-26T09:49:38Z</time>
      </trkpt>
      <trkpt lat="44.02511" lon="7.41468">
        <ele>1990</ele>
        <time>2013-08-26T09:52:20Z</time>
      </trkpt>
      <trkpt lat="44.02512" lon="7.41454">
        <ele>1990</ele>
        <time>2013-08-26T09:52:34Z</time>
      </trkpt>
      <trkpt lat="44.02512" lon="7.41442">
        <ele>1998</ele>
        <time>2013-08-26T09:52:51Z</time>
      </trkpt>
      <trkpt lat="44.02512" lon="7.41428">
        <ele>1998</ele>
        <time>2013-08-26T09:53:08Z</time>
      </trkpt>
      <trkpt lat="44.02515" lon="7.41416">
        <ele>1998</ele>
        <time>2013-08-26T09:53:22Z</time>
      </trkpt>
      <trkpt lat="44.02523" lon="7.41413">
        <ele>2004</ele>
        <time>2013-08-26T09:53:55Z</time>
      </trkpt>
      <trkpt lat="44.02532" lon="7.41417">
        <ele>2004</ele>
        <time>2013-08-26T10:00:54Z</time>
      </trkpt>
      <trkpt lat="44.02541" lon="7.41416">
        <ele>2004</ele>
        <time>2013-08-26T10:01:05Z</time>
      </trkpt>
      <trkpt lat="44.02549" lon="7.41422">
        <ele>2004</ele>
        <time>2013-08-26T10:01:17Z</time>
      </trkpt>
      <trkpt lat="44.02556" lon="7.41428">
        <ele>2004</ele>
        <time>2013-08-26T10:01:27Z</time>
      </trkpt>
      <trkpt lat="44.02565" lon="7.41434">
        <ele>2004</ele>
        <time>2013-08-26T10:01:39Z</time>
      </trkpt>
      <trkpt lat="44.02574" lon="7.41437">
        <ele>2004</ele>
        <time>2013-08-26T10:01:52Z</time>
      </trkpt>
      <trkpt lat="44.02583" lon="7.41441">
        <ele>2004</ele>
        <time>2013-08-26T10:02:06Z</time>
      </trkpt>
      <trkpt lat="44.02591" lon="7.41446">
        <ele>2011</ele>
        <time>2013-08-26T10:02:18Z</time>
      </trkpt>
      <trkpt lat="44.026" lon="7.41447">
        <ele>2011</ele>
        <time>2013-08-26T10:02:32Z</time>
      </trkpt>
      <trkpt lat="44.02609" lon="7.41451">
        <ele>2011</ele>
        <time>2013-08-26T10:02:55Z</time>
      </trkpt>
      <trkpt lat="44.02617" lon="7.41454">
        <ele>2019</ele>
        <time>2013-08-26T10:03:14Z</time>
      </trkpt>
      <trkpt lat="44.02626" lon="7.41458">
        <ele>2019</ele>
        <time>2013-08-26T10:03:34Z</time>
      </trkpt>
      <trkpt lat="44.02635" lon="7.4146">
        <ele>2019</ele>
        <time>2013-08-26T10:04:03Z</time>
      </trkpt>
      <trkpt lat="44.02645" lon="7.41462">
        <ele>2019</ele>
        <time>2013-08-26T10:04:24Z</time>
      </trkpt>
      <trkpt lat="44.02653" lon="7.41466">
        <ele>2027</ele>
        <time>2013-08-26T10:04:45Z</time>
      </trkpt>
      <trkpt lat="44.02661" lon="7.41472">
        <ele>2033</ele>
        <time>2013-08-26T10:05:03Z</time>
      </trkpt>
      <trkpt lat="44.0267" lon="7.41473">
        <ele>2033</ele>
        <time>2013-08-26T10:05:14Z</time>
      </trkpt>
      <trkpt lat="44.0268" lon="7.41479">
        <ele>2033</ele>
        <time>2013-08-26T10:05:24Z</time>
      </trkpt>
      <trkpt lat="44.02693" lon="7.41482">
        <ele>2033</ele>
        <time>2013-08-26T10:05:35Z</time>
      </trkpt>
      <trkpt lat="44.027" lon="7.41489">
        <ele>2033</ele>
        <time>2013-08-26T10:05:48Z</time>
      </trkpt>
      <trkpt lat="44.02706" lon="7.41499">
        <ele>2033</ele>
        <time>2013-08-26T10:06:00Z</time>
      </trkpt>
      <trkpt lat="44.02713" lon="7.41508">
        <ele>2033</ele>
        <time>2013-08-26T10:06:09Z</time>
      </trkpt>
      <trkpt lat="44.02718" lon="7.4152">
        <ele>2033</ele>
        <time>2013-08-26T10:06:23Z</time>
      </trkpt>
      <trkpt lat="44.02728" lon="7.41524">
        <ele>2033</ele>
        <time>2013-08-26T10:06:34Z</time>
      </trkpt>
      <trkpt lat="44.02735" lon="7.41533">
        <ele>2033</ele>
        <time>2013-08-26T10:06:43Z</time>
      </trkpt>
      <trkpt lat="44.02743" lon="7.41538">
        <ele>2033</ele>
        <time>2013-08-26T10:06:55Z</time>
      </trkpt>
      <trkpt lat="44.02751" lon="7.41543">
        <ele>2033</ele>
        <time>2013-08-26T10:07:05Z</time>
      </trkpt>
      <trkpt lat="44.0275" lon="7.41556">
        <ele>2033</ele>
        <time>2013-08-26T10:07:14Z</time>
      </trkpt>
      <trkpt lat="44.02758" lon="7.41565">
        <ele>2033</ele>
        <time>2013-08-26T10:07:24Z</time>
      </trkpt>
      <trkpt lat="44.02761" lon="7.41576">
        <ele>2033</ele>
        <time>2013-08-26T10:07:33Z</time>
      </trkpt>
      <trkpt lat="44.02767" lon="7.41585">
        <ele>2033</ele>
        <time>2013-08-26T10:07:45Z</time>
      </trkpt>
      <trkpt lat="44.02774" lon="7.41596">
        <ele>2042</ele>
        <time>2013-08-26T10:07:55Z</time>
      </trkpt>
      <trkpt lat="44.02781" lon="7.41606">
        <ele>2042</ele>
        <time>2013-08-26T10:08:07Z</time>
      </trkpt>
      <trkpt lat="44.02785" lon="7.41618">
        <ele>2042</ele>
        <time>2013-08-26T10:08:18Z</time>
      </trkpt>
      <trkpt lat="44.02783" lon="7.41631">
        <ele>2035</ele>
        <time>2013-08-26T10:08:29Z</time>
      </trkpt>
      <trkpt lat="44.02789" lon="7.41641">
        <ele>2035</ele>
        <time>2013-08-26T10:08:41Z</time>
      </trkpt>
      <trkpt lat="44.02795" lon="7.41651">
        <ele>2035</ele>
        <time>2013-08-26T10:08:55Z</time>
      </trkpt>
      <trkpt lat="44.02795" lon="7.41664">
        <ele>2035</ele>
        <time>2013-08-26T10:09:06Z</time>
      </trkpt>
      <trkpt lat="44.02803" lon="7.41667">
        <ele>2035</ele>
        <time>2013-08-26T10:09:19Z</time>
      </trkpt>
      <trkpt lat="44.02812" lon="7.41673">
        <ele>2043</ele>
        <time>2013-08-26T10:09:35Z</time>
      </trkpt>
      <trkpt lat="44.02822" lon="7.41676">
        <ele>2043</ele>
        <time>2013-08-26T10:09:46Z</time>
      </trkpt>
      <trkpt lat="44.02829" lon="7.41686">
        <ele>2051</ele>
        <time>2013-08-26T10:10:02Z</time>
      </trkpt>
      <trkpt lat="44.02838" lon="7.4169">
        <ele>2051</ele>
        <time>2013-08-26T10:10:19Z</time>
      </trkpt>
      <trkpt lat="44.02843" lon="7.41701">
        <ele>2051</ele>
        <time>2013-08-26T10:10:42Z</time>
      </trkpt>
      <trkpt lat="44.0284" lon="7.41714">
        <ele>2051</ele>
        <time>2013-08-26T10:12:02Z</time>
      </trkpt>
      <trkpt lat="44.02849" lon="7.41714">
        <ele>2051</ele>
        <time>2013-08-26T10:12:43Z</time>
      </trkpt>
      <trkpt lat="44.02852" lon="7.41726">
        <ele>2051</ele>
        <time>2013-08-26T10:12:53Z</time>
      </trkpt>
      <trkpt lat="44.02862" lon="7.41732">
        <ele>2051</ele>
        <time>2013-08-26T10:13:02Z</time>
      </trkpt>
      <trkpt lat="44.02864" lon="7.41743">
        <ele>2058</ele>
        <time>2013-08-26T10:13:17Z</time>
      </trkpt>
      <trkpt lat="44.02873" lon="7.41747">
        <ele>2051</ele>
        <time>2013-08-26T10:13:39Z</time>
      </trkpt>
      <trkpt lat="44.02877" lon="7.41758">
        <ele>2051</ele>
        <time>2013-08-26T10:13:58Z</time>
      </trkpt>
      <trkpt lat="44.02887" lon="7.41761">
        <ele>2051</ele>
        <time>2013-08-26T10:14:13Z</time>
      </trkpt>
      <trkpt lat="44.02892" lon="7.41772">
        <ele>2059</ele>
        <time>2013-08-26T10:14:27Z</time>
      </trkpt>
      <trkpt lat="44.02901" lon="7.41777">
        <ele>2059</ele>
        <time>2013-08-26T10:14:38Z</time>
      </trkpt>
      <trkpt lat="44.02909" lon="7.4178">
        <ele>2053</ele>
        <time>2013-08-26T10:14:48Z</time>
      </trkpt>
      <trkpt lat="44.0292" lon="7.41779">
        <ele>2053</ele>
        <time>2013-08-26T10:14:56Z</time>
      </trkpt>
      <trkpt lat="44.02925" lon="7.41789">
        <ele>2066</ele>
        <time>2013-08-26T10:15:24Z</time>
      </trkpt>
      <trkpt lat="44.02933" lon="7.41796">
        <ele>2072</ele>
        <time>2013-08-26T10:15:35Z</time>
      </trkpt>
      <trkpt lat="44.02936" lon="7.41808">
        <ele>2072</ele>
        <time>2013-08-26T10:15:46Z</time>
      </trkpt>
      <trkpt lat="44.02943" lon="7.41816">
        <ele>2072</ele>
        <time>2013-08-26T10:15:58Z</time>
      </trkpt>
      <trkpt lat="44.02944" lon="7.41829">
        <ele>2072</ele>
        <time>2013-08-26T10:16:18Z</time>
      </trkpt>
      <trkpt lat="44.02947" lon="7.41841">
        <ele>2072</ele>
        <time>2013-08-26T10:16:37Z</time>
      </trkpt>
      <trkpt lat="44.02945" lon="7.41854">
        <ele>2072</ele>
        <time>2013-08-26T10:16:49Z</time>
      </trkpt>
      <trkpt lat="44.02952" lon="7.41863">
        <ele>2072</ele>
        <time>2013-08-26T10:17:00Z</time>
      </trkpt>
      <trkpt lat="44.02959" lon="7.41871">
        <ele>2072</ele>
        <time>2013-08-26T10:17:10Z</time>
      </trkpt>
      <trkpt lat="44.02967" lon="7.41876">
        <ele>2077</ele>
        <time>2013-08-26T10:17:18Z</time>
      </trkpt>
      <trkpt lat="44.0298" lon="7.41882">
        <ele>2077</ele>
        <time>2013-08-26T10:17:30Z</time>
      </trkpt>
      <trkpt lat="44.02982" lon="7.41893">
        <ele>2082</ele>
        <time>2013-08-26T10:17:53Z</time>
      </trkpt>
      <trkpt lat="44.02991" lon="7.41893">
        <ele>2082</ele>
        <time>2013-08-26T10:17:58Z</time>
      </trkpt>
      <trkpt lat="44.02991" lon="7.41906">
        <ele>2082</ele>
        <time>2013-08-26T10:18:20Z</time>
      </trkpt>
      <trkpt lat="44.03" lon="7.41911">
        <ele>2082</ele>
        <time>2013-08-26T10:18:43Z</time>
      </trkpt>
      <trkpt lat="44.03006" lon="7.41921">
        <ele>2091</ele>
        <time>2013-08-26T10:19:00Z</time>
      </trkpt>
      <trkpt lat="44.03013" lon="7.41928">
        <ele>2091</ele>
        <time>2013-08-26T10:19:13Z</time>
      </trkpt>
      <trkpt lat="44.03021" lon="7.41938">
        <ele>2091</ele>
        <time>2013-08-26T10:19:24Z</time>
      </trkpt>
      <trkpt lat="44.03024" lon="7.41949">
        <ele>2091</ele>
        <time>2013-08-26T10:19:39Z</time>
      </trkpt>
      <trkpt lat="44.03031" lon="7.41959">
        <ele>2091</ele>
        <time>2013-08-26T10:19:50Z</time>
      </trkpt>
      <trkpt lat="44.03033" lon="7.41972">
        <ele>2091</ele>
        <time>2013-08-26T10:19:59Z</time>
      </trkpt>
      <trkpt lat="44.03039" lon="7.41982">
        <ele>2091</ele>
        <time>2013-08-26T10:20:10Z</time>
      </trkpt>
      <trkpt lat="44.03044" lon="7.41992">
        <ele>2091</ele>
        <time>2013-08-26T10:20:20Z</time>
      </trkpt>
      <trkpt lat="44.03048" lon="7.42003">
        <ele>2096</ele>
        <time>2013-08-26T10:20:32Z</time>
      </trkpt>
      <trkpt lat="44.03048" lon="7.42016">
        <ele>2096</ele>
        <time>2013-08-26T10:20:43Z</time>
      </trkpt>
      <trkpt lat="44.03055" lon="7.42023">
        <ele>2096</ele>
        <time>2013-08-26T10:20:51Z</time>
      </trkpt>
      <trkpt lat="44.03056" lon="7.42035">
        <ele>2096</ele>
        <time>2013-08-26T10:21:00Z</time>
      </trkpt>
      <trkpt lat="44.03056" lon="7.42048">
        <ele>2096</ele>
        <time>2013-08-26T10:21:08Z</time>
      </trkpt>
      <trkpt lat="44.0306" lon="7.42061">
        <ele>2096</ele>
        <time>2013-08-26T10:21:18Z</time>
      </trkpt>
      <trkpt lat="44.03061" lon="7.42073">
        <ele>2096</ele>
        <time>2013-08-26T10:21:26Z</time>
      </trkpt>
      <trkpt lat="44.03066" lon="7.42084">
        <ele>2096</ele>
        <time>2013-08-26T10:21:35Z</time>
      </trkpt>
      <trkpt lat="44.03068" lon="7.42097">
        <ele>2096</ele>
        <time>2013-08-26T10:21:43Z</time>
      </trkpt>
      <trkpt lat="44.0307" lon="7.4211">
        <ele>2090</ele>
        <time>2013-08-26T10:21:53Z</time>
      </trkpt>
      <trkpt lat="44.03073" lon="7.42122">
        <ele>2090</ele>
        <time>2013-08-26T10:22:02Z</time>
      </trkpt>
      <trkpt lat="44.03077" lon="7.42132">
        <ele>2090</ele>
        <time>2013-08-26T10:22:11Z</time>
      </trkpt>
      <trkpt lat="44.03081" lon="7.42145">
        <ele>2097</ele>
        <time>2013-08-26T10:22:22Z</time>
      </trkpt>
      <trkpt lat="44.03088" lon="7.42155">
        <ele>2097</ele>
        <time>2013-08-26T10:22:32Z</time>
      </trkpt>
      <trkpt lat="44.03093" lon="7.42165">
        <ele>2097</ele>
        <time>2013-08-26T10:22:42Z</time>
      </trkpt>
      <trkpt lat="44.03101" lon="7.42169">
        <ele>2097</ele>
        <time>2013-08-26T10:22:47Z</time>
      </trkpt>
      <trkpt lat="44.03111" lon="7.42169">
        <ele>2097</ele>
        <time>2013-08-26T10:22:51Z</time>
      </trkpt>
      <trkpt lat="44.03103" lon="7.42178">
        <ele>2097</ele>
        <time>2013-08-26T10:22:56Z</time>
      </trkpt>
      <trkpt lat="44.03105" lon="7.42191">
        <ele>2103</ele>
        <time>2013-08-26T10:23:06Z</time>
      </trkpt>
      <trkpt lat="44.03111" lon="7.42202">
        <ele>2103</ele>
        <time>2013-08-26T10:23:16Z</time>
      </trkpt>
      <trkpt lat="44.03119" lon="7.42208">
        <ele>2103</ele>
        <time>2013-08-26T10:23:25Z</time>
      </trkpt>
      <trkpt lat="44.03127" lon="7.42217">
        <ele>2103</ele>
        <time>2013-08-26T10:23:32Z</time>
      </trkpt>
      <trkpt lat="44.0313" lon="7.42229">
        <ele>2103</ele>
        <time>2013-08-26T10:23:44Z</time>
      </trkpt>
      <trkpt lat="44.03138" lon="7.42233">
        <ele>2103</ele>
        <time>2013-08-26T10:23:52Z</time>
      </trkpt>
      <trkpt lat="44.0314" lon="7.42246">
        <ele>2103</ele>
        <time>2013-08-26T10:24:00Z</time>
      </trkpt>
      <trkpt lat="44.03148" lon="7.42255">
        <ele>2103</ele>
        <time>2013-08-26T10:24:10Z</time>
      </trkpt>
      <trkpt lat="44.03153" lon="7.42266">
        <ele>2103</ele>
        <time>2013-08-26T10:24:22Z</time>
      </trkpt>
      <trkpt lat="44.03158" lon="7.42277">
        <ele>2103</ele>
        <time>2013-08-26T10:24:33Z</time>
      </trkpt>
      <trkpt lat="44.03164" lon="7.42288">
        <ele>2103</ele>
        <time>2013-08-26T10:24:42Z</time>
      </trkpt>
      <trkpt lat="44.03169" lon="7.42298">
        <ele>2103</ele>
        <time>2013-08-26T10:25:07Z</time>
      </trkpt>
      <trkpt lat="44.03162" lon="7.42306">
        <ele>2103</ele>
        <time>2013-08-26T10:26:37Z</time>
      </trkpt>
      <trkpt lat="44.03153" lon="7.42309">
        <ele>2103</ele>
        <time>2013-08-26T10:26:48Z</time>
      </trkpt>
      <trkpt lat="44.03144" lon="7.42311">
        <ele>2113</ele>
        <time>2013-08-26T10:54:03Z</time>
      </trkpt>
      <trkpt lat="44.03153" lon="7.42312">
        <ele>2113</ele>
        <time>2013-08-26T10:55:55Z</time>
      </trkpt>
      <trkpt lat="44.03162" lon="7.42309">
        <ele>2113</ele>
        <time>2013-08-26T10:59:16Z</time>
      </trkpt>
      <trkpt lat="44.03169" lon="7.423">
        <ele>2113</ele>
        <time>2013-08-26T10:59:27Z</time>
      </trkpt>
      <trkpt lat="44.03173" lon="7.42311">
        <ele>2105</ele>
        <time>2013-08-26T10:59:46Z</time>
      </trkpt>
      <trkpt lat="44.03176" lon="7.42323">
        <ele>2105</ele>
        <time>2013-08-26T11:00:00Z</time>
      </trkpt>
      <trkpt lat="44.03181" lon="7.42335">
        <ele>2097</ele>
        <time>2013-08-26T11:00:13Z</time>
      </trkpt>
      <trkpt lat="44.03188" lon="7.42343">
        <ele>2097</ele>
        <time>2013-08-26T11:00:27Z</time>
      </trkpt>
      <trkpt lat="44.03186" lon="7.42356">
        <ele>2097</ele>
        <time>2013-08-26T11:00:36Z</time>
      </trkpt>
      <trkpt lat="44.03188" lon="7.42369">
        <ele>2097</ele>
        <time>2013-08-26T11:00:45Z</time>
      </trkpt>
      <trkpt lat="44.03192" lon="7.4238">
        <ele>2097</ele>
        <time>2013-08-26T11:00:55Z</time>
      </trkpt>
      <trkpt lat="44.03196" lon="7.42392">
        <ele>2091</ele>
        <time>2013-08-26T11:01:04Z</time>
      </trkpt>
      <trkpt lat="44.03197" lon="7.42405">
        <ele>2091</ele>
        <time>2013-08-26T11:01:12Z</time>
      </trkpt>
      <trkpt lat="44.03199" lon="7.42416">
        <ele>2091</ele>
        <time>2013-08-26T11:01:21Z</time>
      </trkpt>
      <trkpt lat="44.03203" lon="7.42428">
        <ele>2085</ele>
        <time>2013-08-26T11:01:30Z</time>
      </trkpt>
      <trkpt lat="44.03206" lon="7.4244">
        <ele>2085</ele>
        <time>2013-08-26T11:01:38Z</time>
      </trkpt>
      <trkpt lat="44.03208" lon="7.42451">
        <ele>2085</ele>
        <time>2013-08-26T11:01:45Z</time>
      </trkpt>
      <trkpt lat="44.03207" lon="7.42465">
        <ele>2085</ele>
        <time>2013-08-26T11:01:53Z</time>
      </trkpt>
      <trkpt lat="44.03205" lon="7.42478">
        <ele>2085</ele>
        <time>2013-08-26T11:02:01Z</time>
      </trkpt>
      <trkpt lat="44.03205" lon="7.42492">
        <ele>2080</ele>
        <time>2013-08-26T11:02:08Z</time>
      </trkpt>
      <trkpt lat="44.03206" lon="7.42504">
        <ele>2080</ele>
        <time>2013-08-26T11:02:15Z</time>
      </trkpt>
      <trkpt lat="44.03209" lon="7.42517">
        <ele>2080</ele>
        <time>2013-08-26T11:02:23Z</time>
      </trkpt>
      <trkpt lat="44.03214" lon="7.42528">
        <ele>2080</ele>
        <time>2013-08-26T11:02:31Z</time>
      </trkpt>
      <trkpt lat="44.03218" lon="7.42539">
        <ele>2080</ele>
        <time>2013-08-26T11:02:40Z</time>
      </trkpt>
      <trkpt lat="44.03221" lon="7.42552">
        <ele>2080</ele>
        <time>2013-08-26T11:03:33Z</time>
      </trkpt>
      <trkpt lat="44.03225" lon="7.42564">
        <ele>2080</ele>
        <time>2013-08-26T11:03:42Z</time>
      </trkpt>
      <trkpt lat="44.0323" lon="7.42574">
        <ele>2080</ele>
        <time>2013-08-26T11:03:50Z</time>
      </trkpt>
      <trkpt lat="44.03238" lon="7.42579">
        <ele>2080</ele>
        <time>2013-08-26T11:03:59Z</time>
      </trkpt>
      <trkpt lat="44.03247" lon="7.42584">
        <ele>2080</ele>
        <time>2013-08-26T11:04:07Z</time>
      </trkpt>
      <trkpt lat="44.03257" lon="7.42584">
        <ele>2080</ele>
        <time>2013-08-26T11:04:15Z</time>
      </trkpt>
      <trkpt lat="44.03265" lon="7.42592">
        <ele>2080</ele>
        <time>2013-08-26T11:04:23Z</time>
      </trkpt>
      <trkpt lat="44.03274" lon="7.42593">
        <ele>2080</ele>
        <time>2013-08-26T11:04:31Z</time>
      </trkpt>
      <trkpt lat="44.03283" lon="7.42597">
        <ele>2080</ele>
        <time>2013-08-26T11:04:41Z</time>
      </trkpt>
      <trkpt lat="44.03291" lon="7.426">
        <ele>2080</ele>
        <time>2013-08-26T11:04:49Z</time>
      </trkpt>
      <trkpt lat="44.03301" lon="7.42603">
        <ele>2074</ele>
        <time>2013-08-26T11:04:56Z</time>
      </trkpt>
      <trkpt lat="44.0331" lon="7.42604">
        <ele>2074</ele>
        <time>2013-08-26T11:05:03Z</time>
      </trkpt>
      <trkpt lat="44.03319" lon="7.42606">
        <ele>2074</ele>
        <time>2013-08-26T11:05:13Z</time>
      </trkpt>
      <trkpt lat="44.03328" lon="7.42602">
        <ele>2074</ele>
        <time>2013-08-26T11:05:23Z</time>
      </trkpt>
      <trkpt lat="44.03337" lon="7.42597">
        <ele>2074</ele>
        <time>2013-08-26T11:05:33Z</time>
      </trkpt>
      <trkpt lat="44.03345" lon="7.42593">
        <ele>2074</ele>
        <time>2013-08-26T11:05:43Z</time>
      </trkpt>
      <trkpt lat="44.03354" lon="7.4259">
        <ele>2074</ele>
        <time>2013-08-26T11:05:48Z</time>
      </trkpt>
      <trkpt lat="44.03364" lon="7.42587">
        <ele>2074</ele>
        <time>2013-08-26T11:05:56Z</time>
      </trkpt>
      <trkpt lat="44.03373" lon="7.42587">
        <ele>2074</ele>
        <time>2013-08-26T11:06:07Z</time>
      </trkpt>
      <trkpt lat="44.03382" lon="7.42584">
        <ele>2074</ele>
        <time>2013-08-26T11:06:14Z</time>
      </trkpt>
      <trkpt lat="44.03391" lon="7.42585">
        <ele>2068</ele>
        <time>2013-08-26T11:06:21Z</time>
      </trkpt>
      <trkpt lat="44.034" lon="7.42591">
        <ele>2068</ele>
        <time>2013-08-26T11:06:30Z</time>
      </trkpt>
      <trkpt lat="44.03409" lon="7.42588">
        <ele>2068</ele>
        <time>2013-08-26T11:06:35Z</time>
      </trkpt>
      <trkpt lat="44.03418" lon="7.42589">
        <ele>2068</ele>
        <time>2013-08-26T11:06:44Z</time>
      </trkpt>
      <trkpt lat="44.03427" lon="7.42588">
        <ele>2060</ele>
        <time>2013-08-26T11:06:49Z</time>
      </trkpt>
      <trkpt lat="44.03437" lon="7.42591">
        <ele>2060</ele>
        <time>2013-08-26T11:06:58Z</time>
      </trkpt>
      <trkpt lat="44.03444" lon="7.42599">
        <ele>2070</ele>
        <time>2013-08-26T11:07:09Z</time>
      </trkpt>
      <trkpt lat="44.03454" lon="7.42601">
        <ele>2070</ele>
        <time>2013-08-26T11:07:18Z</time>
      </trkpt>
      <trkpt lat="44.03463" lon="7.42605">
        <ele>2070</ele>
        <time>2013-08-26T11:07:27Z</time>
      </trkpt>
      <trkpt lat="44.03472" lon="7.4261">
        <ele>2070</ele>
        <time>2013-08-26T11:07:34Z</time>
      </trkpt>
      <trkpt lat="44.0348" lon="7.42616">
        <ele>2070</ele>
        <time>2013-08-26T11:07:41Z</time>
      </trkpt>
      <trkpt lat="44.03487" lon="7.42623">
        <ele>2070</ele>
        <time>2013-08-26T11:07:48Z</time>
      </trkpt>
      <trkpt lat="44.03497" lon="7.42626">
        <ele>2060</ele>
        <time>2013-08-26T11:07:54Z</time>
      </trkpt>
      <trkpt lat="44.03507" lon="7.42631">
        <ele>2060</ele>
        <time>2013-08-26T11:08:02Z</time>
      </trkpt>
      <trkpt lat="44.03506" lon="7.42645">
        <ele>2069</ele>
        <time>2013-08-26T11:08:09Z</time>
      </trkpt>
      <trkpt lat="44.03513" lon="7.42653">
        <ele>2069</ele>
        <time>2013-08-26T11:08:18Z</time>
      </trkpt>
      <trkpt lat="44.03521" lon="7.42657">
        <ele>2069</ele>
        <time>2013-08-26T11:08:26Z</time>
      </trkpt>
      <trkpt lat="44.03531" lon="7.42662">
        <ele>2069</ele>
        <time>2013-08-26T11:08:34Z</time>
      </trkpt>
      <trkpt lat="44.0354" lon="7.42661">
        <ele>2061</ele>
        <time>2013-08-26T11:08:40Z</time>
      </trkpt>
      <trkpt lat="44.03551" lon="7.42662">
        <ele>2061</ele>
        <time>2013-08-26T11:08:51Z</time>
      </trkpt>
      <trkpt lat="44.03561" lon="7.42663">
        <ele>2061</ele>
        <time>2013-08-26T11:09:10Z</time>
      </trkpt>
      <trkpt lat="44.03571" lon="7.42665">
        <ele>2061</ele>
        <time>2013-08-26T11:09:22Z</time>
      </trkpt>
      <trkpt lat="44.03578" lon="7.42672">
        <ele>2061</ele>
        <time>2013-08-26T11:09:32Z</time>
      </trkpt>
      <trkpt lat="44.03587" lon="7.42679">
        <ele>2067</ele>
        <time>2013-08-26T11:09:44Z</time>
      </trkpt>
      <trkpt lat="44.03596" lon="7.4268">
        <ele>2067</ele>
        <time>2013-08-26T11:09:55Z</time>
      </trkpt>
      <trkpt lat="44.03603" lon="7.42687">
        <ele>2067</ele>
        <time>2013-08-26T11:10:06Z</time>
      </trkpt>
      <trkpt lat="44.03612" lon="7.42691">
        <ele>2074</ele>
        <time>2013-08-26T11:10:23Z</time>
      </trkpt>
      <trkpt lat="44.03621" lon="7.4269">
        <ele>2074</ele>
        <time>2013-08-26T11:10:36Z</time>
      </trkpt>
      <trkpt lat="44.0363" lon="7.42688">
        <ele>2074</ele>
        <time>2013-08-26T11:10:50Z</time>
      </trkpt>
      <trkpt lat="44.03639" lon="7.42688">
        <ele>2068</ele>
        <time>2013-08-26T11:11:08Z</time>
      </trkpt>
      <trkpt lat="44.03649" lon="7.4269">
        <ele>2084</ele>
        <time>2013-08-26T11:11:42Z</time>
      </trkpt>
      <trkpt lat="44.03658" lon="7.42686">
        <ele>2076</ele>
        <time>2013-08-26T11:11:52Z</time>
      </trkpt>
      <trkpt lat="44.03665" lon="7.42694">
        <ele>2085</ele>
        <time>2013-08-26T20:12:14Z</time>
      </trkpt>
      <trkpt lat="44.03674" lon="7.42699">
        <ele>2085</ele>
        <time>2013-08-26T11:12:36Z</time>
      </trkpt>
      <trkpt lat="44.03683" lon="7.42701">
        <ele>2085</ele>
        <time>2013-08-26T11:12:50Z</time>
      </trkpt>
      <trkpt lat="44.03693" lon="7.42699">
        <ele>2085</ele>
        <time>2013-08-26T11:13:02Z</time>
      </trkpt>
      <trkpt lat="44.03698" lon="7.42709">
        <ele>2096</ele>
        <time>2013-08-26T11:13:30Z</time>
      </trkpt>
      <trkpt lat="44.03705" lon="7.42716">
        <ele>2088</ele>
        <time>2013-08-26T11:13:50Z</time>
      </trkpt>
      <trkpt lat="44.0371" lon="7.42726">
        <ele>2088</ele>
        <time>2013-08-26T11:14:10Z</time>
      </trkpt>
      <trkpt lat="44.03716" lon="7.42736">
        <ele>2095</ele>
        <time>2013-08-26T11:14:25Z</time>
      </trkpt>
      <trkpt lat="44.03723" lon="7.42744">
        <ele>2095</ele>
        <time>2013-08-26T11:14:43Z</time>
      </trkpt>
      <trkpt lat="44.03731" lon="7.42751">
        <ele>2095</ele>
        <time>2013-08-26T11:15:00Z</time>
      </trkpt>
      <trkpt lat="44.0374" lon="7.42755">
        <ele>2095</ele>
        <time>2013-08-26T11:15:15Z</time>
      </trkpt>
      <trkpt lat="44.03745" lon="7.42765">
        <ele>2105</ele>
        <time>2013-08-26T11:15:28Z</time>
      </trkpt>
      <trkpt lat="44.03751" lon="7.42775">
        <ele>2105</ele>
        <time>2013-08-26T11:15:44Z</time>
      </trkpt>
      <trkpt lat="44.03759" lon="7.42781">
        <ele>2105</ele>
        <time>2013-08-26T11:16:00Z</time>
      </trkpt>
      <trkpt lat="44.03764" lon="7.42791">
        <ele>2105</ele>
        <time>2013-08-26T11:16:17Z</time>
      </trkpt>
      <trkpt lat="44.03774" lon="7.42794">
        <ele>2105</ele>
        <time>2013-08-26T11:16:32Z</time>
      </trkpt>
      <trkpt lat="44.0378" lon="7.42803">
        <ele>2105</ele>
        <time>2013-08-26T11:16:47Z</time>
      </trkpt>
      <trkpt lat="44.03788" lon="7.42811">
        <ele>2105</ele>
        <time>2013-08-26T11:17:06Z</time>
      </trkpt>
      <trkpt lat="44.03796" lon="7.42817">
        <ele>2111</ele>
        <time>2013-08-26T11:17:25Z</time>
      </trkpt>
      <trkpt lat="44.03802" lon="7.42826">
        <ele>2111</ele>
        <time>2013-08-26T11:17:54Z</time>
      </trkpt>
      <trkpt lat="44.03807" lon="7.42837">
        <ele>2121</ele>
        <time>2013-08-26T11:18:20Z</time>
      </trkpt>
      <trkpt lat="44.03815" lon="7.4284">
        <ele>2121</ele>
        <time>2013-08-26T11:18:39Z</time>
      </trkpt>
      <trkpt lat="44.0382" lon="7.42851">
        <ele>2121</ele>
        <time>2013-08-26T11:19:01Z</time>
      </trkpt>
      <trkpt lat="44.03829" lon="7.42853">
        <ele>2121</ele>
        <time>2013-08-26T11:19:14Z</time>
      </trkpt>
      <trkpt lat="44.03834" lon="7.42863">
        <ele>2131</ele>
        <time>2013-08-26T11:19:38Z</time>
      </trkpt>
      <trkpt lat="44.03844" lon="7.42867">
        <ele>2131</ele>
        <time>2013-08-26T11:19:55Z</time>
      </trkpt>
      <trkpt lat="44.03851" lon="7.42876">
        <ele>2131</ele>
        <time>2013-08-26T11:20:11Z</time>
      </trkpt>
      <trkpt lat="44.03858" lon="7.42885">
        <ele>2140</ele>
        <time>2013-08-26T11:20:36Z</time>
      </trkpt>
      <trkpt lat="44.03866" lon="7.42892">
        <ele>2140</ele>
        <time>2013-08-26T11:20:53Z</time>
      </trkpt>
      <trkpt lat="44.03876" lon="7.4289">
        <ele>2140</ele>
        <time>2013-08-26T11:21:02Z</time>
      </trkpt>
      <trkpt lat="44.03885" lon="7.42889">
        <ele>2132</ele>
        <time>2013-08-26T11:21:12Z</time>
      </trkpt>
      <trkpt lat="44.03893" lon="7.42892">
        <ele>2132</ele>
        <time>2013-08-26T11:21:24Z</time>
      </trkpt>
      <trkpt lat="44.03901" lon="7.42901">
        <ele>2132</ele>
        <time>2013-08-26T11:21:35Z</time>
      </trkpt>
      <trkpt lat="44.03904" lon="7.42914">
        <ele>2143</ele>
        <time>2013-08-26T11:22:01Z</time>
      </trkpt>
      <trkpt lat="44.03902" lon="7.42927">
        <ele>2143</ele>
        <time>2013-08-26T11:22:16Z</time>
      </trkpt>
      <trkpt lat="44.03899" lon="7.42939">
        <ele>2143</ele>
        <time>2013-08-26T11:22:32Z</time>
      </trkpt>
      <trkpt lat="44.03894" lon="7.42949">
        <ele>2149</ele>
        <time>2013-08-26T11:22:55Z</time>
      </trkpt>
      <trkpt lat="44.0389" lon="7.4296">
        <ele>2149</ele>
        <time>2013-08-26T11:23:05Z</time>
      </trkpt>
      <trkpt lat="44.03899" lon="7.42956">
        <ele>2149</ele>
        <time>2013-08-26T11:23:22Z</time>
      </trkpt>
      <trkpt lat="44.03907" lon="7.4295">
        <ele>2160</ele>
        <time>2013-08-26T11:23:52Z</time>
      </trkpt>
      <trkpt lat="44.03915" lon="7.42943">
        <ele>2160</ele>
        <time>2013-08-26T11:24:00Z</time>
      </trkpt>
      <trkpt lat="44.03923" lon="7.42935">
        <ele>2160</ele>
        <time>2013-08-26T11:24:23Z</time>
      </trkpt>
      <trkpt lat="44.03932" lon="7.42936">
        <ele>2160</ele>
        <time>2013-08-26T11:24:48Z</time>
      </trkpt>
      <trkpt lat="44.03941" lon="7.4293">
        <ele>2167</ele>
        <time>2013-08-26T11:25:46Z</time>
      </trkpt>
      <trkpt lat="44.03948" lon="7.42923">
        <ele>2176</ele>
        <time>2013-08-26T11:26:16Z</time>
      </trkpt>
      <trkpt lat="44.03955" lon="7.42915">
        <ele>2176</ele>
        <time>2013-08-26T11:26:31Z</time>
      </trkpt>
      <trkpt lat="44.03963" lon="7.4291">
        <ele>2176</ele>
        <time>2013-08-26T11:27:06Z</time>
      </trkpt>
      <trkpt lat="44.03972" lon="7.42911">
        <ele>2176</ele>
        <time>2013-08-26T11:27:31Z</time>
      </trkpt>
      <trkpt lat="44.03978" lon="7.42901">
        <ele>2176</ele>
        <time>2013-08-26T11:27:45Z</time>
      </trkpt>
      <trkpt lat="44.03987" lon="7.42901">
        <ele>2176</ele>
        <time>2013-08-26T11:28:08Z</time>
      </trkpt>
      <trkpt lat="44.03996" lon="7.42901">
        <ele>2181</ele>
        <time>2013-08-26T11:29:18Z</time>
      </trkpt>
      <trkpt lat="44.04002" lon="7.42891">
        <ele>2181</ele>
        <time>2013-08-26T11:29:45Z</time>
      </trkpt>
      <trkpt lat="44.03993" lon="7.42889">
        <ele>2181</ele>
        <time>2013-08-26T11:29:59Z</time>
      </trkpt>
      <trkpt lat="44.03983" lon="7.42893">
        <ele>2181</ele>
        <time>2013-08-26T11:30:12Z</time>
      </trkpt>
      <trkpt lat="44.03992" lon="7.4289">
        <ele>2175</ele>
        <time>2013-08-26T11:31:06Z</time>
      </trkpt>
      <trkpt lat="44.04001" lon="7.42895">
        <ele>2175</ele>
        <time>2013-08-26T11:31:19Z</time>
      </trkpt>
      <trkpt lat="44.04005" lon="7.42883">
        <ele>2175</ele>
        <time>2013-08-26T11:31:49Z</time>
      </trkpt>
      <trkpt lat="44.04012" lon="7.42874">
        <ele>2175</ele>
        <time>2013-08-26T11:32:02Z</time>
      </trkpt>
      <trkpt lat="44.0402" lon="7.42866">
        <ele>2175</ele>
        <time>2013-08-26T11:32:27Z</time>
      </trkpt>
      <trkpt lat="44.04031" lon="7.42864">
        <ele>2175</ele>
        <time>2013-08-26T11:33:00Z</time>
      </trkpt>
      <trkpt lat="44.04034" lon="7.42875">
        <ele>2175</ele>
        <time>2013-08-26T11:33:24Z</time>
      </trkpt>
      <trkpt lat="44.04039" lon="7.42885">
        <ele>2175</ele>
        <time>2013-08-26T11:34:26Z</time>
      </trkpt>
      <trkpt lat="44.04037" lon="7.42898">
        <ele>2175</ele>
        <time>2013-08-26T11:34:40Z</time>
      </trkpt>
      <trkpt lat="44.04046" lon="7.42899">
        <ele>2175</ele>
        <time>2013-08-26T11:35:18Z</time>
      </trkpt>
      <trkpt lat="44.04046" lon="7.42911">
        <ele>2175</ele>
        <time>2013-08-26T11:35:27Z</time>
      </trkpt>
      <trkpt lat="44.04055" lon="7.42907">
        <ele>2175</ele>
        <time>2013-08-26T11:35:52Z</time>
      </trkpt>
      <trkpt lat="44.04064" lon="7.42909">
        <ele>2175</ele>
        <time>2013-08-26T11:36:41Z</time>
      </trkpt>
      <trkpt lat="44.04069" lon="7.42918">
        <ele>2184</ele>
        <time>2013-08-26T11:37:07Z</time>
      </trkpt>
      <trkpt lat="44.04076" lon="7.42909">
        <ele>2184</ele>
        <time>2013-08-26T11:37:17Z</time>
      </trkpt>
      <trkpt lat="44.04084" lon="7.42913">
        <ele>2184</ele>
        <time>2013-08-26T11:37:37Z</time>
      </trkpt>
      <trkpt lat="44.04093" lon="7.42906">
        <ele>2184</ele>
        <time>2013-08-26T11:37:57Z</time>
      </trkpt>
      <trkpt lat="44.04099" lon="7.42896">
        <ele>2184</ele>
        <time>2013-08-26T11:38:15Z</time>
      </trkpt>
      <trkpt lat="44.04107" lon="7.42889">
        <ele>2184</ele>
        <time>2013-08-26T11:38:28Z</time>
      </trkpt>
      <trkpt lat="44.04113" lon="7.42879">
        <ele>2184</ele>
        <time>2013-08-26T11:38:47Z</time>
      </trkpt>
      <trkpt lat="44.04111" lon="7.42892">
        <ele>2184</ele>
        <time>2013-08-26T11:40:40Z</time>
      </trkpt>
      <trkpt lat="44.0411" lon="7.42905">
        <ele>2184</ele>
        <time>2013-08-26T11:40:54Z</time>
      </trkpt>
      <trkpt lat="44.04119" lon="7.429">
        <ele>2184</ele>
        <time>2013-08-26T11:41:14Z</time>
      </trkpt>
      <trkpt lat="44.04127" lon="7.42896">
        <ele>2192</ele>
        <time>2013-08-26T11:42:12Z</time>
      </trkpt>
      <trkpt lat="44.04136" lon="7.42895">
        <ele>2192</ele>
        <time>2013-08-26T11:42:33Z</time>
      </trkpt>
      <trkpt lat="44.0414" lon="7.42907">
        <ele>2199</ele>
        <time>2013-08-26T11:43:06Z</time>
      </trkpt>
      <trkpt lat="44.04146" lon="7.42896">
        <ele>2199</ele>
        <time>2013-08-26T11:43:19Z</time>
      </trkpt>
      <trkpt lat="44.04155" lon="7.42901">
        <ele>2199</ele>
        <time>2013-08-26T11:44:33Z</time>
      </trkpt>
      <trkpt lat="44.04163" lon="7.42897">
        <ele>2199</ele>
        <time>2013-08-26T11:44:45Z</time>
      </trkpt>
      <trkpt lat="44.04169" lon="7.42888">
        <ele>2199</ele>
        <time>2013-08-26T11:45:18Z</time>
      </trkpt>
      <trkpt lat="44.04177" lon="7.42895">
        <ele>2199</ele>
        <time>2013-08-26T11:45:38Z</time>
      </trkpt>
      <trkpt lat="44.04187" lon="7.42892">
        <ele>2199</ele>
        <time>2013-08-26T11:45:59Z</time>
      </trkpt>
      <trkpt lat="44.04188" lon="7.42906">
        <ele>2204</ele>
        <time>2013-08-26T11:46:19Z</time>
      </trkpt>
      <trkpt lat="44.04195" lon="7.42914">
        <ele>2197</ele>
        <time>2013-08-26T11:46:50Z</time>
      </trkpt>
      <trkpt lat="44.04203" lon="7.42922">
        <ele>2197</ele>
        <time>2013-08-26T11:47:01Z</time>
      </trkpt>
      <trkpt lat="44.04208" lon="7.42934">
        <ele>2197</ele>
        <time>2013-08-26T11:47:25Z</time>
      </trkpt>
      <trkpt lat="44.04215" lon="7.42942">
        <ele>2186</ele>
        <time>2013-08-26T11:48:33Z</time>
      </trkpt>
      <trkpt lat="44.04223" lon="7.42937">
        <ele>2186</ele>
        <time>2013-08-26T11:48:49Z</time>
      </trkpt>
      <trkpt lat="44.04232" lon="7.42941">
        <ele>2194</ele>
        <time>2013-08-26T11:49:05Z</time>
      </trkpt>
      <trkpt lat="44.04232" lon="7.42954">
        <ele>2194</ele>
        <time>2013-08-26T11:49:39Z</time>
      </trkpt>
      <trkpt lat="44.04236" lon="7.42964">
        <ele>2194</ele>
        <time>2013-08-26T11:49:57Z</time>
      </trkpt>
      <trkpt lat="44.04245" lon="7.42969">
        <ele>2200</ele>
        <time>2013-08-26T11:50:17Z</time>
      </trkpt>
      <trkpt lat="44.04252" lon="7.42978">
        <ele>2206</ele>
        <time>2013-08-26T11:50:47Z</time>
      </trkpt>
      <trkpt lat="44.04255" lon="7.4299">
        <ele>2198</ele>
        <time>2013-08-26T11:51:37Z</time>
      </trkpt>
      <trkpt lat="44.04258" lon="7.42979">
        <ele>2185</ele>
        <time>2013-08-26T11:51:50Z</time>
      </trkpt>
      <trkpt lat="44.04249" lon="7.42975">
        <ele>2185</ele>
        <time>2013-08-26T11:51:57Z</time>
      </trkpt>
      <trkpt lat="44.04258" lon="7.42979">
        <ele>2185</ele>
        <time>2013-08-26T11:52:06Z</time>
      </trkpt>
      <trkpt lat="44.04257" lon="7.42992">
        <ele>2193</ele>
        <time>2013-08-26T11:52:17Z</time>
      </trkpt>
      <trkpt lat="44.04264" lon="7.42999">
        <ele>2193</ele>
        <time>2013-08-26T11:52:37Z</time>
      </trkpt>
      <trkpt lat="44.04262" lon="7.43012">
        <ele>2210</ele>
        <time>2013-08-26T11:53:15Z</time>
      </trkpt>
      <trkpt lat="44.04266" lon="7.43024">
        <ele>2221</ele>
        <time>2013-08-26T11:53:46Z</time>
      </trkpt>
      <trkpt lat="44.0427" lon="7.43036">
        <ele>2230</ele>
        <time>2013-08-26T11:54:45Z</time>
      </trkpt>
      <trkpt lat="44.04278" lon="7.4304">
        <ele>2237</ele>
        <time>2013-08-26T11:55:07Z</time>
      </trkpt>
      <trkpt lat="44.04273" lon="7.4303">
        <ele>2237</ele>
        <time>2013-08-26T11:56:20Z</time>
      </trkpt>
      <trkpt lat="44.0428" lon="7.43037">
        <ele>2237</ele>
        <time>2013-08-26T11:56:40Z</time>
      </trkpt>
      <trkpt lat="44.04272" lon="7.43028">
        <ele>2246</ele>
        <time>2013-08-26T11:57:48Z</time>
      </trkpt>
      <trkpt lat="44.04263" lon="7.4303">
        <ele>2246</ele>
        <time>2013-08-26T11:57:54Z</time>
      </trkpt>
      <trkpt lat="44.04254" lon="7.43034">
        <ele>2246</ele>
        <time>2013-08-26T11:57:58Z</time>
      </trkpt>
      <trkpt lat="44.04256" lon="7.43021">
        <ele>2240</ele>
        <time>2013-08-26T11:58:02Z</time>
      </trkpt>
      <trkpt lat="44.04269" lon="7.43016">
        <ele>2240</ele>
        <time>2013-08-26T11:58:05Z</time>
      </trkpt>
      <trkpt lat="44.04284" lon="7.43015">
        <ele>2240</ele>
        <time>2013-08-26T11:58:07Z</time>
      </trkpt>
      <trkpt lat="44.04293" lon="7.43016">
        <ele>2233</ele>
        <time>2013-08-26T11:58:12Z</time>
      </trkpt>
      <trkpt lat="44.04288" lon="7.43026">
        <ele>2217</ele>
        <time>2013-08-26T11:59:06Z</time>
      </trkpt>
      <trkpt lat="44.04289" lon="7.4304">
        <ele>2241</ele>
        <time>2013-08-26T12:00:01Z</time>
      </trkpt>
      <trkpt lat="44.04296" lon="7.43047">
        <ele>2269</ele>
        <time>2013-08-26T12:00:28Z</time>
      </trkpt>
      <trkpt lat="44.04305" lon="7.43043">
        <ele>2269</ele>
        <time>2013-08-26T12:00:44Z</time>
      </trkpt>
      <trkpt lat="44.04314" lon="7.43044">
        <ele>2269</ele>
        <time>2013-08-26T12:01:06Z</time>
      </trkpt>
      <trkpt lat="44.04321" lon="7.43051">
        <ele>2286</ele>
        <time>2013-08-26T12:01:28Z</time>
      </trkpt>
      <trkpt lat="44.0433" lon="7.43051">
        <ele>2286</ele>
        <time>2013-08-26T12:01:50Z</time>
      </trkpt>
      <trkpt lat="44.04339" lon="7.43057">
        <ele>2286</ele>
        <time>2013-08-26T12:02:08Z</time>
      </trkpt>
      <trkpt lat="44.04348" lon="7.43061">
        <ele>2294</ele>
        <time>2013-08-26T12:02:21Z</time>
      </trkpt>
      <trkpt lat="44.04355" lon="7.43054">
        <ele>2294</ele>
        <time>2013-08-26T12:02:27Z</time>
      </trkpt>
      <trkpt lat="44.04363" lon="7.43061">
        <ele>2294</ele>
        <time>2013-08-26T12:02:45Z</time>
      </trkpt>
      <trkpt lat="44.04372" lon="7.43061">
        <ele>2294</ele>
        <time>2013-08-26T12:03:01Z</time>
      </trkpt>
      <trkpt lat="44.04381" lon="7.4306">
        <ele>2294</ele>
        <time>2013-08-26T12:03:16Z</time>
      </trkpt>
      <trkpt lat="44.0439" lon="7.43066">
        <ele>2294</ele>
        <time>2013-08-26T12:03:32Z</time>
      </trkpt>
      <trkpt lat="44.04398" lon="7.43069">
        <ele>2300</ele>
        <time>2013-08-26T12:03:48Z</time>
      </trkpt>
      <trkpt lat="44.04405" lon="7.43077">
        <ele>2300</ele>
        <time>2013-08-26T12:04:07Z</time>
      </trkpt>
      <trkpt lat="44.04414" lon="7.43078">
        <ele>2300</ele>
        <time>2013-08-26T12:04:22Z</time>
      </trkpt>
      <trkpt lat="44.04424" lon="7.43079">
        <ele>2300</ele>
        <time>2013-08-26T12:04:35Z</time>
      </trkpt>
      <trkpt lat="44.04433" lon="7.43082">
        <ele>2300</ele>
        <time>2013-08-26T12:04:49Z</time>
      </trkpt>
      <trkpt lat="44.04443" lon="7.43084">
        <ele>2293</ele>
        <time>2013-08-26T12:05:09Z</time>
      </trkpt>
      <trkpt lat="44.04452" lon="7.43087">
        <ele>2293</ele>
        <time>2013-08-26T12:05:25Z</time>
      </trkpt>
      <trkpt lat="44.04461" lon="7.43085">
        <ele>2293</ele>
        <time>2013-08-26T12:05:45Z</time>
      </trkpt>
      <trkpt lat="44.04471" lon="7.43086">
        <ele>2293</ele>
        <time>2013-08-26T12:06:06Z</time>
      </trkpt>
      <trkpt lat="44.04468" lon="7.43071">
        <ele>2293</ele>
        <time>2013-08-26T12:06:26Z</time>
      </trkpt>
      <trkpt lat="44.04473" lon="7.43082">
        <ele>2293</ele>
        <time>2013-08-26T12:06:40Z</time>
      </trkpt>
      <trkpt lat="44.04481" lon="7.43086">
        <ele>2310</ele>
        <time>2013-08-26T12:07:05Z</time>
      </trkpt>
      <trkpt lat="44.0449" lon="7.43091">
        <ele>2322</ele>
        <time>2013-08-26T12:07:37Z</time>
      </trkpt>
      <trkpt lat="44.04495" lon="7.43101">
        <ele>2333</ele>
        <time>2013-08-26T12:07:50Z</time>
      </trkpt>
      <trkpt lat="44.04503" lon="7.43093">
        <ele>2333</ele>
        <time>2013-08-26T12:08:13Z</time>
      </trkpt>
      <trkpt lat="44.04512" lon="7.43095">
        <ele>2333</ele>
        <time>2013-08-26T12:09:18Z</time>
      </trkpt>
      <trkpt lat="44.04521" lon="7.43095">
        <ele>2333</ele>
        <time>2013-08-26T12:09:35Z</time>
      </trkpt>
      <trkpt lat="44.0453" lon="7.43091">
        <ele>2339</ele>
        <time>2013-08-26T12:10:20Z</time>
      </trkpt>
      <trkpt lat="44.04539" lon="7.43094">
        <ele>2339</ele>
        <time>2013-08-26T12:10:39Z</time>
      </trkpt>
      <trkpt lat="44.04548" lon="7.43098">
        <ele>2345</ele>
        <time>2013-08-26T12:11:08Z</time>
      </trkpt>
      <trkpt lat="44.04554" lon="7.43089">
        <ele>2345</ele>
        <time>2013-08-26T12:11:17Z</time>
      </trkpt>
      <trkpt lat="44.04563" lon="7.43085">
        <ele>2358</ele>
        <time>2013-08-26T12:11:37Z</time>
      </trkpt>
      <trkpt lat="44.04571" lon="7.43077">
        <ele>2371</ele>
        <time>2013-08-26T12:11:59Z</time>
      </trkpt>
      <trkpt lat="44.04582" lon="7.43072">
        <ele>2361</ele>
        <time>2013-08-26T12:12:10Z</time>
      </trkpt>
      <trkpt lat="44.04591" lon="7.43069">
        <ele>2342</ele>
        <time>2013-08-26T12:12:36Z</time>
      </trkpt>
      <trkpt lat="44.04584" lon="7.43079">
        <ele>2336</ele>
        <time>2013-08-26T12:12:48Z</time>
      </trkpt>
      <trkpt lat="44.0459" lon="7.43068">
        <ele>2316</ele>
        <time>2013-08-26T12:13:00Z</time>
      </trkpt>
      <trkpt lat="44.04596" lon="7.43059">
        <ele>2316</ele>
        <time>2013-08-26T12:13:03Z</time>
      </trkpt>
      <trkpt lat="44.04593" lon="7.43071">
        <ele>2316</ele>
        <time>2013-08-26T12:13:06Z</time>
      </trkpt>
      <trkpt lat="44.04597" lon="7.43084">
        <ele>2344</ele>
        <time>2013-08-26T12:13:37Z</time>
      </trkpt>
      <trkpt lat="44.04606" lon="7.43082">
        <ele>2370</ele>
        <time>2013-08-26T12:14:01Z</time>
      </trkpt>
      <trkpt lat="44.04615" lon="7.43077">
        <ele>2370</ele>
        <time>2013-08-26T12:14:16Z</time>
      </trkpt>
      <trkpt lat="44.04629" lon="7.43077">
        <ele>2364</ele>
        <time>2013-08-26T12:14:43Z</time>
      </trkpt>
      <trkpt lat="44.0462" lon="7.4308">
        <ele>2355</ele>
        <time>2013-08-26T12:15:01Z</time>
      </trkpt>
      <trkpt lat="44.04629" lon="7.43081">
        <ele>2350</ele>
        <time>2013-08-26T12:15:22Z</time>
      </trkpt>
      <trkpt lat="44.04637" lon="7.43086">
        <ele>2357</ele>
        <time>2013-08-26T12:15:55Z</time>
      </trkpt>
      <trkpt lat="44.04639" lon="7.43098">
        <ele>2363</ele>
        <time>2013-08-26T12:16:11Z</time>
      </trkpt>
      <trkpt lat="44.04634" lon="7.43116">
        <ele>2363</ele>
        <time>2013-08-26T12:16:15Z</time>
      </trkpt>
      <trkpt lat="44.04629" lon="7.43127">
        <ele>2363</ele>
        <time>2013-08-26T12:16:16Z</time>
      </trkpt>
      <trkpt lat="44.04624" lon="7.43142">
        <ele>2363</ele>
        <time>2013-08-26T12:16:18Z</time>
      </trkpt>
      <trkpt lat="44.04619" lon="7.43163">
        <ele>2363</ele>
        <time>2013-08-26T12:16:20Z</time>
      </trkpt>
      <trkpt lat="44.04612" lon="7.4318">
        <ele>2357</ele>
        <time>2013-08-26T12:16:22Z</time>
      </trkpt>
      <trkpt lat="44.04606" lon="7.4319">
        <ele>2357</ele>
        <time>2013-08-26T12:16:25Z</time>
      </trkpt>
      <trkpt lat="44.04607" lon="7.43177">
        <ele>2348</ele>
        <time>2013-08-26T12:16:34Z</time>
      </trkpt>
      <trkpt lat="44.04615" lon="7.43166">
        <ele>2342</ele>
        <time>2013-08-26T12:16:40Z</time>
      </trkpt>
      <trkpt lat="44.04621" lon="7.43149">
        <ele>2342</ele>
        <time>2013-08-26T12:16:43Z</time>
      </trkpt>
      <trkpt lat="44.04627" lon="7.43137">
        <ele>2342</ele>
        <time>2013-08-26T12:16:46Z</time>
      </trkpt>
      <trkpt lat="44.04633" lon="7.43128">
        <ele>2325</ele>
        <time>2013-08-26T12:17:00Z</time>
      </trkpt>
      <trkpt lat="44.0464" lon="7.43113">
        <ele>2325</ele>
        <time>2013-08-26T12:17:06Z</time>
      </trkpt>
      <trkpt lat="44.04642" lon="7.431">
        <ele>2302</ele>
        <time>2013-08-26T12:17:29Z</time>
      </trkpt>
      <trkpt lat="44.04639" lon="7.43112">
        <ele>2302</ele>
        <time>2013-08-26T12:17:34Z</time>
      </trkpt>
      <trkpt lat="44.04639" lon="7.43094">
        <ele>2290</ele>
        <time>2013-08-26T12:17:47Z</time>
      </trkpt>
      <trkpt lat="44.04648" lon="7.43102">
        <ele>2270</ele>
        <time>2013-08-26T12:18:20Z</time>
      </trkpt>
      <trkpt lat="44.0464" lon="7.43109">
        <ele>2270</ele>
        <time>2013-08-26T12:18:22Z</time>
      </trkpt>
      <trkpt lat="44.04646" lon="7.431">
        <ele>2261</ele>
        <time>2013-08-26T12:18:37Z</time>
      </trkpt>
      <trkpt lat="44.04656" lon="7.43093">
        <ele>2251</ele>
        <time>2013-08-26T12:18:49Z</time>
      </trkpt>
      <trkpt lat="44.04653" lon="7.43105">
        <ele>2245</ele>
        <time>2013-08-26T12:19:00Z</time>
      </trkpt>
      <trkpt lat="44.04661" lon="7.43097">
        <ele>2239</ele>
        <time>2013-08-26T12:19:12Z</time>
      </trkpt>
      <trkpt lat="44.0467" lon="7.43095">
        <ele>2239</ele>
        <time>2013-08-26T12:19:38Z</time>
      </trkpt>
      <trkpt lat="44.04677" lon="7.43085">
        <ele>2250</ele>
        <time>2013-08-26T12:19:47Z</time>
      </trkpt>
      <trkpt lat="44.04687" lon="7.43082">
        <ele>2344</ele>
        <time>2013-08-26T12:20:11Z</time>
      </trkpt>
      <trkpt lat="44.04694" lon="7.43072">
        <ele>2379</ele>
        <time>2013-08-26T12:20:16Z</time>
      </trkpt>
      <trkpt lat="44.04701" lon="7.43065">
        <ele>2395</ele>
        <time>2013-08-26T12:20:35Z</time>
      </trkpt>
      <trkpt lat="44.04688" lon="7.43068">
        <ele>2395</ele>
        <time>2013-08-26T12:21:38Z</time>
      </trkpt>
      <trkpt lat="44.04697" lon="7.43061">
        <ele>2395</ele>
        <time>2013-08-26T12:21:54Z</time>
      </trkpt>
      <trkpt lat="44.04706" lon="7.43059">
        <ele>2395</ele>
        <time>2013-08-26T12:21:58Z</time>
      </trkpt>
      <trkpt lat="44.04714" lon="7.43055">
        <ele>2385</ele>
        <time>2013-08-26T12:22:04Z</time>
      </trkpt>
      <trkpt lat="44.04722" lon="7.43061">
        <ele>2411</ele>
        <time>2013-08-26T12:23:04Z</time>
      </trkpt>
      <trkpt lat="44.04727" lon="7.43051">
        <ele>2401</ele>
        <time>2013-08-26T12:23:47Z</time>
      </trkpt>
      <trkpt lat="44.04721" lon="7.4306">
        <ele>2408</ele>
        <time>2013-08-26T12:23:58Z</time>
      </trkpt>
      <trkpt lat="44.04717" lon="7.43072">
        <ele>2421</ele>
        <time>2013-08-26T12:24:13Z</time>
      </trkpt>
      <trkpt lat="44.04723" lon="7.43081">
        <ele>2421</ele>
        <time>2013-08-26T12:24:40Z</time>
      </trkpt>
      <trkpt lat="44.04729" lon="7.4307">
        <ele>2438</ele>
        <time>2013-08-26T12:25:38Z</time>
      </trkpt>
      <trkpt lat="44.04734" lon="7.4308">
        <ele>2429</ele>
        <time>2013-08-26T12:26:02Z</time>
      </trkpt>
      <trkpt lat="44.04743" lon="7.43078">
        <ele>2429</ele>
        <time>2013-08-26T12:26:33Z</time>
      </trkpt>
      <trkpt lat="44.04751" lon="7.43082">
        <ele>2437</ele>
        <time>2013-08-26T12:26:51Z</time>
      </trkpt>
      <trkpt lat="44.04758" lon="7.43073">
        <ele>2442</ele>
        <time>2013-08-26T12:27:55Z</time>
      </trkpt>
      <trkpt lat="44.04764" lon="7.43062">
        <ele>2433</ele>
        <time>2013-08-26T12:28:07Z</time>
      </trkpt>
      <trkpt lat="44.04771" lon="7.43056">
        <ele>2433</ele>
        <time>2013-08-26T12:28:16Z</time>
      </trkpt>
      <trkpt lat="44.04779" lon="7.43048">
        <ele>2433</ele>
        <time>2013-08-26T12:37:49Z</time>
      </trkpt>
      <trkpt lat="44.04786" lon="7.43041">
        <ele>2433</ele>
        <time>2013-08-26T12:38:31Z</time>
      </trkpt>
      <trkpt lat="44.04795" lon="7.43039">
        <ele>2427</ele>
        <time>2013-08-26T12:38:56Z</time>
      </trkpt>
      <trkpt lat="44.04804" lon="7.43041">
        <ele>2421</ele>
        <time>2013-08-26T12:39:06Z</time>
      </trkpt>
      <trkpt lat="44.04815" lon="7.43045">
        <ele>2421</ele>
        <time>2013-08-26T12:39:17Z</time>
      </trkpt>
      <trkpt lat="44.04823" lon="7.43051">
        <ele>2421</ele>
        <time>2013-08-26T12:39:28Z</time>
      </trkpt>
      <trkpt lat="44.04832" lon="7.43052">
        <ele>2426</ele>
        <time>2013-08-26T12:39:41Z</time>
      </trkpt>
      <trkpt lat="44.04841" lon="7.43063">
        <ele>2420</ele>
        <time>2013-08-26T12:40:20Z</time>
      </trkpt>
      <trkpt lat="44.04849" lon="7.43068">
        <ele>2420</ele>
        <time>2013-08-26T12:40:28Z</time>
      </trkpt>
      <trkpt lat="44.0486" lon="7.43068">
        <ele>2420</ele>
        <time>2013-08-26T12:40:36Z</time>
      </trkpt>
      <trkpt lat="44.04869" lon="7.43068">
        <ele>2414</ele>
        <time>2013-08-26T12:40:53Z</time>
      </trkpt>
      <trkpt lat="44.04878" lon="7.43067">
        <ele>2414</ele>
        <time>2013-08-26T12:41:03Z</time>
      </trkpt>
      <trkpt lat="44.04887" lon="7.43068">
        <ele>2414</ele>
        <time>2013-08-26T12:41:18Z</time>
      </trkpt>
      <trkpt lat="44.04898" lon="7.4307">
        <ele>2414</ele>
        <time>2013-08-26T12:41:27Z</time>
      </trkpt>
      <trkpt lat="44.04907" lon="7.43066">
        <ele>2409</ele>
        <time>2013-08-26T12:41:37Z</time>
      </trkpt>
      <trkpt lat="44.04917" lon="7.43063">
        <ele>2409</ele>
        <time>2013-08-26T12:41:46Z</time>
      </trkpt>
      <trkpt lat="44.04921" lon="7.43076">
        <ele>2409</ele>
        <time>2013-08-26T12:42:06Z</time>
      </trkpt>
      <trkpt lat="44.04924" lon="7.4309">
        <ele>2403</ele>
        <time>2013-08-26T12:42:43Z</time>
      </trkpt>
      <trkpt lat="44.04928" lon="7.43101">
        <ele>2412</ele>
        <time>2013-08-26T12:42:53Z</time>
      </trkpt>
      <trkpt lat="44.04931" lon="7.43113">
        <ele>2406</ele>
        <time>2013-08-26T12:43:03Z</time>
      </trkpt>
      <trkpt lat="44.04933" lon="7.43125">
        <ele>2406</ele>
        <time>2013-08-26T12:43:15Z</time>
      </trkpt>
      <trkpt lat="44.04933" lon="7.43139">
        <ele>2406</ele>
        <time>2013-08-26T12:43:28Z</time>
      </trkpt>
      <trkpt lat="44.0493" lon="7.43151">
        <ele>2399</ele>
        <time>2013-08-26T12:43:41Z</time>
      </trkpt>
      <trkpt lat="44.04926" lon="7.43163">
        <ele>2399</ele>
        <time>2013-08-26T12:43:57Z</time>
      </trkpt>
      <trkpt lat="44.04928" lon="7.43179">
        <ele>2389</ele>
        <time>2013-08-26T12:44:10Z</time>
      </trkpt>
      <trkpt lat="44.04934" lon="7.43189">
        <ele>2389</ele>
        <time>2013-08-26T12:44:18Z</time>
      </trkpt>
      <trkpt lat="44.04939" lon="7.432">
        <ele>2389</ele>
        <time>2013-08-26T12:44:29Z</time>
      </trkpt>
      <trkpt lat="44.04942" lon="7.43211">
        <ele>2389</ele>
        <time>2013-08-26T12:44:36Z</time>
      </trkpt>
      <trkpt lat="44.04941" lon="7.43225">
        <ele>2389</ele>
        <time>2013-08-26T12:44:44Z</time>
      </trkpt>
      <trkpt lat="44.04942" lon="7.43237">
        <ele>2389</ele>
        <time>2013-08-26T12:44:51Z</time>
      </trkpt>
      <trkpt lat="44.04946" lon="7.43249">
        <ele>2389</ele>
        <time>2013-08-26T12:45:00Z</time>
      </trkpt>
      <trkpt lat="44.04946" lon="7.43263">
        <ele>2379</ele>
        <time>2013-08-26T12:45:16Z</time>
      </trkpt>
      <trkpt lat="44.0495" lon="7.43276">
        <ele>2379</ele>
        <time>2013-08-26T12:45:26Z</time>
      </trkpt>
      <trkpt lat="44.04958" lon="7.43289">
        <ele>2379</ele>
        <time>2013-08-26T12:45:37Z</time>
      </trkpt>
      <trkpt lat="44.04966" lon="7.43298">
        <ele>2373</ele>
        <time>2013-08-26T12:45:48Z</time>
      </trkpt>
      <trkpt lat="44.04967" lon="7.43311">
        <ele>2373</ele>
        <time>2013-08-26T12:45:57Z</time>
      </trkpt>
      <trkpt lat="44.04968" lon="7.43324">
        <ele>2373</ele>
        <time>2013-08-26T12:46:05Z</time>
      </trkpt>
      <trkpt lat="44.0497" lon="7.43335">
        <ele>2373</ele>
        <time>2013-08-26T12:46:14Z</time>
      </trkpt>
      <trkpt lat="44.04978" lon="7.43343">
        <ele>2366</ele>
        <time>2013-08-26T12:46:26Z</time>
      </trkpt>
      <trkpt lat="44.04985" lon="7.43334">
        <ele>2366</ele>
        <time>2013-08-26T12:46:35Z</time>
      </trkpt>
      <trkpt lat="44.04991" lon="7.43344">
        <ele>2372</ele>
        <time>2013-08-26T12:48:41Z</time>
      </trkpt>
      <trkpt lat="44.05" lon="7.43346">
        <ele>2372</ele>
        <time>2013-08-26T12:48:50Z</time>
      </trkpt>
      <trkpt lat="44.05009" lon="7.43342">
        <ele>2372</ele>
        <time>2013-08-26T12:48:58Z</time>
      </trkpt>
      <trkpt lat="44.05014" lon="7.43352">
        <ele>2372</ele>
        <time>2013-08-26T12:49:11Z</time>
      </trkpt>
      <trkpt lat="44.05013" lon="7.43366">
        <ele>2364</ele>
        <time>2013-08-26T12:49:25Z</time>
      </trkpt>
      <trkpt lat="44.05014" lon="7.4338">
        <ele>2364</ele>
        <time>2013-08-26T12:49:34Z</time>
      </trkpt>
      <trkpt lat="44.05017" lon="7.43392">
        <ele>2364</ele>
        <time>2013-08-26T12:50:16Z</time>
      </trkpt>
      <trkpt lat="44.05019" lon="7.43405">
        <ele>2364</ele>
        <time>2013-08-26T12:50:26Z</time>
      </trkpt>
      <trkpt lat="44.05022" lon="7.43418">
        <ele>2364</ele>
        <time>2013-08-26T12:50:53Z</time>
      </trkpt>
      <trkpt lat="44.05024" lon="7.43431">
        <ele>2358</ele>
        <time>2013-08-26T12:51:07Z</time>
      </trkpt>
      <trkpt lat="44.05023" lon="7.43444">
        <ele>2353</ele>
        <time>2013-08-26T12:51:25Z</time>
      </trkpt>
      <trkpt lat="44.05026" lon="7.43458">
        <ele>2353</ele>
        <time>2013-08-26T12:51:42Z</time>
      </trkpt>
      <trkpt lat="44.05025" lon="7.43471">
        <ele>2353</ele>
        <time>2013-08-26T12:51:49Z</time>
      </trkpt>
      <trkpt lat="44.05025" lon="7.43484">
        <ele>2353</ele>
        <time>2013-08-26T12:51:59Z</time>
      </trkpt>
      <trkpt lat="44.05028" lon="7.43495">
        <ele>2353</ele>
        <time>2013-08-26T12:52:06Z</time>
      </trkpt>
      <trkpt lat="44.05025" lon="7.43507">
        <ele>2353</ele>
        <time>2013-08-26T12:52:19Z</time>
      </trkpt>
      <trkpt lat="44.05031" lon="7.43518">
        <ele>2353</ele>
        <time>2013-08-26T12:52:37Z</time>
      </trkpt>
      <trkpt lat="44.05035" lon="7.43529">
        <ele>2353</ele>
        <time>2013-08-26T12:52:46Z</time>
      </trkpt>
      <trkpt lat="44.0504" lon="7.4354">
        <ele>2346</ele>
        <time>2013-08-26T12:52:59Z</time>
      </trkpt>
      <trkpt lat="44.05042" lon="7.43553">
        <ele>2340</ele>
        <time>2013-08-26T12:53:15Z</time>
      </trkpt>
      <trkpt lat="44.05036" lon="7.43563">
        <ele>2324</ele>
        <time>2013-08-26T12:53:24Z</time>
      </trkpt>
      <trkpt lat="44.05042" lon="7.43573">
        <ele>2330</ele>
        <time>2013-08-26T12:53:37Z</time>
      </trkpt>
      <trkpt lat="44.0505" lon="7.43581">
        <ele>2330</ele>
        <time>2013-08-26T12:54:05Z</time>
      </trkpt>
      <trkpt lat="44.05056" lon="7.4359">
        <ele>2339</ele>
        <time>2013-08-26T12:55:05Z</time>
      </trkpt>
      <trkpt lat="44.05064" lon="7.43597">
        <ele>2327</ele>
        <time>2013-08-26T12:55:26Z</time>
      </trkpt>
      <trkpt lat="44.0507" lon="7.43607">
        <ele>2327</ele>
        <time>2013-08-26T12:55:50Z</time>
      </trkpt>
      <trkpt lat="44.05077" lon="7.43616">
        <ele>2327</ele>
        <time>2013-08-26T12:56:02Z</time>
      </trkpt>
      <trkpt lat="44.05084" lon="7.43625">
        <ele>2327</ele>
        <time>2013-08-26T12:56:12Z</time>
      </trkpt>
      <trkpt lat="44.05094" lon="7.43625">
        <ele>2320</ele>
        <time>2013-08-26T12:56:19Z</time>
      </trkpt>
      <trkpt lat="44.05097" lon="7.43636">
        <ele>2320</ele>
        <time>2013-08-26T12:56:28Z</time>
      </trkpt>
      <trkpt lat="44.05096" lon="7.43649">
        <ele>2326</ele>
        <time>2013-08-26T12:56:49Z</time>
      </trkpt>
      <trkpt lat="44.05099" lon="7.4366">
        <ele>2326</ele>
        <time>2013-08-26T12:57:01Z</time>
      </trkpt>
      <trkpt lat="44.05106" lon="7.43671">
        <ele>2319</ele>
        <time>2013-08-26T12:57:12Z</time>
      </trkpt>
      <trkpt lat="44.05108" lon="7.43683">
        <ele>2319</ele>
        <time>2013-08-26T12:57:23Z</time>
      </trkpt>
      <trkpt lat="44.05108" lon="7.43696">
        <ele>2314</ele>
        <time>2013-08-26T12:57:36Z</time>
      </trkpt>
      <trkpt lat="44.05114" lon="7.43705">
        <ele>2314</ele>
        <time>2013-08-26T12:57:57Z</time>
      </trkpt>
      <trkpt lat="44.05119" lon="7.43715">
        <ele>2307</ele>
        <time>2013-08-26T12:58:19Z</time>
      </trkpt>
      <trkpt lat="44.05125" lon="7.43726">
        <ele>2307</ele>
        <time>2013-08-26T12:58:33Z</time>
      </trkpt>
      <trkpt lat="44.05123" lon="7.43739">
        <ele>2299</ele>
        <time>2013-08-26T12:59:52Z</time>
      </trkpt>
      <trkpt lat="44.05122" lon="7.43752">
        <ele>2299</ele>
        <time>2013-08-26T13:00:17Z</time>
      </trkpt>
      <trkpt lat="44.0513" lon="7.43758">
        <ele>2299</ele>
        <time>2013-08-26T13:00:28Z</time>
      </trkpt>
      <trkpt lat="44.05139" lon="7.4376">
        <ele>2286</ele>
        <time>2013-08-26T13:00:43Z</time>
      </trkpt>
      <trkpt lat="44.05137" lon="7.43774">
        <ele>2292</ele>
        <time>2013-08-26T13:00:57Z</time>
      </trkpt>
      <trkpt lat="44.05136" lon="7.43787">
        <ele>2297</ele>
        <time>2013-08-26T13:01:08Z</time>
      </trkpt>
      <trkpt lat="44.05134" lon="7.43801">
        <ele>2297</ele>
        <time>2013-08-26T13:01:18Z</time>
      </trkpt>
      <trkpt lat="44.05132" lon="7.43814">
        <ele>2297</ele>
        <time>2013-08-26T13:01:28Z</time>
      </trkpt>
      <trkpt lat="44.05129" lon="7.43828">
        <ele>2290</ele>
        <time>2013-08-26T13:01:39Z</time>
      </trkpt>
      <trkpt lat="44.05131" lon="7.43841">
        <ele>2290</ele>
        <time>2013-08-26T13:01:47Z</time>
      </trkpt>
      <trkpt lat="44.05132" lon="7.43854">
        <ele>2290</ele>
        <time>2013-08-26T13:01:56Z</time>
      </trkpt>
      <trkpt lat="44.05134" lon="7.43865">
        <ele>2290</ele>
        <time>2013-08-26T13:02:04Z</time>
      </trkpt>
      <trkpt lat="44.05139" lon="7.43876">
        <ele>2290</ele>
        <time>2013-08-26T13:02:13Z</time>
      </trkpt>
      <trkpt lat="44.05139" lon="7.4389">
        <ele>2290</ele>
        <time>2013-08-26T13:02:21Z</time>
      </trkpt>
      <trkpt lat="44.05137" lon="7.43902">
        <ele>2290</ele>
        <time>2013-08-26T13:02:32Z</time>
      </trkpt>
      <trkpt lat="44.05132" lon="7.43916">
        <ele>2290</ele>
        <time>2013-08-26T13:02:46Z</time>
      </trkpt>
      <trkpt lat="44.05128" lon="7.43927">
        <ele>2290</ele>
        <time>2013-08-26T13:02:55Z</time>
      </trkpt>
      <trkpt lat="44.05128" lon="7.43941">
        <ele>2290</ele>
        <time>2013-08-26T13:03:05Z</time>
      </trkpt>
      <trkpt lat="44.05124" lon="7.43952">
        <ele>2290</ele>
        <time>2013-08-26T13:03:25Z</time>
      </trkpt>
      <trkpt lat="44.05119" lon="7.43963">
        <ele>2290</ele>
        <time>2013-08-26T13:03:37Z</time>
      </trkpt>
      <trkpt lat="44.05123" lon="7.43975">
        <ele>2290</ele>
        <time>2013-08-26T13:03:50Z</time>
      </trkpt>
      <trkpt lat="44.05128" lon="7.43985">
        <ele>2300</ele>
        <time>2013-08-26T13:04:03Z</time>
      </trkpt>
      <trkpt lat="44.05136" lon="7.43992">
        <ele>2300</ele>
        <time>2013-08-26T13:04:17Z</time>
      </trkpt>
      <trkpt lat="44.05136" lon="7.44005">
        <ele>2300</ele>
        <time>2013-08-26T13:04:26Z</time>
      </trkpt>
      <trkpt lat="44.05138" lon="7.44017">
        <ele>2300</ele>
        <time>2013-08-26T13:04:35Z</time>
      </trkpt>
      <trkpt lat="44.05139" lon="7.44031">
        <ele>2293</ele>
        <time>2013-08-26T13:04:49Z</time>
      </trkpt>
      <trkpt lat="44.05147" lon="7.44023">
        <ele>2293</ele>
        <time>2013-08-26T13:05:00Z</time>
      </trkpt>
      <trkpt lat="44.05148" lon="7.44036">
        <ele>2293</ele>
        <time>2013-08-26T13:05:15Z</time>
      </trkpt>
      <trkpt lat="44.05147" lon="7.4405">
        <ele>2293</ele>
        <time>2013-08-26T13:05:26Z</time>
      </trkpt>
      <trkpt lat="44.05156" lon="7.44056">
        <ele>2283</ele>
        <time>2013-08-26T13:05:43Z</time>
      </trkpt>
      <trkpt lat="44.05164" lon="7.44059">
        <ele>2283</ele>
        <time>2013-08-26T13:05:53Z</time>
      </trkpt>
      <trkpt lat="44.05166" lon="7.44072">
        <ele>2283</ele>
        <time>2013-08-26T13:06:13Z</time>
      </trkpt>
      <trkpt lat="44.05167" lon="7.44084">
        <ele>2291</ele>
        <time>2013-08-26T13:06:25Z</time>
      </trkpt>
      <trkpt lat="44.05167" lon="7.44097">
        <ele>2291</ele>
        <time>2013-08-26T13:06:39Z</time>
      </trkpt>
      <trkpt lat="44.05167" lon="7.4411">
        <ele>2291</ele>
        <time>2013-08-26T13:06:52Z</time>
      </trkpt>
      <trkpt lat="44.05167" lon="7.44122">
        <ele>2291</ele>
        <time>2013-08-26T13:07:03Z</time>
      </trkpt>
      <trkpt lat="44.05169" lon="7.44135">
        <ele>2291</ele>
        <time>2013-08-26T13:07:13Z</time>
      </trkpt>
      <trkpt lat="44.05171" lon="7.44146">
        <ele>2291</ele>
        <time>2013-08-26T13:07:22Z</time>
      </trkpt>
      <trkpt lat="44.05172" lon="7.44159">
        <ele>2285</ele>
        <time>2013-08-26T13:07:31Z</time>
      </trkpt>
      <trkpt lat="44.05174" lon="7.44173">
        <ele>2285</ele>
        <time>2013-08-26T13:07:41Z</time>
      </trkpt>
      <trkpt lat="44.05171" lon="7.44186">
        <ele>2291</ele>
        <time>2013-08-26T13:07:49Z</time>
      </trkpt>
      <trkpt lat="44.05173" lon="7.44199">
        <ele>2280</ele>
        <time>2013-08-26T13:08:07Z</time>
      </trkpt>
      <trkpt lat="44.05172" lon="7.44211">
        <ele>2280</ele>
        <time>2013-08-26T13:08:18Z</time>
      </trkpt>
      <trkpt lat="44.05174" lon="7.44224">
        <ele>2280</ele>
        <time>2013-08-26T13:08:41Z</time>
      </trkpt>
      <trkpt lat="44.05171" lon="7.44235">
        <ele>2280</ele>
        <time>2013-08-26T13:08:59Z</time>
      </trkpt>
      <trkpt lat="44.05168" lon="7.44248">
        <ele>2280</ele>
        <time>2013-08-26T13:09:20Z</time>
      </trkpt>
      <trkpt lat="44.05172" lon="7.4426">
        <ele>2280</ele>
        <time>2013-08-26T13:09:35Z</time>
      </trkpt>
      <trkpt lat="44.05178" lon="7.44269">
        <ele>2280</ele>
        <time>2013-08-26T13:12:56Z</time>
      </trkpt>
      <trkpt lat="44.05182" lon="7.4428">
        <ele>2270</ele>
        <time>2013-08-26T13:13:12Z</time>
      </trkpt>
      <trkpt lat="44.0519" lon="7.44285">
        <ele>2270</ele>
        <time>2013-08-26T13:13:33Z</time>
      </trkpt>
      <trkpt lat="44.05198" lon="7.44291">
        <ele>2270</ele>
        <time>2013-08-26T13:13:53Z</time>
      </trkpt>
      <trkpt lat="44.05196" lon="7.44305">
        <ele>2264</ele>
        <time>2013-08-26T13:14:10Z</time>
      </trkpt>
      <trkpt lat="44.05199" lon="7.44318">
        <ele>2264</ele>
        <time>2013-08-26T13:14:19Z</time>
      </trkpt>
      <trkpt lat="44.05197" lon="7.44331">
        <ele>2264</ele>
        <time>2013-08-26T13:14:39Z</time>
      </trkpt>
      <trkpt lat="44.05204" lon="7.44338">
        <ele>2259</ele>
        <time>2013-08-26T13:15:39Z</time>
      </trkpt>
      <trkpt lat="44.0521" lon="7.44349">
        <ele>2259</ele>
        <time>2013-08-26T13:15:58Z</time>
      </trkpt>
      <trkpt lat="44.05209" lon="7.44361">
        <ele>2259</ele>
        <time>2013-08-26T13:16:07Z</time>
      </trkpt>
      <trkpt lat="44.05205" lon="7.44372">
        <ele>2253</ele>
        <time>2013-08-26T13:16:25Z</time>
      </trkpt>
      <trkpt lat="44.05204" lon="7.44385">
        <ele>2253</ele>
        <time>2013-08-26T13:16:35Z</time>
      </trkpt>
      <trkpt lat="44.05206" lon="7.44396">
        <ele>2253</ele>
        <time>2013-08-26T13:16:44Z</time>
      </trkpt>
      <trkpt lat="44.05196" lon="7.44395">
        <ele>2253</ele>
        <time>2013-08-26T13:17:19Z</time>
      </trkpt>
      <trkpt lat="44.05188" lon="7.44399">
        <ele>2253</ele>
        <time>2013-08-26T13:17:37Z</time>
      </trkpt>
      <trkpt lat="44.05189" lon="7.44411">
        <ele>2258</ele>
        <time>2013-08-26T13:17:49Z</time>
      </trkpt>
      <trkpt lat="44.05191" lon="7.44424">
        <ele>2267</ele>
        <time>2013-08-26T13:18:08Z</time>
      </trkpt>
      <trkpt lat="44.05184" lon="7.44432">
        <ele>2267</ele>
        <time>2013-08-26T13:18:29Z</time>
      </trkpt>
      <trkpt lat="44.05174" lon="7.44436">
        <ele>2267</ele>
        <time>2013-08-26T13:18:51Z</time>
      </trkpt>
      <trkpt lat="44.05178" lon="7.44448">
        <ele>2267</ele>
        <time>2013-08-26T13:19:13Z</time>
      </trkpt>
      <trkpt lat="44.05176" lon="7.44461">
        <ele>2267</ele>
        <time>2013-08-26T13:19:28Z</time>
      </trkpt>
      <trkpt lat="44.05184" lon="7.44468">
        <ele>2267</ele>
        <time>2013-08-26T13:19:41Z</time>
      </trkpt>
      <trkpt lat="44.0519" lon="7.44478">
        <ele>2273</ele>
        <time>2013-08-26T13:19:51Z</time>
      </trkpt>
      <trkpt lat="44.05198" lon="7.44482">
        <ele>2273</ele>
        <time>2013-08-26T13:20:03Z</time>
      </trkpt>
      <trkpt lat="44.05207" lon="7.44479">
        <ele>2273</ele>
        <time>2013-08-26T13:20:15Z</time>
      </trkpt>
      <trkpt lat="44.0521" lon="7.44491">
        <ele>2266</ele>
        <time>2013-08-26T13:20:25Z</time>
      </trkpt>
      <trkpt lat="44.05211" lon="7.44503">
        <ele>2266</ele>
        <time>2013-08-26T13:20:34Z</time>
      </trkpt>
      <trkpt lat="44.05218" lon="7.44511">
        <ele>2266</ele>
        <time>2013-08-26T13:20:45Z</time>
      </trkpt>
      <trkpt lat="44.0522" lon="7.44523">
        <ele>2266</ele>
        <time>2013-08-26T13:20:58Z</time>
      </trkpt>
      <trkpt lat="44.05225" lon="7.44535">
        <ele>2266</ele>
        <time>2013-08-26T13:21:07Z</time>
      </trkpt>
      <trkpt lat="44.05231" lon="7.44544">
        <ele>2272</ele>
        <time>2013-08-26T13:21:17Z</time>
      </trkpt>
      <trkpt lat="44.05238" lon="7.44553">
        <ele>2272</ele>
        <time>2013-08-26T13:21:28Z</time>
      </trkpt>
      <trkpt lat="44.05247" lon="7.44554">
        <ele>2265</ele>
        <time>2013-08-26T13:21:38Z</time>
      </trkpt>
      <trkpt lat="44.05257" lon="7.44557">
        <ele>2265</ele>
        <time>2013-08-26T13:21:46Z</time>
      </trkpt>
      <trkpt lat="44.05263" lon="7.44568">
        <ele>2265</ele>
        <time>2013-08-26T13:22:02Z</time>
      </trkpt>
      <trkpt lat="44.05264" lon="7.4458">
        <ele>2265</ele>
        <time>2013-08-26T13:22:13Z</time>
      </trkpt>
      <trkpt lat="44.05266" lon="7.44593">
        <ele>2257</ele>
        <time>2013-08-26T13:22:24Z</time>
      </trkpt>
      <trkpt lat="44.05267" lon="7.44606">
        <ele>2264</ele>
        <time>2013-08-26T13:22:37Z</time>
      </trkpt>
      <trkpt lat="44.0527" lon="7.44619">
        <ele>2264</ele>
        <time>2013-08-26T13:23:04Z</time>
      </trkpt>
      <trkpt lat="44.05266" lon="7.44631">
        <ele>2255</ele>
        <time>2013-08-26T13:23:16Z</time>
      </trkpt>
      <trkpt lat="44.0527" lon="7.44642">
        <ele>2255</ele>
        <time>2013-08-26T13:23:30Z</time>
      </trkpt>
      <trkpt lat="44.05268" lon="7.44655">
        <ele>2255</ele>
        <time>2013-08-26T13:23:42Z</time>
      </trkpt>
      <trkpt lat="44.05271" lon="7.44667">
        <ele>2255</ele>
        <time>2013-08-26T13:23:52Z</time>
      </trkpt>
      <trkpt lat="44.05278" lon="7.44676">
        <ele>2248</ele>
        <time>2013-08-26T13:24:05Z</time>
      </trkpt>
      <trkpt lat="44.05283" lon="7.44686">
        <ele>2248</ele>
        <time>2013-08-26T13:24:15Z</time>
      </trkpt>
      <trkpt lat="44.05276" lon="7.44695">
        <ele>2248</ele>
        <time>2013-08-26T13:26:54Z</time>
      </trkpt>
      <trkpt lat="44.05276" lon="7.44708">
        <ele>2239</ele>
        <time>2013-08-26T13:27:08Z</time>
      </trkpt>
      <trkpt lat="44.05271" lon="7.44718">
        <ele>2239</ele>
        <time>2013-08-26T13:27:23Z</time>
      </trkpt>
      <trkpt lat="44.05262" lon="7.44716">
        <ele>2244</ele>
        <time>2013-08-26T13:27:30Z</time>
      </trkpt>
      <trkpt lat="44.05257" lon="7.44726">
        <ele>2244</ele>
        <time>2013-08-26T13:27:39Z</time>
      </trkpt>
      <trkpt lat="44.05265" lon="7.44729">
        <ele>2238</ele>
        <time>2013-08-26T13:27:48Z</time>
      </trkpt>
      <trkpt lat="44.05274" lon="7.44731">
        <ele>2238</ele>
        <time>2013-08-26T13:28:02Z</time>
      </trkpt>
      <trkpt lat="44.05272" lon="7.44744">
        <ele>2226</ele>
        <time>2013-08-26T13:28:16Z</time>
      </trkpt>
      <trkpt lat="44.05279" lon="7.44752">
        <ele>2221</ele>
        <time>2013-08-26T13:28:24Z</time>
      </trkpt>
      <trkpt lat="44.05282" lon="7.44764">
        <ele>2226</ele>
        <time>2013-08-26T13:28:55Z</time>
      </trkpt>
      <trkpt lat="44.05285" lon="7.44776">
        <ele>2219</ele>
        <time>2013-08-26T13:29:12Z</time>
      </trkpt>
      <trkpt lat="44.05293" lon="7.44772">
        <ele>2207</ele>
        <time>2013-08-26T13:29:26Z</time>
      </trkpt>
      <trkpt lat="44.05302" lon="7.44773">
        <ele>2219</ele>
        <time>2013-08-26T13:29:41Z</time>
      </trkpt>
      <trkpt lat="44.0531" lon="7.44777">
        <ele>2219</ele>
        <time>2013-08-26T13:29:56Z</time>
      </trkpt>
      <trkpt lat="44.0532" lon="7.44778">
        <ele>2219</ele>
        <time>2013-08-26T13:30:10Z</time>
      </trkpt>
      <trkpt lat="44.05328" lon="7.44785">
        <ele>2211</ele>
        <time>2013-08-26T13:30:19Z</time>
      </trkpt>
      <trkpt lat="44.05338" lon="7.44794">
        <ele>2211</ele>
        <time>2013-08-26T13:30:30Z</time>
      </trkpt>
      <trkpt lat="44.05345" lon="7.44801">
        <ele>2211</ele>
        <time>2013-08-26T13:30:40Z</time>
      </trkpt>
      <trkpt lat="44.05353" lon="7.44806">
        <ele>2205</ele>
        <time>2013-08-26T13:31:26Z</time>
      </trkpt>
      <trkpt lat="44.05362" lon="7.44804">
        <ele>2205</ele>
        <time>2013-08-26T13:32:41Z</time>
      </trkpt>
      <trkpt lat="44.05359" lon="7.44817">
        <ele>2205</ele>
        <time>2013-08-26T13:33:40Z</time>
      </trkpt>
      <trkpt lat="44.0537" lon="7.4482">
        <ele>2205</ele>
        <time>2013-08-26T13:33:44Z</time>
      </trkpt>
      <trkpt lat="44.0537" lon="7.44807">
        <ele>2190</ele>
        <time>2013-08-26T13:34:08Z</time>
      </trkpt>
      <trkpt lat="44.05376" lon="7.44817">
        <ele>2197</ele>
        <time>2013-08-26T13:34:20Z</time>
      </trkpt>
      <trkpt lat="44.05367" lon="7.44817">
        <ele>2191</ele>
        <time>2013-08-26T13:34:28Z</time>
      </trkpt>
      <trkpt lat="44.05376" lon="7.44816">
        <ele>2191</ele>
        <time>2013-08-26T13:34:32Z</time>
      </trkpt>
      <trkpt lat="44.05385" lon="7.44811">
        <ele>2191</ele>
        <time>2013-08-26T13:34:43Z</time>
      </trkpt>
      <trkpt lat="44.05395" lon="7.44811">
        <ele>2191</ele>
        <time>2013-08-26T13:35:29Z</time>
      </trkpt>
      <trkpt lat="44.05387" lon="7.44808">
        <ele>2191</ele>
        <time>2013-08-26T13:36:11Z</time>
      </trkpt>
      <trkpt lat="44.05394" lon="7.44815">
        <ele>2186</ele>
        <time>2013-08-26T13:36:26Z</time>
      </trkpt>
      <trkpt lat="44.05386" lon="7.44819">
        <ele>2193</ele>
        <time>2013-08-26T13:37:05Z</time>
      </trkpt>
      <trkpt lat="44.05377" lon="7.44824">
        <ele>2179</ele>
        <time>2013-08-26T13:37:44Z</time>
      </trkpt>
      <trkpt lat="44.05387" lon="7.44826">
        <ele>2191</ele>
        <time>2013-08-26T13:38:10Z</time>
      </trkpt>
      <trkpt lat="44.0538" lon="7.44837">
        <ele>2191</ele>
        <time>2013-08-26T13:38:18Z</time>
      </trkpt>
      <trkpt lat="44.05378" lon="7.44849">
        <ele>2191</ele>
        <time>2013-08-26T13:38:34Z</time>
      </trkpt>
      <trkpt lat="44.05375" lon="7.44861">
        <ele>2191</ele>
        <time>2013-08-26T13:39:02Z</time>
      </trkpt>
      <trkpt lat="44.05375" lon="7.44874">
        <ele>2181</ele>
        <time>2013-08-26T13:40:42Z</time>
      </trkpt>
      <trkpt lat="44.05371" lon="7.44885">
        <ele>2181</ele>
        <time>2013-08-26T13:40:54Z</time>
      </trkpt>
      <trkpt lat="44.05364" lon="7.44893">
        <ele>2181</ele>
        <time>2013-08-26T13:41:02Z</time>
      </trkpt>
      <trkpt lat="44.05366" lon="7.44905">
        <ele>2181</ele>
        <time>2013-08-26T13:41:13Z</time>
      </trkpt>
      <trkpt lat="44.05365" lon="7.44917">
        <ele>2181</ele>
        <time>2013-08-26T13:41:23Z</time>
      </trkpt>
      <trkpt lat="44.05365" lon="7.44932">
        <ele>2181</ele>
        <time>2013-08-26T13:41:34Z</time>
      </trkpt>
      <trkpt lat="44.0536" lon="7.44941">
        <ele>2174</ele>
        <time>2013-08-26T13:41:43Z</time>
      </trkpt>
      <trkpt lat="44.05356" lon="7.44953">
        <ele>2174</ele>
        <time>2013-08-26T13:41:52Z</time>
      </trkpt>
      <trkpt lat="44.05362" lon="7.44963">
        <ele>2174</ele>
        <time>2013-08-26T13:42:02Z</time>
      </trkpt>
      <trkpt lat="44.0536" lon="7.44978">
        <ele>2159</ele>
        <time>2013-08-26T13:42:15Z</time>
      </trkpt>
      <trkpt lat="44.05354" lon="7.44989">
        <ele>2151</ele>
        <time>2013-08-26T13:42:25Z</time>
      </trkpt>
      <trkpt lat="44.05359" lon="7.45003">
        <ele>2160</ele>
        <time>2013-08-26T13:42:35Z</time>
      </trkpt>
      <trkpt lat="44.05364" lon="7.45018">
        <ele>2160</ele>
        <time>2013-08-26T13:42:46Z</time>
      </trkpt>
      <trkpt lat="44.05368" lon="7.4503">
        <ele>2171</ele>
        <time>2013-08-26T13:43:03Z</time>
      </trkpt>
      <trkpt lat="44.05374" lon="7.45041">
        <ele>2171</ele>
        <time>2013-08-26T13:43:13Z</time>
      </trkpt>
      <trkpt lat="44.05378" lon="7.45055">
        <ele>2165</ele>
        <time>2013-08-26T13:43:21Z</time>
      </trkpt>
      <trkpt lat="44.05377" lon="7.45068">
        <ele>2165</ele>
        <time>2013-08-26T13:43:33Z</time>
      </trkpt>
      <trkpt lat="44.05381" lon="7.4508">
        <ele>2174</ele>
        <time>2013-08-26T13:43:44Z</time>
      </trkpt>
      <trkpt lat="44.05389" lon="7.45087">
        <ele>2174</ele>
        <time>2013-08-26T13:43:52Z</time>
      </trkpt>
      <trkpt lat="44.05396" lon="7.45094">
        <ele>2174</ele>
        <time>2013-08-26T13:44:00Z</time>
      </trkpt>
      <trkpt lat="44.05402" lon="7.45105">
        <ele>2174</ele>
        <time>2013-08-26T13:44:11Z</time>
      </trkpt>
      <trkpt lat="44.05408" lon="7.45114">
        <ele>2174</ele>
        <time>2013-08-26T13:44:20Z</time>
      </trkpt>
      <trkpt lat="44.05413" lon="7.45125">
        <ele>2174</ele>
        <time>2013-08-26T13:44:30Z</time>
      </trkpt>
      <trkpt lat="44.05421" lon="7.45135">
        <ele>2174</ele>
        <time>2013-08-26T13:44:47Z</time>
      </trkpt>
      <trkpt lat="44.0543" lon="7.45131">
        <ele>2174</ele>
        <time>2013-08-26T13:44:57Z</time>
      </trkpt>
      <trkpt lat="44.05437" lon="7.45123">
        <ele>2168</ele>
        <time>2013-08-26T13:45:06Z</time>
      </trkpt>
      <trkpt lat="44.05447" lon="7.45118">
        <ele>2168</ele>
        <time>2013-08-26T13:45:15Z</time>
      </trkpt>
      <trkpt lat="44.05455" lon="7.45115">
        <ele>2174</ele>
        <time>2013-08-26T13:45:25Z</time>
      </trkpt>
      <trkpt lat="44.05464" lon="7.45118">
        <ele>2174</ele>
        <time>2013-08-26T13:45:34Z</time>
      </trkpt>
      <trkpt lat="44.05472" lon="7.45125">
        <ele>2174</ele>
        <time>2013-08-26T13:45:43Z</time>
      </trkpt>
      <trkpt lat="44.05477" lon="7.45135">
        <ele>2174</ele>
        <time>2013-08-26T13:45:53Z</time>
      </trkpt>
      <trkpt lat="44.05485" lon="7.45141">
        <ele>2174</ele>
        <time>2013-08-26T13:46:02Z</time>
      </trkpt>
      <trkpt lat="44.05492" lon="7.45148">
        <ele>2174</ele>
        <time>2013-08-26T13:46:10Z</time>
      </trkpt>
      <trkpt lat="44.055" lon="7.45155">
        <ele>2167</ele>
        <time>2013-08-26T13:46:19Z</time>
      </trkpt>
      <trkpt lat="44.05509" lon="7.45158">
        <ele>2167</ele>
        <time>2013-08-26T13:46:51Z</time>
      </trkpt>
      <trkpt lat="44.05517" lon="7.45153">
        <ele>2167</ele>
        <time>2013-08-26T13:47:01Z</time>
      </trkpt>
      <trkpt lat="44.05526" lon="7.45147">
        <ele>2167</ele>
        <time>2013-08-26T13:47:11Z</time>
      </trkpt>
      <trkpt lat="44.05535" lon="7.45146">
        <ele>2173</ele>
        <time>2013-08-26T13:47:23Z</time>
      </trkpt>
      <trkpt lat="44.05544" lon="7.45144">
        <ele>2173</ele>
        <time>2013-08-26T13:47:31Z</time>
      </trkpt>
      <trkpt lat="44.05551" lon="7.45152">
        <ele>2173</ele>
        <time>2013-08-26T13:48:31Z</time>
      </trkpt>
      <trkpt lat="44.05551" lon="7.45165">
        <ele>2173</ele>
        <time>2013-08-26T13:48:40Z</time>
      </trkpt>
      <trkpt lat="44.05555" lon="7.45177">
        <ele>2159</ele>
        <time>2013-08-26T13:48:58Z</time>
      </trkpt>
      <trkpt lat="44.05551" lon="7.45189">
        <ele>2159</ele>
        <time>2013-08-26T13:49:11Z</time>
      </trkpt>
      <trkpt lat="44.05554" lon="7.452">
        <ele>2164</ele>
        <time>2013-08-26T13:49:28Z</time>
      </trkpt>
      <trkpt lat="44.05562" lon="7.45195">
        <ele>2155</ele>
        <time>2013-08-26T13:49:43Z</time>
      </trkpt>
      <trkpt lat="44.05569" lon="7.45186">
        <ele>2155</ele>
        <time>2013-08-26T13:49:55Z</time>
      </trkpt>
      <trkpt lat="44.05572" lon="7.45171">
        <ele>2147</ele>
        <time>2013-08-26T13:50:11Z</time>
      </trkpt>
      <trkpt lat="44.05578" lon="7.45161">
        <ele>2153</ele>
        <time>2013-08-26T13:50:25Z</time>
      </trkpt>
      <trkpt lat="44.05583" lon="7.45171">
        <ele>2153</ele>
        <time>2013-08-26T13:50:58Z</time>
      </trkpt>
      <trkpt lat="44.05588" lon="7.45181">
        <ele>2153</ele>
        <time>2013-08-26T13:51:09Z</time>
      </trkpt>
      <trkpt lat="44.05594" lon="7.45191">
        <ele>2136</ele>
        <time>2013-08-26T13:51:19Z</time>
      </trkpt>
      <trkpt lat="44.05601" lon="7.45198">
        <ele>2130</ele>
        <time>2013-08-26T13:51:28Z</time>
      </trkpt>
      <trkpt lat="44.05609" lon="7.45206">
        <ele>2136</ele>
        <time>2013-08-26T13:51:34Z</time>
      </trkpt>
      <trkpt lat="44.05616" lon="7.45215">
        <ele>2146</ele>
        <time>2013-08-26T13:51:51Z</time>
      </trkpt>
      <trkpt lat="44.05625" lon="7.45218">
        <ele>2146</ele>
        <time>2013-08-26T13:52:00Z</time>
      </trkpt>
      <trkpt lat="44.05632" lon="7.45209">
        <ele>2146</ele>
        <time>2013-08-26T13:52:08Z</time>
      </trkpt>
      <trkpt lat="44.05638" lon="7.45197">
        <ele>2146</ele>
        <time>2013-08-26T13:52:21Z</time>
      </trkpt>
      <trkpt lat="44.05645" lon="7.4519">
        <ele>2146</ele>
        <time>2013-08-26T13:52:34Z</time>
      </trkpt>
      <trkpt lat="44.05647" lon="7.45179">
        <ele>2146</ele>
        <time>2013-08-26T13:52:53Z</time>
      </trkpt>
      <trkpt lat="44.05652" lon="7.45167">
        <ele>2146</ele>
        <time>2013-08-26T13:53:02Z</time>
      </trkpt>
      <trkpt lat="44.05654" lon="7.45153">
        <ele>2146</ele>
        <time>2013-08-26T13:53:12Z</time>
      </trkpt>
      <trkpt lat="44.05656" lon="7.45141">
        <ele>2146</ele>
        <time>2013-08-26T13:53:23Z</time>
      </trkpt>
      <trkpt lat="44.0566" lon="7.45129">
        <ele>2146</ele>
        <time>2013-08-26T13:53:33Z</time>
      </trkpt>
      <trkpt lat="44.05664" lon="7.45118">
        <ele>2139</ele>
        <time>2013-08-26T13:53:43Z</time>
      </trkpt>
      <trkpt lat="44.05673" lon="7.45119">
        <ele>2139</ele>
        <time>2013-08-26T13:53:57Z</time>
      </trkpt>
      <trkpt lat="44.05684" lon="7.45118">
        <ele>2139</ele>
        <time>2013-08-26T13:54:07Z</time>
      </trkpt>
      <trkpt lat="44.05692" lon="7.45124">
        <ele>2139</ele>
        <time>2013-08-26T13:54:28Z</time>
      </trkpt>
      <trkpt lat="44.05699" lon="7.45133">
        <ele>2134</ele>
        <time>2013-08-26T13:54:41Z</time>
      </trkpt>
      <trkpt lat="44.05697" lon="7.45144">
        <ele>2134</ele>
        <time>2013-08-26T13:56:03Z</time>
      </trkpt>
      <trkpt lat="44.05707" lon="7.45145">
        <ele>2134</ele>
        <time>2013-08-26T13:56:23Z</time>
      </trkpt>
      <trkpt lat="44.05718" lon="7.45142">
        <ele>2134</ele>
        <time>2013-08-26T13:56:39Z</time>
      </trkpt>
      <trkpt lat="44.05723" lon="7.45153">
        <ele>2129</ele>
        <time>2013-08-26T13:57:06Z</time>
      </trkpt>
      <trkpt lat="44.0573" lon="7.45163">
        <ele>2129</ele>
        <time>2013-08-26T13:57:19Z</time>
      </trkpt>
      <trkpt lat="44.05738" lon="7.45171">
        <ele>2129</ele>
        <time>2013-08-26T13:57:28Z</time>
      </trkpt>
      <trkpt lat="44.05745" lon="7.45183">
        <ele>2122</ele>
        <time>2013-08-26T13:57:38Z</time>
      </trkpt>
      <trkpt lat="44.05745" lon="7.45197">
        <ele>2117</ele>
        <time>2013-08-26T13:57:48Z</time>
      </trkpt>
      <trkpt lat="44.05737" lon="7.4519">
        <ele>2128</ele>
        <time>2013-08-26T13:59:12Z</time>
      </trkpt>
      <trkpt lat="44.05745" lon="7.45196">
        <ele>2128</ele>
        <time>2013-08-26T14:00:44Z</time>
      </trkpt>
      <trkpt lat="44.05737" lon="7.45188">
        <ele>2128</ele>
        <time>2013-08-26T14:01:45Z</time>
      </trkpt>
      <trkpt lat="44.05746" lon="7.45193">
        <ele>2121</ele>
        <time>2013-08-26T14:03:28Z</time>
      </trkpt>
      <trkpt lat="44.05737" lon="7.45197">
        <ele>2139</ele>
        <time>2013-08-26T14:03:59Z</time>
      </trkpt>
    </trkseg>
  </trk>
</gpx>